Skipping 96 KB..
Full LogTestTestTestTestTestTestTestTestTestTestTestTestTestTestTestTestTestTestTestTestTestTestTestTestTestTestTestTestTestTestTestTestTestTestTestTestTestTestTestTestTestTestTestTestTestTestTestTestTestTestTestTestTestTestTestTestTestTestTestTestTestTestTestTestTestTestTestTestTestTestTestTestTestTestTestTestTestTestTest
23:04:54 [2026-05-05T15:04:54.668Z] rsync: [receiver] mkstemp "/data/docker-ce/linux/centos/7/aarch64/nightly/Packages/.containerd.io-1.6.15-3.1.el7.aarch64.rpm.zg3bI6" failed: No space left on device (28)
23:04:54 [2026-05-05T15:04:54.668Z]
23:04:55 [2026-05-05T15:04:55.579Z] 0 0% 0.00kB/s 0:00:00
23:04:56 [2026-05-05T15:04:56.490Z] 7,244,999 28% 6.85MB/s 0:00:02
23:04:56 [2026-05-05T15:04:56.741Z] 20,072,594 78% 9.54MB/s 0:00:00
23:04:56 [2026-05-05T15:04:56.741Z] 25,676,644 100% 9.98MB/s 0:00:02 (xfr#192, ir-chk=1351/3396)
23:04:56 [2026-05-05T15:04:56.741Z] rsync: [receiver] mkstemp "/data/docker-ce/linux/centos/7/aarch64/nightly/Packages/.containerd.io-1.6.16-3.1.el7.aarch64.rpm.O1H847" failed: No space left on device (28)
23:04:56 [2026-05-05T15:04:56.741Z]
23:04:57 [2026-05-05T15:04:57.291Z] 0 0% 0.00kB/s 0:00:00
23:04:58 [2026-05-05T15:04:58.635Z] 6,835,532 26% 6.52MB/s 0:00:02
23:04:58 [2026-05-05T15:04:58.885Z] 19,155,266 74% 9.14MB/s 0:00:00
23:04:58 [2026-05-05T15:04:58.885Z] 25,677,128 100% 9.69MB/s 0:00:02 (xfr#193, ir-chk=1350/3396)
23:04:58 [2026-05-05T15:04:58.885Z] rsync: [receiver] mkstemp "/data/docker-ce/linux/centos/7/aarch64/nightly/Packages/.containerd.io-1.6.18-3.1.el7.aarch64.rpm.u3TcOF" failed: No space left on device (28)
23:04:58 [2026-05-05T15:04:58.885Z]
23:04:59 [2026-05-05T15:04:59.436Z] 0 0% 0.00kB/s 0:00:00
23:05:00 [2026-05-05T15:05:00.347Z] 5,951,175 22% 5.68MB/s 0:00:03
23:05:00 [2026-05-05T15:05:00.898Z] 18,369,204 70% 8.76MB/s 0:00:00
23:05:00 [2026-05-05T15:05:00.898Z] 26,121,372 100% 9.49MB/s 0:00:02 (xfr#194, ir-chk=1349/3396)
23:05:00 [2026-05-05T15:05:00.898Z] rsync: [receiver] mkstemp "/data/docker-ce/linux/centos/7/aarch64/nightly/Packages/.containerd.io-1.6.19-3.1.el7.aarch64.rpm.0raE3e" failed: No space left on device (28)
23:05:00 [2026-05-05T15:05:00.898Z]
23:05:01 [2026-05-05T15:05:01.449Z] 0 0% 0.00kB/s 0:00:00
23:05:02 [2026-05-05T15:05:02.360Z] 4,558,766 17% 4.35MB/s 0:00:04
23:05:03 [2026-05-05T15:05:03.271Z] 16,845,734 64% 8.03MB/s 0:00:01
23:05:03 [2026-05-05T15:05:03.271Z] 26,121,160 100% 9.13MB/s 0:00:02 (xfr#195, ir-chk=1348/3396)
23:05:03 [2026-05-05T15:05:03.271Z] rsync: [receiver] mkstemp "/data/docker-ce/linux/centos/7/aarch64/nightly/Packages/.containerd.io-1.6.20-3.1.el7.aarch64.rpm.gIrp44" failed: No space left on device (28)
23:05:03 [2026-05-05T15:05:03.271Z]
23:05:03 [2026-05-05T15:05:03.271Z] 0 0% 0.00kB/s 0:00:00
23:05:04 [2026-05-05T15:05:04.614Z] 3,248,304 12% 3.09MB/s 0:00:07
23:05:05 [2026-05-05T15:05:05.165Z] 15,781,011 60% 7.51MB/s 0:00:01
23:05:05 [2026-05-05T15:05:05.165Z] 26,164,576 100% 8.80MB/s 0:00:02 (xfr#196, ir-chk=1347/3396)
23:05:05 [2026-05-05T15:05:05.165Z] rsync: [receiver] mkstemp "/data/docker-ce/linux/centos/7/aarch64/nightly/Packages/.containerd.io-1.6.21-3.1.el7.aarch64.rpm.mns1fn" failed: No space left on device (28)
23:05:05 [2026-05-05T15:05:05.165Z]
23:05:05 [2026-05-05T15:05:05.415Z] 0 0% 0.00kB/s 0:00:00
23:05:06 [2026-05-05T15:05:06.326Z] 2,068,899 7% 1.97MB/s 0:00:11
23:05:07 [2026-05-05T15:05:07.237Z] 14,437,779 55% 6.88MB/s 0:00:01
23:05:07 [2026-05-05T15:05:07.237Z] 26,192,460 100% 8.48MB/s 0:00:02 (xfr#197, ir-chk=1346/3396)
23:05:07 [2026-05-05T15:05:07.237Z] rsync: [receiver] mkstemp "/data/docker-ce/linux/centos/7/aarch64/nightly/Packages/.containerd.io-1.6.22-3.1.el7.aarch64.rpm.Y8MjtC" failed: No space left on device (28)
23:05:07 [2026-05-05T15:05:07.237Z]
23:05:07 [2026-05-05T15:05:07.237Z] 0 0% 0.00kB/s 0:00:00
23:05:08 [2026-05-05T15:05:08.580Z] 709,301 2% 692.68kB/s 0:00:36
23:05:09 [2026-05-05T15:05:09.491Z] 13,061,801 49% 6.23MB/s 0:00:02
23:05:09 [2026-05-05T15:05:09.491Z] 25,447,064 96% 8.08MB/s 0:00:00
23:05:09 [2026-05-05T15:05:09.491Z] 26,240,564 100% 8.16MB/s 0:00:03 (xfr#198, ir-chk=1345/3396)
23:05:09 [2026-05-05T15:05:09.491Z] rsync: [receiver] mkstemp "/data/docker-ce/linux/centos/7/aarch64/nightly/Packages/.containerd.io-1.6.24-3.1.el7.aarch64.rpm.ZQtWtu" failed: No space left on device (28)
23:05:09 [2026-05-05T15:05:09.491Z]
23:05:10 [2026-05-05T15:05:10.402Z] 0 0% 0.00kB/s 0:00:00
23:05:11 [2026-05-05T15:05:11.313Z] 11,620,386 44% 11.08MB/s 0:00:01
23:05:11 [2026-05-05T15:05:11.564Z] 24,005,649 90% 11.44MB/s 0:00:00
23:05:11 [2026-05-05T15:05:11.564Z] 26,389,448 100% 11.53MB/s 0:00:02 (xfr#199, ir-chk=1344/3396)
23:05:11 [2026-05-05T15:05:11.564Z] rsync: [receiver] mkstemp "/data/docker-ce/linux/centos/7/aarch64/nightly/Packages/.containerd.io-1.6.25-3.1.el7.aarch64.rpm.shIzep" failed: No space left on device (28)
23:05:11 [2026-05-05T15:05:11.564Z]
23:05:12 [2026-05-05T15:05:12.475Z] 0 0% 0.00kB/s 0:00:00
23:05:13 [2026-05-05T15:05:13.386Z] 10,129,715 38% 9.66MB/s 0:00:01
23:05:13 [2026-05-05T15:05:13.636Z] 22,580,510 85% 10.77MB/s 0:00:00
23:05:13 [2026-05-05T15:05:13.636Z] 26,439,464 100% 10.86MB/s 0:00:02 (xfr#200, ir-chk=1343/3396)
23:05:13 [2026-05-05T15:05:13.636Z] rsync: [receiver] mkstemp "/data/docker-ce/linux/centos/7/aarch64/nightly/Packages/.containerd.io-1.6.26-3.1.el7.aarch64.rpm.spAQNo" failed: No space left on device (28)
23:05:13 [2026-05-05T15:05:13.636Z]
23:05:14 [2026-05-05T15:05:14.547Z] 0 0% 0.00kB/s 0:00:00
23:05:15 [2026-05-05T15:05:15.458Z] 8,507,952 31% 8.11MB/s 0:00:02
23:05:16 [2026-05-05T15:05:16.009Z] 20,876,832 77% 9.95MB/s 0:00:00
23:05:16 [2026-05-05T15:05:16.009Z] 27,100,944 100% 10.29MB/s 0:00:02 (xfr#201, ir-chk=1342/3396)
23:05:16 [2026-05-05T15:05:16.009Z] rsync: [receiver] mkstemp "/data/docker-ce/linux/centos/7/aarch64/nightly/Packages/.containerd.io-1.6.27-3.1.el7.aarch64.rpm.mslSvm" failed: No space left on device (28)
23:05:16 [2026-05-05T15:05:16.009Z]
23:05:16 [2026-05-05T15:05:16.259Z] 0 0% 0.00kB/s 0:00:00
23:05:17 [2026-05-05T15:05:17.602Z] 6,165,386 22% 5.84MB/s 0:00:03
23:05:18 [2026-05-05T15:05:18.153Z] 18,780,008 69% 8.92MB/s 0:00:00
23:05:18 [2026-05-05T15:05:18.153Z] 27,124,440 100% 9.66MB/s 0:00:02 (xfr#202, ir-chk=1341/3396)
23:05:18 [2026-05-05T15:05:18.153Z] rsync: [receiver] mkstemp "/data/docker-ce/linux/centos/7/aarch64/nightly/Packages/.containerd.io-1.6.28-3.1.el7.aarch64.rpm.rSCEWr" failed: No space left on device (28)
23:05:18 [2026-05-05T15:05:18.153Z]
23:05:18 [2026-05-05T15:05:18.404Z] 0 0% 0.00kB/s 0:00:00
23:05:19 [2026-05-05T15:05:19.315Z] 4,035,794 14% 3.85MB/s 0:00:05
23:05:20 [2026-05-05T15:05:20.226Z] 14,045,576 51% 6.70MB/s 0:00:01
23:05:20 [2026-05-05T15:05:20.226Z] 27,193,668 100% 9.06MB/s 0:00:02 (xfr#203, ir-chk=1340/3396)
23:05:20 [2026-05-05T15:05:20.226Z] rsync: [receiver] mkstemp "/data/docker-ce/linux/centos/7/aarch64/nightly/Packages/.containerd.io-1.6.28-3.2.el7.aarch64.rpm.a4BlMA" failed: No space left on device (28)
23:05:20 [2026-05-05T15:05:20.226Z]
23:05:20 [2026-05-05T15:05:20.476Z] 0 0% 0.00kB/s 0:00:00
23:05:21 [2026-05-05T15:05:21.387Z] 1,644,028 6% 1.57MB/s 0:00:16
23:05:22 [2026-05-05T15:05:22.298Z] 14,111,206 51% 6.72MB/s 0:00:01
23:05:22 [2026-05-05T15:05:22.548Z] 26,545,618 97% 8.44MB/s 0:00:00
23:05:22 [2026-05-05T15:05:22.548Z] 27,341,944 100% 8.47MB/s 0:00:03 (xfr#204, ir-chk=1339/3396)
23:05:22 [2026-05-05T15:05:22.548Z] rsync: [receiver] mkstemp "/data/docker-ce/linux/centos/7/aarch64/nightly/Packages/.containerd.io-1.6.31-3.1.el7.aarch64.rpm.f6dEWz" failed: No space left on device (28)
23:05:22 [2026-05-05T15:05:22.548Z]
23:05:23 [2026-05-05T15:05:23.460Z] 0 0% 0.00kB/s 0:00:00
23:05:24 [2026-05-05T15:05:24.371Z] 11,637,525 42% 11.02MB/s 0:00:01
23:05:24 [2026-05-05T15:05:24.621Z] 24,088,320 87% 11.45MB/s 0:00:00
23:05:24 [2026-05-05T15:05:24.621Z] 27,444,136 100% 11.51MB/s 0:00:02 (xfr#205, ir-chk=1338/3396)
23:05:24 [2026-05-05T15:05:24.621Z] rsync: [receiver] mkstemp "/data/docker-ce/linux/centos/7/aarch64/nightly/Packages/.containerd.io-1.6.32-3.1.el7.aarch64.rpm.57T4DG" failed: No space left on device (28)
23:05:24 [2026-05-05T15:05:24.621Z]
23:05:25 [2026-05-05T15:05:25.532Z] 0 0% 0.00kB/s 0:00:00
23:05:26 [2026-05-05T15:05:26.443Z] 9,032,789 32% 8.61MB/s 0:00:02
23:05:26 [2026-05-05T15:05:26.994Z] 21,467,201 77% 10.24MB/s 0:00:00
23:05:26 [2026-05-05T15:05:26.994Z] 27,559,732 100% 10.54MB/s 0:00:02 (xfr#206, ir-chk=1337/3396)
23:05:26 [2026-05-05T15:05:26.994Z] rsync: [receiver] mkstemp "/data/docker-ce/linux/centos/7/aarch64/nightly/Packages/.containerd.io-1.6.33-3.1.el7.aarch64.rpm.2NZx1i" failed: No space left on device (28)
23:05:26 [2026-05-05T15:05:26.994Z]
23:05:27 [2026-05-05T15:05:27.545Z] 0 0% 0.00kB/s 0:00:00
23:05:28 [2026-05-05T15:05:28.456Z] 6,247,896 22% 5.96MB/s 0:00:03
23:05:29 [2026-05-05T15:05:29.007Z] 18,616,776 67% 8.88MB/s 0:00:00
23:05:29 [2026-05-05T15:05:29.007Z] 27,558,508 100% 9.68MB/s 0:00:02 (xfr#207, ir-chk=1336/3396)
23:05:29 [2026-05-05T15:05:29.007Z] rsync: [receiver] mkstemp "/data/docker-ce/linux/centos/7/aarch64/nightly/Packages/.containerd.io-1.6.4-3.1.el7.aarch64.rpm.3aognq" failed: No space left on device (28)
23:05:29 [2026-05-05T15:05:29.007Z]
23:05:29 [2026-05-05T15:05:29.257Z] 0 0% 0.00kB/s 0:00:00
23:05:30 [2026-05-05T15:05:30.601Z] 3,529,007 13% 3.37MB/s 0:00:06
23:05:31 [2026-05-05T15:05:31.152Z] 15,832,358 61% 7.55MB/s 0:00:01
23:05:31 [2026-05-05T15:05:31.152Z] 25,828,180 100% 8.80MB/s 0:00:02 (xfr#208, ir-chk=1335/3396)
23:05:31 [2026-05-05T15:05:31.152Z] rsync: [receiver] mkstemp "/data/docker-ce/linux/centos/7/aarch64/nightly/Packages/.containerd.io-1.6.6-3.1.el7.aarch64.rpm.kFXZbM" failed: No space left on device (28)
23:05:31 [2026-05-05T15:05:31.152Z]
23:05:31 [2026-05-05T15:05:31.402Z] 0 0% 0.00kB/s 0:00:00
23:05:32 [2026-05-05T15:05:32.313Z] 2,464,368 9% 2.35MB/s 0:00:09
23:05:33 [2026-05-05T15:05:33.224Z] 14,915,163 57% 7.11MB/s 0:00:01
23:05:33 [2026-05-05T15:05:33.224Z] 25,832,296 100% 8.54MB/s 0:00:02 (xfr#209, ir-chk=1334/3396)
23:05:33 [2026-05-05T15:05:33.224Z] rsync: [receiver] mkstemp "/data/docker-ce/linux/centos/7/aarch64/nightly/Packages/.containerd.io-1.6.7-3.1.el7.aarch64.rpm.6O6rek" failed: No space left on device (28)
23:05:33 [2026-05-05T15:05:33.224Z]
23:05:33 [2026-05-05T15:05:33.474Z] 0 0% 0.00kB/s 0:00:00
23:05:34 [2026-05-05T15:05:34.385Z] 1,366,883 5% 1.30MB/s 0:00:18
23:05:35 [2026-05-05T15:05:35.296Z] 13,883,210 53% 6.60MB/s 0:00:01
23:05:35 [2026-05-05T15:05:35.296Z] 25,833,856 100% 8.30MB/s 0:00:02 (xfr#210, ir-chk=1333/3396)
23:05:35 [2026-05-05T15:05:35.296Z] rsync: [receiver] mkstemp "/data/docker-ce/linux/centos/7/aarch64/nightly/Packages/.containerd.io-1.6.8-3.1.el7.aarch64.rpm.Ohfon9" failed: No space left on device (28)
23:05:35 [2026-05-05T15:05:35.296Z]
23:05:35 [2026-05-05T15:05:35.296Z] 0 0% 0.00kB/s 0:00:00
23:05:36 [2026-05-05T15:05:36.640Z] 400,404 1% 389.46kB/s 0:01:05
23:05:37 [2026-05-05T15:05:37.551Z] 12,851,199 49% 6.10MB/s 0:00:02
23:05:37 [2026-05-05T15:05:37.551Z] 25,367,526 98% 8.04MB/s 0:00:00
23:05:37 [2026-05-05T15:05:37.551Z] 25,839,368 100% 8.10MB/s 0:00:03 (xfr#211, ir-chk=1332/3396)
23:05:37 [2026-05-05T15:05:37.551Z] rsync: [receiver] mkstemp "/data/docker-ce/linux/centos/7/aarch64/nightly/Packages/.containerd.io-1.6.9-3.1.el7.aarch64.rpm.ToQsHV" failed: No space left on device (28)
23:05:37 [2026-05-05T15:05:37.551Z]
23:05:38 [2026-05-05T15:05:38.462Z] 0 0% 0.00kB/s 0:00:00
23:05:39 [2026-05-05T15:05:39.373Z] 11,966,644 46% 11.38MB/s 0:00:01
23:05:39 [2026-05-05T15:05:39.373Z] 24,450,205 95% 11.61MB/s 0:00:00
23:05:39 [2026-05-05T15:05:39.373Z] 25,676,508 100% 11.63MB/s 0:00:02 (xfr#212, ir-chk=1331/3396)
23:05:39 [2026-05-05T15:05:39.373Z] rsync: [receiver] mkstemp "/data/docker-ce/linux/centos/7/aarch64/nightly/Packages/.docker-ce-0.0.0.20180905050215.81ba2aa-0.el7.aarch64.rpm.69bjb4" failed: No space left on device (28)
23:05:39 [2026-05-05T15:05:39.373Z]
23:05:40 [2026-05-05T15:05:40.284Z] 0 0% 0.00kB/s 0:00:00
23:05:41 [2026-05-05T15:05:41.195Z] 11,044,509 60% 10.51MB/s 0:00:00
23:05:41 [2026-05-05T15:05:41.195Z] 18,373,476 100% 11.16MB/s 0:00:01 (xfr#213, ir-chk=1330/3396)
23:05:41 [2026-05-05T15:05:41.195Z] rsync: [receiver] mkstemp "/data/docker-ce/linux/centos/7/aarch64/nightly/Packages/.docker-ce-0.0.0.20180906130300.4e0ee41-0.el7.aarch64.rpm.YYBqNX" failed: No space left on device (28)
23:05:41 [2026-05-05T15:05:41.195Z]
23:05:41 [2026-05-05T15:05:41.445Z] 0 0% 0.00kB/s 0:00:00
23:05:42 [2026-05-05T15:05:42.356Z] 5,261,442 28% 4.99MB/s 0:00:02
23:05:42 [2026-05-05T15:05:42.356Z] 17,826,915 97% 8.48MB/s 0:00:00
23:05:42 [2026-05-05T15:05:42.356Z] 18,376,620 100% 8.55MB/s 0:00:02 (xfr#214, ir-chk=1329/3396)
23:05:42 [2026-05-05T15:05:42.356Z] rsync: [receiver] mkstemp "/data/docker-ce/linux/centos/7/aarch64/nightly/Packages/.docker-ce-0.0.0.20180907010343.01dbb15-0.el7.aarch64.rpm.8E0i8U" failed: No space left on device (28)
23:05:42 [2026-05-05T15:05:42.356Z]
23:05:43 [2026-05-05T15:05:43.700Z] 0 0% 0.00kB/s 0:00:00
23:05:43 [2026-05-05T15:05:43.950Z] 11,765,350 63% 11.22MB/s 0:00:00
23:05:43 [2026-05-05T15:05:43.950Z] 18,384,356 100% 11.47MB/s 0:00:01 (xfr#215, ir-chk=1328/3396)
23:05:43 [2026-05-05T15:05:43.950Z] rsync: [receiver] mkstemp "/data/docker-ce/linux/centos/7/aarch64/nightly/Packages/.docker-ce-0.0.0.20180908010440.3376636-0.el7.aarch64.rpm.4BeZn3" failed: No space left on device (28)
23:05:43 [2026-05-05T15:05:43.950Z]
23:05:44 [2026-05-05T15:05:44.501Z] 0 0% 0.00kB/s 0:00:00
23:05:45 [2026-05-05T15:05:45.412Z] 5,867,602 31% 5.60MB/s 0:00:02
23:05:45 [2026-05-05T15:05:45.412Z] 18,154,570 98% 8.64MB/s 0:00:00
23:05:45 [2026-05-05T15:05:45.412Z] 18,386,124 100% 8.72MB/s 0:00:02 (xfr#216, ir-chk=1327/3396)
23:05:45 [2026-05-05T15:05:45.412Z] rsync: [receiver] mkstemp "/data/docker-ce/linux/centos/7/aarch64/nightly/Packages/.docker-ce-0.0.0.20180909043653.2ed7b9f-0.el7.aarch64.rpm.sp6ScH" failed: No space left on device (28)
23:05:45 [2026-05-05T15:05:45.412Z]
23:05:46 [2026-05-05T15:05:46.323Z] 0 0% 0.00kB/s 0:00:00
23:05:46 [2026-05-05T15:05:46.873Z] 12,273,205 66% 11.61MB/s 0:00:00
23:05:46 [2026-05-05T15:05:46.873Z] 18,387,632 100% 11.75MB/s 0:00:01 (xfr#217, ir-chk=1326/3396)
23:05:46 [2026-05-05T15:05:46.873Z] rsync: [receiver] mkstemp "/data/docker-ce/linux/centos/7/aarch64/nightly/Packages/.docker-ce-0.0.0.20180910145423.cbcc1c2-0.el7.aarch64.rpm.hqqRaI" failed: No space left on device (28)
23:05:46 [2026-05-05T15:05:46.873Z]
23:05:47 [2026-05-05T15:05:47.424Z] 0 0% 0.00kB/s 0:00:00
23:05:48 [2026-05-05T15:05:48.335Z] 6,260,823 35% 5.97MB/s 0:00:01
23:05:48 [2026-05-05T15:05:48.335Z] 17,862,732 100% 8.87MB/s 0:00:01 (xfr#218, ir-chk=1325/3396)
23:05:48 [2026-05-05T15:05:48.335Z] rsync: [receiver] mkstemp "/data/docker-ce/linux/centos/7/aarch64/nightly/Packages/.docker-ce-0.0.0.20180915170455.d156a93-0.el7.aarch64.rpm.ukgayW" failed: No space left on device (28)
23:05:48 [2026-05-05T15:05:48.335Z]
23:05:48 [2026-05-05T15:05:48.335Z] 0 0% 0.00kB/s 0:00:00
23:05:49 [2026-05-05T15:05:49.678Z] 952,858 5% 930.53kB/s 0:00:18
23:05:49 [2026-05-05T15:05:49.678Z] 13,256,209 73% 6.32MB/s 0:00:00
23:05:49 [2026-05-05T15:05:49.678Z] 18,096,096 100% 7.23MB/s 0:00:02 (xfr#219, ir-chk=1324/3396)
23:05:49 [2026-05-05T15:05:49.678Z] rsync: [receiver] mkstemp "/data/docker-ce/linux/centos/7/aarch64/nightly/Packages/.docker-ce-0.0.0.20180918010429.6881986-0.el7.aarch64.rpm.tIaEuc" failed: No space left on device (28)
23:05:49 [2026-05-05T15:05:49.929Z]
23:05:50 [2026-05-05T15:05:50.479Z] 0 0% 0.00kB/s 0:00:00
23:05:51 [2026-05-05T15:05:51.390Z] 7,538,675 44% 7.13MB/s 0:00:01
23:05:51 [2026-05-05T15:05:51.390Z] 16,960,624 100% 8.19MB/s 0:00:01 (xfr#220, ir-chk=1323/3396)
23:05:51 [2026-05-05T15:05:51.390Z] rsync: [receiver] mkstemp "/data/docker-ce/linux/centos/7/aarch64/nightly/Packages/.docker-ce-0.0.0.20180918210359.ab586cd-0.el7.aarch64.rpm.ontrtL" failed: No space left on device (28)
23:05:51 [2026-05-05T15:05:51.390Z]
23:05:51 [2026-05-05T15:05:51.390Z] 0 0% 0.00kB/s 0:00:00
23:05:52 [2026-05-05T15:05:52.734Z] 1,804,753 10% 1.71MB/s 0:00:08
23:05:52 [2026-05-05T15:05:52.734Z] 15,648,070 92% 7.43MB/s 0:00:00
23:05:52 [2026-05-05T15:05:52.734Z] 16,965,580 100% 7.66MB/s 0:00:02 (xfr#221, ir-chk=1322/3396)
23:05:52 [2026-05-05T15:05:52.734Z] rsync: [receiver] mkstemp "/data/docker-ce/linux/centos/7/aarch64/nightly/Packages/.docker-ce-0.0.0.20180919210302.1a15767-0.el7.aarch64.rpm.lkfcJQ" failed: No space left on device (28)
23:05:52 [2026-05-05T15:05:52.734Z]
23:05:53 [2026-05-05T15:05:53.645Z] 0 0% 0.00kB/s 0:00:00
23:05:53 [2026-05-05T15:05:53.895Z] 10,995,412 64% 10.47MB/s 0:00:00
23:05:53 [2026-05-05T15:05:53.895Z] 16,972,320 100% 10.99MB/s 0:00:01 (xfr#222, ir-chk=1321/3396)
23:05:53 [2026-05-05T15:05:53.895Z] rsync: [receiver] mkstemp "/data/docker-ce/linux/centos/7/aarch64/nightly/Packages/.docker-ce-0.0.0.20180926205650.117ee8c-0.el7.aarch64.rpm.WMfSfp" failed: No space left on device (28)
23:05:53 [2026-05-05T15:05:53.895Z]
23:05:54 [2026-05-05T15:05:54.446Z] 0 0% 0.00kB/s 0:00:00
23:05:54 [2026-05-05T15:05:54.996Z] 6,540,843 50% 6.21MB/s 0:00:00
23:05:54 [2026-05-05T15:05:54.996Z] 12,830,504 100% 8.10MB/s 0:00:01 (xfr#223, ir-chk=1320/3396)
23:05:54 [2026-05-05T15:05:54.996Z] rsync: [receiver] mkstemp "/data/docker-ce/linux/centos/7/aarch64/nightly/Packages/.docker-ce-0.0.0.20181019003649.7752b18-0.el7.aarch64.rpm.CAP2nM" failed: No space left on device (28)
23:05:54 [2026-05-05T15:05:54.996Z]
23:05:55 [2026-05-05T15:05:55.547Z] 0 0% 0.00kB/s 0:00:00
23:05:56 [2026-05-05T15:05:56.098Z] 6,164,084 47% 5.88MB/s 0:00:01
23:05:56 [2026-05-05T15:05:56.098Z] 12,863,924 100% 7.99MB/s 0:00:01 (xfr#224, ir-chk=1319/3396)
23:05:56 [2026-05-05T15:05:56.098Z] rsync: [receiver] mkstemp "/data/docker-ce/linux/centos/7/aarch64/nightly/Packages/.docker-ce-0.0.0.20181023003708.68852aa-0.el7.aarch64.rpm.YPhAr8" failed: No space left on device (28)
23:05:56 [2026-05-05T15:05:56.098Z]
23:05:56 [2026-05-05T15:05:56.348Z] 0 0% 0.00kB/s 0:00:00
23:05:56 [2026-05-05T15:05:56.899Z] 5,754,523 44% 5.49MB/s 0:00:01
23:05:56 [2026-05-05T15:05:56.899Z] 12,863,920 100% 7.81MB/s 0:00:01 (xfr#225, ir-chk=1318/3396)
23:05:56 [2026-05-05T15:05:56.899Z] rsync: [receiver] mkstemp "/data/docker-ce/linux/centos/7/aarch64/nightly/Packages/.docker-ce-0.0.0.20181024050312.1f0be75-0.el7.aarch64.rpm.5oMtnA" failed: No space left on device (28)
23:05:56 [2026-05-05T15:05:56.899Z]
23:05:57 [2026-05-05T15:05:57.450Z] 0 0% 0.00kB/s 0:00:00
23:05:58 [2026-05-05T15:05:58.000Z] 5,181,126 40% 4.92MB/s 0:00:01
23:05:58 [2026-05-05T15:05:58.000Z] 12,863,924 100% 7.63MB/s 0:00:01 (xfr#226, ir-chk=1317/3396)
23:05:58 [2026-05-05T15:05:58.000Z] rsync: [receiver] mkstemp "/data/docker-ce/linux/centos/7/aarch64/nightly/Packages/.docker-ce-0.0.0.20181024210351.bd317bc-0.el7.aarch64.rpm.2t7OMY" failed: No space left on device (28)
23:05:58 [2026-05-05T15:05:58.000Z]
23:05:58 [2026-05-05T15:05:58.551Z] 0 0% 0.00kB/s 0:00:00
23:05:59 [2026-05-05T15:05:59.102Z] 4,837,092 37% 4.61MB/s 0:00:01
23:05:59 [2026-05-05T15:05:59.102Z] 12,861,340 100% 7.46MB/s 0:00:01 (xfr#227, ir-chk=1316/3396)
23:05:59 [2026-05-05T15:05:59.102Z] rsync: [receiver] mkstemp "/data/docker-ce/linux/centos/7/aarch64/nightly/Packages/.docker-ce-0.0.0.20181025010344.36e4073-0.el7.aarch64.rpm.x74Uup" failed: No space left on device (28)
23:05:59 [2026-05-05T15:05:59.102Z]
23:05:59 [2026-05-05T15:05:59.352Z] 0 0% 0.00kB/s 0:00:00
23:06:00 [2026-05-05T15:06:00.263Z] 4,443,912 34% 4.24MB/s 0:00:01
23:06:00 [2026-05-05T15:06:00.263Z] 12,861,336 100% 7.30MB/s 0:00:01 (xfr#228, ir-chk=1315/3396)
23:06:00 [2026-05-05T15:06:00.263Z] rsync: [receiver] mkstemp "/data/docker-ce/linux/centos/7/aarch64/nightly/Packages/.docker-ce-0.0.0.20181026003717.c53076c-0.el7.aarch64.rpm.X8dDHP" failed: No space left on device (28)
23:06:00 [2026-05-05T15:06:00.263Z]
23:06:00 [2026-05-05T15:06:00.513Z] 0 0% 0.00kB/s 0:00:00
23:06:01 [2026-05-05T15:06:01.064Z] 3,919,666 30% 3.74MB/s 0:00:02
23:06:01 [2026-05-05T15:06:01.064Z] 12,861,348 100% 7.09MB/s 0:00:01 (xfr#229, ir-chk=1314/3396)
23:06:01 [2026-05-05T15:06:01.064Z] rsync: [receiver] mkstemp "/data/docker-ce/linux/centos/7/aarch64/nightly/Packages/.docker-ce-0.0.0.20181027050239.c7c18e3-0.el7.aarch64.rpm.4TILcs" failed: No space left on device (28)
23:06:01 [2026-05-05T15:06:01.064Z]
23:06:01 [2026-05-05T15:06:01.315Z] 0 0% 0.00kB/s 0:00:00
23:06:02 [2026-05-05T15:06:02.226Z] 3,493,722 27% 3.33MB/s 0:00:02
23:06:02 [2026-05-05T15:06:02.226Z] 12,866,916 100% 6.99MB/s 0:00:01 (xfr#230, ir-chk=1313/3396)
23:06:02 [2026-05-05T15:06:02.226Z] rsync: [receiver] mkstemp "/data/docker-ce/linux/centos/7/aarch64/nightly/Packages/.docker-ce-0.0.0.20181029172311.2a472a0-0.el7.aarch64.rpm.PUllfU" failed: No space left on device (28)
23:06:02 [2026-05-05T15:06:02.226Z]
23:06:02 [2026-05-05T15:06:02.476Z] 0 0% 0.00kB/s 0:00:00
23:06:03 [2026-05-05T15:06:03.387Z] 3,018,618 23% 2.88MB/s 0:00:03
23:06:03 [2026-05-05T15:06:03.387Z] 12,866,908 100% 6.86MB/s 0:00:01 (xfr#231, ir-chk=1312/3396)
23:06:03 [2026-05-05T15:06:03.387Z] rsync: [receiver] mkstemp "/data/docker-ce/linux/centos/7/aarch64/nightly/Packages/.docker-ce-0.0.0.20181101010115.55e839d-0.el7.aarch64.rpm.ye4O0E" failed: No space left on device (28)
23:06:03 [2026-05-05T15:06:03.387Z]
23:06:03 [2026-05-05T15:06:03.387Z] 0 0% 0.00kB/s 0:00:00
23:06:04 [2026-05-05T15:06:04.298Z] 2,592,680 20% 2.47MB/s 0:00:04
23:06:04 [2026-05-05T15:06:04.298Z] 12,872,000 100% 6.72MB/s 0:00:01 (xfr#232, ir-chk=1311/3396)
23:06:04 [2026-05-05T15:06:04.298Z] rsync: [receiver] mkstemp "/data/docker-ce/linux/centos/7/aarch64/nightly/Packages/.docker-ce-0.0.0.20181101170439.a2a624c-0.el7.aarch64.rpm.iq9Qys" failed: No space left on device (28)
23:06:04 [2026-05-05T15:06:04.298Z]
23:06:04 [2026-05-05T15:06:04.548Z] 0 0% 0.00kB/s 0:00:00
23:06:05 [2026-05-05T15:06:05.459Z] 2,101,192 16% 2.00MB/s 0:00:05
23:06:05 [2026-05-05T15:06:05.459Z] 12,874,932 100% 6.60MB/s 0:00:01 (xfr#233, ir-chk=1310/3396)
23:06:05 [2026-05-05T15:06:05.459Z] rsync: [receiver] mkstemp "/data/docker-ce/linux/centos/7/aarch64/nightly/Packages/.docker-ce-0.0.0.20181103010206.6aaa39f-0.el7.aarch64.rpm.PdZgeE" failed: No space left on device (28)
23:06:05 [2026-05-05T15:06:05.459Z]
23:06:05 [2026-05-05T15:06:05.459Z] 0 0% 0.00kB/s 0:00:00
23:06:06 [2026-05-05T15:06:06.370Z] 1,642,479 12% 1.56MB/s 0:00:07
23:06:06 [2026-05-05T15:06:06.370Z] 12,874,948 100% 6.46MB/s 0:00:01 (xfr#234, ir-chk=1309/3396)
23:06:06 [2026-05-05T15:06:06.370Z] rsync: [receiver] mkstemp "/data/docker-ce/linux/centos/7/aarch64/nightly/Packages/.docker-ce-0.0.0.20181104010403.904d4fe-0.el7.aarch64.rpm.KDZm6a" failed: No space left on device (28)
23:06:06 [2026-05-05T15:06:06.370Z]
23:06:06 [2026-05-05T15:06:06.370Z] 0 0% 0.00kB/s 0:00:00
23:06:07 [2026-05-05T15:06:07.281Z] 1,282,066 9% 1.22MB/s 0:00:09
23:06:07 [2026-05-05T15:06:07.281Z] 12,874,944 100% 6.29MB/s 0:00:01 (xfr#235, ir-chk=1308/3396)
23:06:07 [2026-05-05T15:06:07.281Z] rsync: [receiver] mkstemp "/data/docker-ce/linux/centos/7/aarch64/nightly/Packages/.docker-ce-0.0.0.20181109210344.9eddf7a-0.el7.aarch64.rpm.AER1Rx" failed: No space left on device (28)
23:06:07 [2026-05-05T15:06:07.532Z]
23:06:07 [2026-05-05T15:06:07.532Z] 0 0% 0.00kB/s 0:00:00
23:06:08 [2026-05-05T15:06:08.443Z] 708,674 5% 692.06kB/s 0:00:17
23:06:08 [2026-05-05T15:06:08.443Z] 12,869,548 100% 6.21MB/s 0:00:01 (xfr#236, ir-chk=1307/3396)
23:06:08 [2026-05-05T15:06:08.443Z] rsync: [receiver] mkstemp "/data/docker-ce/linux/centos/7/aarch64/nightly/Packages/.docker-ce-0.0.0.20181120050141.897abde-0.el7.aarch64.rpm.9e8UXO" failed: No space left on device (28)
23:06:08 [2026-05-05T15:06:08.443Z]
23:06:08 [2026-05-05T15:06:08.443Z] 0 0% 0.00kB/s 0:00:00
23:06:09 [2026-05-05T15:06:09.354Z] 282,720 2% 276.09kB/s 0:00:45
23:06:09 [2026-05-05T15:06:09.354Z] 12,618,837 97% 6.02MB/s 0:00:00
23:06:09 [2026-05-05T15:06:09.354Z] 12,879,812 100% 6.06MB/s 0:00:02 (xfr#237, ir-chk=1306/3396)
23:06:09 [2026-05-05T15:06:09.354Z] rsync: [receiver] mkstemp "/data/docker-ce/linux/centos/7/aarch64/nightly/Packages/.docker-ce-0.0.0.20181120210342.8bff18d-0.el7.aarch64.rpm.tUEzyb" failed: No space left on device (28)
23:06:09 [2026-05-05T15:06:09.354Z]
23:06:10 [2026-05-05T15:06:10.697Z] 0 0% 0.00kB/s 0:00:00
23:06:10 [2026-05-05T15:06:10.697Z] 11,979,910 93% 11.22MB/s 0:00:00
23:06:10 [2026-05-05T15:06:10.697Z] 12,870,236 100% 11.59MB/s 0:00:01 (xfr#238, ir-chk=1305/3396)
23:06:10 [2026-05-05T15:06:10.697Z] rsync: [receiver] mkstemp "/data/docker-ce/linux/centos/7/aarch64/nightly/Packages/.docker-ce-0.0.0.20181122090351.3c69cab-0.el7.aarch64.rpm.o5S5Mv" failed: No space left on device (28)
23:06:10 [2026-05-05T15:06:10.697Z]
23:06:11 [2026-05-05T15:06:11.608Z] 0 0% 0.00kB/s 0:00:00
23:06:11 [2026-05-05T15:06:11.608Z] 11,701,412 90% 11.16MB/s 0:00:00
23:06:11 [2026-05-05T15:06:11.608Z] 12,882,112 100% 11.33MB/s 0:00:01 (xfr#239, ir-chk=1304/3396)
23:06:11 [2026-05-05T15:06:11.608Z] rsync: [receiver] mkstemp "/data/docker-ce/linux/centos/7/aarch64/nightly/Packages/.docker-ce-0.0.0.20181124130408.13de924-0.el7.aarch64.rpm.O7woXF" failed: No space left on device (28)
23:06:11 [2026-05-05T15:06:11.608Z]
23:06:12 [2026-05-05T15:06:12.519Z] 0 0% 0.00kB/s 0:00:00
23:06:12 [2026-05-05T15:06:12.519Z] 11,226,313 87% 10.71MB/s 0:00:00
23:06:12 [2026-05-05T15:06:12.519Z] 12,882,604 100% 10.85MB/s 0:00:01 (xfr#240, ir-chk=1303/3396)
23:06:12 [2026-05-05T15:06:12.519Z] rsync: [receiver] mkstemp "/data/docker-ce/linux/centos/7/aarch64/nightly/Packages/.docker-ce-0.0.0.20181128010312.f9756bf-0.el7.aarch64.rpm.lSzeLS" failed: No space left on device (28)
23:06:12 [2026-05-05T15:06:12.519Z]
23:06:13 [2026-05-05T15:06:13.430Z] 0 0% 0.00kB/s 0:00:00
23:06:13 [2026-05-05T15:06:13.680Z] 10,603,778 82% 10.11MB/s 0:00:00
23:06:13 [2026-05-05T15:06:13.680Z] 12,884,008 100% 10.45MB/s 0:00:01 (xfr#241, ir-chk=1302/3396)
23:06:13 [2026-05-05T15:06:13.680Z] rsync: [receiver] mkstemp "/data/docker-ce/linux/centos/7/aarch64/nightly/Packages/.docker-ce-0.0.0.20181211170416.308261e-0.el7.aarch64.rpm.6KHDsO" failed: No space left on device (28)
23:06:13 [2026-05-05T15:06:13.680Z]
23:06:14 [2026-05-05T15:06:14.591Z] 0 0% 0.00kB/s 0:00:00
23:06:14 [2026-05-05T15:06:14.591Z] 10,079,589 78% 9.61MB/s 0:00:00
23:06:14 [2026-05-05T15:06:14.591Z] 12,871,344 100% 10.07MB/s 0:00:01 (xfr#242, ir-chk=1301/3396)
23:06:14 [2026-05-05T15:06:14.591Z] rsync: [receiver] mkstemp "/data/docker-ce/linux/centos/7/aarch64/nightly/Packages/.docker-ce-0.0.0.20181213123650.d79e916-0.el7.aarch64.rpm.FHJIOv" failed: No space left on device (28)
23:06:14 [2026-05-05T15:06:14.591Z]
23:06:15 [2026-05-05T15:06:15.502Z] 0 0% 0.00kB/s 0:00:00
23:06:15 [2026-05-05T15:06:15.753Z] 9,686,407 75% 9.24MB/s 0:00:00
23:06:15 [2026-05-05T15:06:15.753Z] 12,872,624 100% 9.78MB/s 0:00:01 (xfr#243, ir-chk=1300/3396)
23:06:15 [2026-05-05T15:06:15.753Z] rsync: [receiver] mkstemp "/data/docker-ce/linux/centos/7/aarch64/nightly/Packages/.docker-ce-0.0.0.20181215050358.f2c7e91-0.el7.aarch64.rpm.yKiJoB" failed: No space left on device (28)
23:06:15 [2026-05-05T15:06:15.753Z]
23:06:16 [2026-05-05T15:06:16.664Z] 0 0% 0.00kB/s 0:00:00
23:06:16 [2026-05-05T15:06:16.664Z] 9,260,464 71% 8.76MB/s 0:00:00
23:06:16 [2026-05-05T15:06:16.664Z] 12,873,548 100% 9.47MB/s 0:00:01 (xfr#244, ir-chk=1299/3396)
23:06:16 [2026-05-05T15:06:16.664Z] rsync: [receiver] mkstemp "/data/docker-ce/linux/centos/7/aarch64/nightly/Packages/.docker-ce-0.0.0.20181217210421.fecd406-0.el7.aarch64.rpm.niVIcH" failed: No space left on device (28)
23:06:16 [2026-05-05T15:06:16.664Z]
23:06:17 [2026-05-05T15:06:17.575Z] 0 0% 0.00kB/s 0:00:00
23:06:17 [2026-05-05T15:06:17.825Z] 8,867,274 59% 8.46MB/s 0:00:00
23:06:17 [2026-05-05T15:06:17.825Z] 14,839,396 100% 9.57MB/s 0:00:01 (xfr#245, ir-chk=1298/3396)
23:06:17 [2026-05-05T15:06:17.825Z] rsync: [receiver] mkstemp "/data/docker-ce/linux/centos/7/aarch64/nightly/Packages/.docker-ce-0.0.0.20181219010127.1041509-0.el7.aarch64.rpm.IbUwXn" failed: No space left on device (28)
23:06:18 [2026-05-05T15:06:18.075Z]
23:06:18 [2026-05-05T15:06:18.626Z] 0 0% 0.00kB/s 0:00:00
23:06:19 [2026-05-05T15:06:19.177Z] 6,442,647 43% 6.14MB/s 0:00:01
23:06:19 [2026-05-05T15:06:19.177Z] 14,841,648 100% 8.42MB/s 0:00:01 (xfr#246, ir-chk=1297/3396)
23:06:19 [2026-05-05T15:06:19.177Z] rsync: [receiver] mkstemp "/data/docker-ce/linux/centos/7/aarch64/nightly/Packages/.docker-ce-0.0.0.20181220050336.a4f854a-0.el7.aarch64.rpm.yR5qPp" failed: No space left on device (28)
23:06:19 [2026-05-05T15:06:19.177Z]
23:06:19 [2026-05-05T15:06:19.427Z] 0 0% 0.00kB/s 0:00:00
23:06:20 [2026-05-05T15:06:20.338Z] 4,001,634 26% 3.82MB/s 0:00:02
23:06:20 [2026-05-05T15:06:20.338Z] 14,839,388 100% 7.56MB/s 0:00:01 (xfr#247, ir-chk=1296/3396)
23:06:20 [2026-05-05T15:06:20.338Z] rsync: [receiver] mkstemp "/data/docker-ce/linux/centos/7/aarch64/nightly/Packages/.docker-ce-0.0.0.20181221050404.a307f26-0.el7.aarch64.rpm.JnN1mI" failed: No space left on device (28)
23:06:20 [2026-05-05T15:06:20.338Z]
23:06:20 [2026-05-05T15:06:20.589Z] 0 0% 0.00kB/s 0:00:00
23:06:21 [2026-05-05T15:06:21.500Z] 1,560,622 10% 1.48MB/s 0:00:08
23:06:21 [2026-05-05T15:06:21.500Z] 14,011,417 94% 6.62MB/s 0:00:00
23:06:21 [2026-05-05T15:06:21.500Z] 14,835,544 100% 6.84MB/s 0:00:02 (xfr#248, ir-chk=1295/3396)
23:06:21 [2026-05-05T15:06:21.500Z] rsync: [receiver] mkstemp "/data/docker-ce/linux/centos/7/aarch64/nightly/Packages/.docker-ce-0.0.0.20181222003650.2cfce80-0.el7.aarch64.rpm.cmPfqA" failed: No space left on device (28)
23:06:21 [2026-05-05T15:06:21.500Z]
23:06:22 [2026-05-05T15:06:22.411Z] 0 0% 0.00kB/s 0:00:00
23:06:22 [2026-05-05T15:06:22.661Z] 11,750,618 79% 11.15MB/s 0:00:00
23:06:22 [2026-05-05T15:06:22.661Z] 14,847,312 100% 11.32MB/s 0:00:01 (xfr#249, ir-chk=1294/3396)
23:06:22 [2026-05-05T15:06:22.661Z] rsync: [receiver] mkstemp "/data/docker-ce/linux/centos/7/aarch64/nightly/Packages/.docker-ce-0.0.0.20181225010501.3528d4e-0.el7.aarch64.rpm.gVEQfN" failed: No space left on device (28)
23:06:22 [2026-05-05T15:06:22.661Z]
23:06:23 [2026-05-05T15:06:23.572Z] 0 0% 0.00kB/s 0:00:00
23:06:23 [2026-05-05T15:06:23.823Z] 9,276,825 62% 8.85MB/s 0:00:00
23:06:23 [2026-05-05T15:06:23.823Z] 14,840,320 100% 9.82MB/s 0:00:01 (xfr#250, ir-chk=1293/3396)
23:06:23 [2026-05-05T15:06:23.823Z] rsync: [receiver] mkstemp "/data/docker-ce/linux/centos/7/aarch64/nightly/Packages/.docker-ce-0.0.0.20181225130149.f40fa59-0.el7.aarch64.rpm.ChiFDk" failed: No space left on device (28)
23:06:23 [2026-05-05T15:06:23.823Z]
23:06:24 [2026-05-05T15:06:24.373Z] 0 0% 0.00kB/s 0:00:00
23:06:25 [2026-05-05T15:06:25.284Z] 6,934,114 46% 6.61MB/s 0:00:01
23:06:25 [2026-05-05T15:06:25.284Z] 14,840,264 100% 8.64MB/s 0:00:01 (xfr#251, ir-chk=1292/3396)
23:06:25 [2026-05-05T15:06:25.284Z] rsync: [receiver] mkstemp "/data/docker-ce/linux/centos/7/aarch64/nightly/Packages/.docker-ce-0.0.0.20181229043715.da66ccf-0.el7.aarch64.rpm.VfSd9p" failed: No space left on device (28)
23:06:25 [2026-05-05T15:06:25.284Z]
23:06:25 [2026-05-05T15:06:25.535Z] 0 0% 0.00kB/s 0:00:00
23:06:26 [2026-05-05T15:06:26.446Z] 4,280,140 28% 4.08MB/s 0:00:02
23:06:26 [2026-05-05T15:06:26.446Z] 14,840,248 100% 7.69MB/s 0:00:01 (xfr#252, ir-chk=1291/3396)
23:06:26 [2026-05-05T15:06:26.446Z] rsync: [receiver] mkstemp "/data/docker-ce/linux/centos/7/aarch64/nightly/Packages/.docker-ce-0.0.0.20181230010359.25b9b47-0.el7.aarch64.rpm.jED5Qn" failed: No space left on device (28)
23:06:26 [2026-05-05T15:06:26.446Z]
23:06:26 [2026-05-05T15:06:26.446Z] 0 0% 0.00kB/s 0:00:00
23:06:27 [2026-05-05T15:06:27.789Z] 1,937,430 13% 1.85MB/s 0:00:06
23:06:27 [2026-05-05T15:06:27.789Z] 14,355,459 96% 6.85MB/s 0:00:00
23:06:27 [2026-05-05T15:06:27.789Z] 14,840,320 100% 6.95MB/s 0:00:02 (xfr#253, ir-chk=1290/3396)
23:06:27 [2026-05-05T15:06:27.789Z] rsync: [receiver] mkstemp "/data/docker-ce/linux/centos/7/aarch64/nightly/Packages/.docker-ce-0.0.0.20181231210400.679443a-0.el7.aarch64.rpm.cFS6x3" failed: No space left on device (28)
23:06:27 [2026-05-05T15:06:27.789Z]
23:06:28 [2026-05-05T15:06:28.700Z] 0 0% 0.00kB/s 0:00:00
23:06:28 [2026-05-05T15:06:28.700Z] 11,865,293 79% 11.32MB/s 0:00:00
23:06:28 [2026-05-05T15:06:28.700Z] 14,840,328 100% 11.45MB/s 0:00:01 (xfr#254, ir-chk=1289/3396)
23:06:28 [2026-05-05T15:06:28.700Z] rsync: [receiver] mkstemp "/data/docker-ce/linux/centos/7/aarch64/nightly/Packages/.docker-ce-0.0.0.20190103050401.a1a72d4-0.el7.aarch64.rpm.5tB33R" failed: No space left on device (28)
23:06:28 [2026-05-05T15:06:28.700Z]
23:06:29 [2026-05-05T15:06:29.611Z] 0 0% 0.00kB/s 0:00:00
23:06:29 [2026-05-05T15:06:29.861Z] 9,489,812 63% 9.05MB/s 0:00:00
23:06:29 [2026-05-05T15:06:29.861Z] 14,842,812 100% 9.88MB/s 0:00:01 (xfr#255, ir-chk=1288/3396)
23:06:29 [2026-05-05T15:06:29.861Z] rsync: [receiver] mkstemp "/data/docker-ce/linux/centos/7/aarch64/nightly/Packages/.docker-ce-0.0.0.20190104010151.749e29d-0.el7.aarch64.rpm.M8UmvF" failed: No space left on device (28)
23:06:29 [2026-05-05T15:06:29.861Z]
23:06:30 [2026-05-05T15:06:30.412Z] 0 0% 0.00kB/s 0:00:00
23:06:31 [2026-05-05T15:06:31.323Z] 7,065,190 47% 6.74MB/s 0:00:01
23:06:31 [2026-05-05T15:06:31.323Z] 14,842,576 100% 8.53MB/s 0:00:01 (xfr#256, ir-chk=1287/3396)
23:06:31 [2026-05-05T15:06:31.323Z] rsync: [receiver] mkstemp "/data/docker-ce/linux/centos/7/aarch64/nightly/Packages/.docker-ce-0.0.0.20190105050443.85291e3-0.el7.aarch64.rpm.Tism0G" failed: No space left on device (28)
23:06:31 [2026-05-05T15:06:31.323Z]
23:06:31 [2026-05-05T15:06:31.573Z] 0 0% 0.00kB/s 0:00:00
23:06:32 [2026-05-05T15:06:32.484Z] 4,493,124 30% 4.28MB/s 0:00:02
23:06:32 [2026-05-05T15:06:32.484Z] 14,847,836 100% 7.78MB/s 0:00:01 (xfr#257, ir-chk=1286/3396)
23:06:32 [2026-05-05T15:06:32.484Z] rsync: [receiver] mkstemp "/data/docker-ce/linux/centos/7/aarch64/nightly/Packages/.docker-ce-0.0.0.20190107010505.c555f91-0.el7.aarch64.rpm.bl9Oyc" failed: No space left on device (28)
23:06:32 [2026-05-05T15:06:32.484Z]
23:06:32 [2026-05-05T15:06:32.484Z] 0 0% 0.00kB/s 0:00:00
23:06:33 [2026-05-05T15:06:33.395Z] 2,199,556 14% 2.10MB/s 0:00:05
23:06:33 [2026-05-05T15:06:33.395Z] 14,552,053 98% 6.94MB/s 0:00:00
23:06:33 [2026-05-05T15:06:33.395Z] 14,844,432 100% 7.00MB/s 0:00:02 (xfr#258, ir-chk=1285/3396)
23:06:33 [2026-05-05T15:06:33.395Z] rsync: [receiver] mkstemp "/data/docker-ce/linux/centos/7/aarch64/nightly/Packages/.docker-ce-0.0.0.20190108123715.09fe6b1-0.el7.aarch64.rpm.AQi3aS" failed: No space left on device (28)
23:06:33 [2026-05-05T15:06:33.646Z]
23:06:34 [2026-05-05T15:06:34.557Z] 0 0% 0.00kB/s 0:00:00
23:06:34 [2026-05-05T15:06:34.807Z] 12,192,957 82% 11.63MB/s 0:00:00
23:06:34 [2026-05-05T15:06:34.807Z] 14,844,436 100% 11.63MB/s 0:00:01 (xfr#259, ir-chk=1284/3396)
23:06:34 [2026-05-05T15:06:34.807Z] rsync: [receiver] mkstemp "/data/docker-ce/linux/centos/7/aarch64/nightly/Packages/.docker-ce-0.0.0.20190111050345.c4951b2-0.el7.aarch64.rpm.xLtUqR" failed: No space left on device (28)
23:06:34 [2026-05-05T15:06:34.807Z]
23:06:35 [2026-05-05T15:06:35.718Z] 0 0% 0.00kB/s 0:00:00
23:06:35 [2026-05-05T15:06:35.969Z] 9,751,946 65% 9.30MB/s 0:00:00
23:06:35 [2026-05-05T15:06:35.969Z] 14,824,284 100% 10.06MB/s 0:00:01 (xfr#260, ir-chk=1283/3396)
23:06:35 [2026-05-05T15:06:35.969Z] rsync: [receiver] mkstemp "/data/docker-ce/linux/centos/7/aarch64/nightly/Packages/.docker-ce-0.0.0.20190112050448.66a4801-0.el7.aarch64.rpm.cTXwKd" failed: No space left on device (28)
23:06:35 [2026-05-05T15:06:35.969Z]
23:06:36 [2026-05-05T15:06:36.519Z] 0 0% 0.00kB/s 0:00:00
23:06:37 [2026-05-05T15:06:37.070Z] 7,360,086 49% 7.02MB/s 0:00:01
23:06:37 [2026-05-05T15:06:37.070Z] 14,824,248 100% 8.83MB/s 0:00:01 (xfr#261, ir-chk=1282/3396)
23:06:37 [2026-05-05T15:06:37.070Z] rsync: [receiver] mkstemp "/data/docker-ce/linux/centos/7/aarch64/nightly/Packages/.docker-ce-0.0.0.20190112210159.0091813-0.el7.aarch64.rpm.9wnmpq" failed: No space left on device (28)
23:06:37 [2026-05-05T15:06:37.070Z]
23:06:37 [2026-05-05T15:06:37.621Z] 0 0% 0.00kB/s 0:00:00
23:06:38 [2026-05-05T15:06:38.172Z] 4,886,301 32% 4.66MB/s 0:00:02
23:06:38 [2026-05-05T15:06:38.172Z] 14,824,248 100% 7.84MB/s 0:00:01 (xfr#262, ir-chk=1281/3396)
23:06:38 [2026-05-05T15:06:38.172Z] rsync: [receiver] mkstemp "/data/docker-ce/linux/centos/7/aarch64/nightly/Packages/.docker-ce-0.0.0.20190115050438.213c434-0.el7.aarch64.rpm.X01rY1" failed: No space left on device (28)
23:06:38 [2026-05-05T15:06:38.422Z]
23:06:38 [2026-05-05T15:06:38.422Z] 0 0% 0.00kB/s 0:00:00
23:06:39 [2026-05-05T15:06:39.766Z] 2,412,528 16% 2.30MB/s 0:00:05
23:06:39 [2026-05-05T15:06:39.766Z] 14,601,201 98% 6.97MB/s 0:00:00
23:06:39 [2026-05-05T15:06:39.766Z] 14,833,736 100% 7.01MB/s 0:00:02 (xfr#263, ir-chk=1280/3396)
23:06:39 [2026-05-05T15:06:39.766Z] rsync: [receiver] mkstemp "/data/docker-ce/linux/centos/7/aarch64/nightly/Packages/.docker-ce-0.0.0.20190116010454.36320f5-0.el7.aarch64.rpm.SPX8Qw" failed: No space left on device (28)
23:06:39 [2026-05-05T15:06:39.766Z]
23:06:40 [2026-05-05T15:06:40.677Z] 0 0% 0.00kB/s 0:00:00
23:06:40 [2026-05-05T15:06:40.677Z] 12,209,334 82% 11.64MB/s 0:00:00
23:06:40 [2026-05-05T15:06:40.677Z] 14,837,732 100% 11.64MB/s 0:00:01 (xfr#264, ir-chk=1279/3396)
23:06:40 [2026-05-05T15:06:40.677Z] rsync: [receiver] mkstemp "/data/docker-ce/linux/centos/7/aarch64/nightly/Packages/.docker-ce-0.0.0.20190122010523.26af87f-0.el7.aarch64.rpm.LpV9dh" failed: No space left on device (28)
23:06:40 [2026-05-05T15:06:40.677Z]
23:06:41 [2026-05-05T15:06:41.588Z] 0 0% 0.00kB/s 0:00:00
23:06:41 [2026-05-05T15:06:41.838Z] 9,653,647 65% 9.21MB/s 0:00:00
23:06:41 [2026-05-05T15:06:41.838Z] 14,837,708 100% 9.99MB/s 0:00:01 (xfr#265, ir-chk=1278/3396)
23:06:41 [2026-05-05T15:06:41.838Z] rsync: [receiver] mkstemp "/data/docker-ce/linux/centos/7/aarch64/nightly/Packages/.docker-ce-0.0.0.20190123050358.750d978-0.el7.aarch64.rpm.08eJJf" failed: No space left on device (28)
23:06:41 [2026-05-05T15:06:41.838Z]
23:06:42 [2026-05-05T15:06:42.389Z] 0 0% 0.00kB/s 0:00:00
23:06:43 [2026-05-05T15:06:43.300Z] 7,196,257 48% 6.86MB/s 0:00:01
23:06:43 [2026-05-05T15:06:43.300Z] 14,833,644 100% 8.69MB/s 0:00:01 (xfr#266, ir-chk=1277/3396)
23:06:43 [2026-05-05T15:06:43.300Z] rsync: [receiver] mkstemp "/data/docker-ce/linux/centos/7/aarch64/nightly/Packages/.docker-ce-0.0.0.20190123210304.c6e4a69-0.el7.aarch64.rpm.sJqhTd" failed: No space left on device (28)
23:06:43 [2026-05-05T15:06:43.300Z]
23:06:43 [2026-05-05T15:06:43.550Z] 0 0% 0.00kB/s 0:00:00
23:06:44 [2026-05-05T15:06:44.461Z] 2,871,240 19% 2.74MB/s 0:00:04
23:06:44 [2026-05-05T15:06:44.461Z] 14,833,592 100% 7.80MB/s 0:00:01 (xfr#267, ir-chk=1276/3396)
23:06:44 [2026-05-05T15:06:44.461Z] rsync: [receiver] mkstemp "/data/docker-ce/linux/centos/7/aarch64/nightly/Packages/.docker-ce-0.0.0.20190125163721.0955c3b-0.el7.aarch64.rpm.kyl4M5" failed: No space left on device (28)
23:06:44 [2026-05-05T15:06:44.461Z]
23:06:44 [2026-05-05T15:06:44.461Z] 0 0% 0.00kB/s 0:00:00
23:06:45 [2026-05-05T15:06:45.372Z] 2,314,223 15% 2.20MB/s 0:00:05
23:06:45 [2026-05-05T15:06:45.623Z] 14,699,486 99% 6.99MB/s 0:00:00
23:06:45 [2026-05-05T15:06:45.623Z] 14,833,640 100% 7.01MB/s 0:00:02 (xfr#268, ir-chk=1275/3396)
23:06:45 [2026-05-05T15:06:45.623Z] rsync: [receiver] mkstemp "/data/docker-ce/linux/centos/7/aarch64/nightly/Packages/.docker-ce-0.0.0.20190127050414.4e64113-0.el7.aarch64.rpm.ewDiMS" failed: No space left on device (28)
23:06:45 [2026-05-05T15:06:45.623Z]
23:06:46 [2026-05-05T15:06:46.534Z] 0 0% 0.00kB/s 0:00:00
23:06:46 [2026-05-05T15:06:46.784Z] 12,389,549 83% 11.71MB/s 0:00:00
23:06:46 [2026-05-05T15:06:46.784Z] 14,859,652 100% 11.83MB/s 0:00:01 (xfr#269, ir-chk=1274/3396)
23:06:46 [2026-05-05T15:06:46.784Z] rsync: [receiver] mkstemp "/data/docker-ce/linux/centos/7/aarch64/nightly/Packages/.docker-ce-0.0.0.20190129010403.e360050-0.el7.aarch64.rpm.xp3ECL" failed: No space left on device (28)
23:06:46 [2026-05-05T15:06:46.784Z]
23:06:47 [2026-05-05T15:06:47.695Z] 0 0% 0.00kB/s 0:00:00
23:06:47 [2026-05-05T15:06:47.945Z] 10,112,363 68% 9.64MB/s 0:00:00
23:06:47 [2026-05-05T15:06:47.945Z] 14,851,648 100% 10.26MB/s 0:00:01 (xfr#270, ir-chk=1273/3396)
23:06:47 [2026-05-05T15:06:47.945Z] rsync: [receiver] mkstemp "/data/docker-ce/linux/centos/7/aarch64/nightly/Packages/.docker-ce-0.0.0.20190129203719.72c51e4-0.el7.aarch64.rpm.scnS6b" failed: No space left on device (28)
23:06:47 [2026-05-05T15:06:47.945Z]
23:06:48 [2026-05-05T15:06:48.496Z] 0 0% 0.00kB/s 0:00:00
23:06:49 [2026-05-05T15:06:49.047Z] 7,671,355 51% 7.32MB/s 0:00:00
23:06:49 [2026-05-05T15:06:49.047Z] 14,851,624 100% 9.00MB/s 0:00:01 (xfr#271, ir-chk=1272/3396)
23:06:49 [2026-05-05T15:06:49.047Z] rsync: [receiver] mkstemp "/data/docker-ce/linux/centos/7/aarch64/nightly/Packages/.docker-ce-0.0.0.20190201010607.00085fc-0.el7.aarch64.rpm.bpG7Av" failed: No space left on device (28)
23:06:49 [2026-05-05T15:06:49.047Z]
23:06:49 [2026-05-05T15:06:49.598Z] 0 0% 0.00kB/s 0:00:00
23:06:50 [2026-05-05T15:06:50.148Z] 5,197,575 34% 4.96MB/s 0:00:01
23:06:50 [2026-05-05T15:06:50.148Z] 14,851,908 100% 8.00MB/s 0:00:01 (xfr#272, ir-chk=1271/3396)
23:06:50 [2026-05-05T15:06:50.148Z] rsync: [receiver] mkstemp "/data/docker-ce/linux/centos/7/aarch64/nightly/Packages/.docker-ce-0.0.0.20190202010501.c8cc737-0.el7.aarch64.rpm.URrC5M" failed: No space left on device (28)
23:06:50 [2026-05-05T15:06:50.399Z]
23:06:50 [2026-05-05T15:06:50.399Z] 0 0% 0.00kB/s 0:00:00
23:06:51 [2026-05-05T15:06:51.742Z] 2,789,330 18% 2.66MB/s 0:00:04
23:06:51 [2026-05-05T15:06:51.742Z] 14,850,008 100% 7.21MB/s 0:00:01 (xfr#273, ir-chk=1270/3396)
23:06:51 [2026-05-05T15:06:51.742Z] rsync: [receiver] mkstemp "/data/docker-ce/linux/centos/7/aarch64/nightly/Packages/.docker-ce-0.0.0.20190207010449.b3de847-0.el7.aarch64.rpm.psZe9U" failed: No space left on device (28)
23:06:51 [2026-05-05T15:06:51.742Z]
23:06:51 [2026-05-05T15:06:51.742Z] 0 0% 0.00kB/s 0:00:00
23:06:52 [2026-05-05T15:06:52.653Z] 331,938 2% 324.16kB/s 0:00:44
23:06:52 [2026-05-05T15:06:52.653Z] 12,766,350 85% 6.09MB/s 0:00:00
23:06:52 [2026-05-05T15:06:52.653Z] 14,861,704 100% 6.55MB/s 0:00:02 (xfr#274, ir-chk=1269/3396)
23:06:52 [2026-05-05T15:06:52.653Z] rsync: [receiver] mkstemp "/data/docker-ce/linux/centos/7/aarch64/nightly/Packages/.docker-ce-0.0.0.20190211170408.013c963-0.el7.aarch64.rpm.pxL88z" failed: No space left on device (28)
23:06:52 [2026-05-05T15:06:52.653Z]
23:06:53 [2026-05-05T15:06:53.564Z] 0 0% 0.00kB/s 0:00:00
23:06:53 [2026-05-05T15:06:53.814Z] 10,358,089 69% 9.88MB/s 0:00:00
23:06:53 [2026-05-05T15:06:53.814Z] 14,862,212 100% 10.39MB/s 0:00:01 (xfr#275, ir-chk=1268/3396)
23:06:53 [2026-05-05T15:06:53.814Z] rsync: [receiver] mkstemp "/data/docker-ce/linux/centos/7/aarch64/nightly/Packages/.docker-ce-0.0.0.20190215010505.cdd6e1e-0.el7.aarch64.rpm.kZnd7e" failed: No space left on device (28)
23:06:53 [2026-05-05T15:06:53.814Z]
23:06:54 [2026-05-05T15:06:54.725Z] 0 0% 0.00kB/s 0:00:00
23:06:55 [2026-05-05T15:06:55.276Z] 7,851,571 52% 7.49MB/s 0:00:00
23:06:55 [2026-05-05T15:06:55.276Z] 14,873,592 100% 8.06MB/s 0:00:01 (xfr#276, ir-chk=1267/3396)
23:06:55 [2026-05-05T15:06:55.276Z] rsync: [receiver] mkstemp "/data/docker-ce/linux/centos/7/aarch64/nightly/Packages/.docker-ce-0.0.0.20190227090449.9a03e1c-0.el7.aarch64.rpm.PNVi10" failed: No space left on device (28)
23:06:55 [2026-05-05T15:06:55.276Z]
23:06:55 [2026-05-05T15:06:55.526Z] 0 0% 0.00kB/s 0:00:00
23:06:56 [2026-05-05T15:06:56.437Z] 5,295,878 35% 5.05MB/s 0:00:01
23:06:56 [2026-05-05T15:06:56.437Z] 14,874,632 100% 8.03MB/s 0:00:01 (xfr#277, ir-chk=1266/3396)
23:06:56 [2026-05-05T15:06:56.437Z] rsync: [receiver] mkstemp "/data/docker-ce/linux/centos/7/aarch64/nightly/Packages/.docker-ce-0.0.0.20190301010537.fec57a0-0.el7.aarch64.rpm.AXz8zE" failed: No space left on device (28)
23:06:56 [2026-05-05T15:06:56.437Z]
23:06:56 [2026-05-05T15:06:56.437Z] 0 0% 0.00kB/s 0:00:00
23:06:57 [2026-05-05T15:06:57.348Z] 2,822,104 18% 2.69MB/s 0:00:04
23:06:57 [2026-05-05T15:06:57.348Z] 14,886,136 100% 7.21MB/s 0:00:01 (xfr#278, ir-chk=1265/3396)
23:06:57 [2026-05-05T15:06:57.348Z] rsync: [receiver] mkstemp "/data/docker-ce/linux/centos/7/aarch64/nightly/Packages/.docker-ce-0.0.0.20190301203728.55a53a8-0.el7.aarch64.rpm.77qR1w" failed: No space left on device (28)
23:06:57 [2026-05-05T15:06:57.348Z]
23:06:57 [2026-05-05T15:06:57.599Z] 0 0% 0.00kB/s 0:00:00
23:06:58 [2026-05-05T15:06:58.510Z] 528,535 3% 516.15kB/s 0:00:27
23:06:58 [2026-05-05T15:06:58.760Z] 12,913,801 86% 6.16MB/s 0:00:00
23:06:58 [2026-05-05T15:06:58.760Z] 14,886,116 100% 6.59MB/s 0:00:02 (xfr#279, ir-chk=1264/3396)
23:06:58 [2026-05-05T15:06:58.760Z] rsync: [receiver] mkstemp "/data/docker-ce/linux/centos/7/aarch64/nightly/Packages/.docker-ce-0.0.0.20190302010515.7954951-0.el7.aarch64.rpm.333PkA" failed: No space left on device (28)
23:06:58 [2026-05-05T15:06:58.760Z]
23:06:59 [2026-05-05T15:06:59.671Z] 0 0% 0.00kB/s 0:00:00
23:06:59 [2026-05-05T15:06:59.922Z] 10,456,407 70% 9.85MB/s 0:00:00
23:06:59 [2026-05-05T15:06:59.922Z] 14,886,924 100% 10.41MB/s 0:00:01 (xfr#280, ir-chk=1263/3396)
23:06:59 [2026-05-05T15:06:59.922Z] rsync: [receiver] mkstemp "/data/docker-ce/linux/centos/7/aarch64/nightly/Packages/.docker-ce-0.0.0.20190303123726.ad3f034-0.el7.aarch64.rpm.MweD5c" failed: No space left on device (28)
23:06:59 [2026-05-05T15:06:59.922Z]
23:07:00 [2026-05-05T15:07:00.472Z] 0 0% 0.00kB/s 0:00:00
23:07:01 [2026-05-05T15:07:01.023Z] 8,097,305 54% 7.69MB/s 0:00:00
23:07:01 [2026-05-05T15:07:01.023Z] 14,886,964 100% 9.21MB/s 0:00:01 (xfr#281, ir-chk=1262/3396)
23:07:01 [2026-05-05T15:07:01.023Z] rsync: [receiver] mkstemp "/data/docker-ce/linux/centos/7/aarch64/nightly/Packages/.docker-ce-0.0.0.20190304210442.0e492cb-0.el7.aarch64.rpm.3caemM" failed: No space left on device (28)
23:07:01 [2026-05-05T15:07:01.023Z]
23:07:01 [2026-05-05T15:07:01.574Z] 0 0% 0.00kB/s 0:00:00
23:07:02 [2026-05-05T15:07:02.485Z] 5,639,914 37% 5.38MB/s 0:00:01
23:07:02 [2026-05-05T15:07:02.485Z] 14,886,976 100% 8.14MB/s 0:00:01 (xfr#282, ir-chk=1261/3396)
23:07:02 [2026-05-05T15:07:02.485Z] rsync: [receiver] mkstemp "/data/docker-ce/linux/centos/7/aarch64/nightly/Packages/.docker-ce-0.0.0.20190306010238.27492c9-0.el7.aarch64.rpm.YXsOH8" failed: No space left on device (28)
23:07:02 [2026-05-05T15:07:02.485Z]
23:07:02 [2026-05-05T15:07:02.485Z] 0 0% 0.00kB/s 0:00:00
23:07:03 [2026-05-05T15:07:03.396Z] 3,182,518 21% 3.04MB/s 0:00:03
23:07:03 [2026-05-05T15:07:03.396Z] 14,886,932 100% 7.31MB/s 0:00:01 (xfr#283, ir-chk=1260/3396)
23:07:03 [2026-05-05T15:07:03.396Z] rsync: [receiver] mkstemp "/data/docker-ce/linux/centos/7/aarch64/nightly/Packages/.docker-ce-0.0.0.20190307050505.b1d5526-0.el7.aarch64.rpm.1E3DF6" failed: No space left on device (28)
23:07:03 [2026-05-05T15:07:03.396Z]
23:07:03 [2026-05-05T15:07:03.396Z] 0 0% 0.00kB/s 0:00:00
23:07:04 [2026-05-05T15:07:04.739Z] 594,065 3% 580.14kB/s 0:00:24
23:07:04 [2026-05-05T15:07:04.739Z] 13,126,772 88% 6.26MB/s 0:00:00
23:07:04 [2026-05-05T15:07:04.739Z] 14,858,480 100% 6.63MB/s 0:00:02 (xfr#284, ir-chk=1259/3396)
23:07:04 [2026-05-05T15:07:04.739Z] rsync: [receiver] mkstemp "/data/docker-ce/linux/centos/7/aarch64/nightly/Packages/.docker-ce-0.0.0.20190312170557.6424c78-0.el7.aarch64.rpm.GEUDEp" failed: No space left on device (28)
23:07:04 [2026-05-05T15:07:04.739Z]
23:07:05 [2026-05-05T15:07:05.650Z] 0 0% 0.00kB/s 0:00:00
23:07:05 [2026-05-05T15:07:05.900Z] 10,702,143 72% 10.21MB/s 0:00:00
23:07:05 [2026-05-05T15:07:05.900Z] 14,858,412 100% 10.65MB/s 0:00:01 (xfr#285, ir-chk=1258/3396)
23:07:05 [2026-05-05T15:07:05.900Z] rsync: [receiver] mkstemp "/data/docker-ce/linux/centos/7/aarch64/nightly/Packages/.docker-ce-0.0.0.20190312210234.bea0535-0.el7.aarch64.rpm.rQz0Ro" failed: No space left on device (28)
23:07:05 [2026-05-05T15:07:05.900Z]
23:07:06 [2026-05-05T15:07:06.451Z] 0 0% 0.00kB/s 0:00:00
23:07:07 [2026-05-05T15:07:07.002Z] 8,277,519 55% 7.89MB/s 0:00:00
23:07:07 [2026-05-05T15:07:07.002Z] 14,896,112 100% 9.29MB/s 0:00:01 (xfr#286, ir-chk=1257/3396)
23:07:07 [2026-05-05T15:07:07.002Z] rsync: [receiver] mkstemp "/data/docker-ce/linux/centos/7/aarch64/nightly/Packages/.docker-ce-0.0.0.20190314010511.f642da5-0.el7.aarch64.rpm.feDd5T" failed: No space left on device (28)
23:07:07 [2026-05-05T15:07:07.002Z]
23:07:07 [2026-05-05T15:07:07.552Z] 0 0% 0.00kB/s 0:00:00
23:07:08 [2026-05-05T15:07:08.463Z] 5,803,741 38% 5.51MB/s 0:00:01
23:07:08 [2026-05-05T15:07:08.463Z] 14,893,304 100% 8.21MB/s 0:00:01 (xfr#287, ir-chk=1256/3396)
23:07:08 [2026-05-05T15:07:08.463Z] rsync: [receiver] mkstemp "/data/docker-ce/linux/centos/7/aarch64/nightly/Packages/.docker-ce-0.0.0.20190319043728.f180b7c-0.el7.aarch64.rpm.DSBPPr" failed: No space left on device (28)
23:07:08 [2026-05-05T15:07:08.463Z]
23:07:08 [2026-05-05T15:07:08.463Z] 0 0% 0.00kB/s 0:00:00
23:07:09 [2026-05-05T15:07:09.374Z] 3,379,114 22% 3.21MB/s 0:00:03
23:07:09 [2026-05-05T15:07:09.374Z] 15,141,964 100% 7.41MB/s 0:00:01 (xfr#288, ir-chk=1255/3396)
23:07:09 [2026-05-05T15:07:09.374Z] rsync: [receiver] mkstemp "/data/docker-ce/linux/centos/7/aarch64/nightly/Packages/.docker-ce-0.0.0.20190321050215.e0d8043-0.el7.aarch64.rpm.QVBsII" failed: No space left on device (28)
23:07:09 [2026-05-05T15:07:09.374Z]
23:07:09 [2026-05-05T15:07:09.625Z] 0 0% 0.00kB/s 0:00:00
23:07:10 [2026-05-05T15:07:10.536Z] 610,447 4% 596.14kB/s 0:00:24
23:07:10 [2026-05-05T15:07:10.786Z] 13,044,859 85% 6.20MB/s 0:00:00
23:07:10 [2026-05-05T15:07:10.786Z] 15,169,592 100% 6.68MB/s 0:00:02 (xfr#289, ir-chk=1254/3396)
23:07:10 [2026-05-05T15:07:10.786Z] rsync: [receiver] mkstemp "/data/docker-ce/linux/centos/7/aarch64/nightly/Packages/.docker-ce-0.0.0.20190322010516.ab5c5ef-0.el7.aarch64.rpm.u2k5BC" failed: No space left on device (28)
23:07:10 [2026-05-05T15:07:10.786Z]
23:07:11 [2026-05-05T15:07:11.697Z] 0 0% 0.00kB/s 0:00:00
23:07:11 [2026-05-05T15:07:11.948Z] 10,358,110 67% 9.88MB/s 0:00:00
23:07:11 [2026-05-05T15:07:11.948Z] 15,241,900 100% 10.45MB/s 0:00:01 (xfr#290, ir-chk=1253/3396)
23:07:11 [2026-05-05T15:07:11.948Z] rsync: [receiver] mkstemp "/data/docker-ce/linux/centos/7/aarch64/nightly/Packages/.docker-ce-0.0.0.20190322190813.1d0b2e3-0.el7.aarch64.rpm.0yZgPs" failed: No space left on device (28)
23:07:11 [2026-05-05T15:07:11.948Z]
23:07:12 [2026-05-05T15:07:12.498Z] 0 0% 0.00kB/s 0:00:00
23:07:13 [2026-05-05T15:07:13.049Z] 7,589,447 49% 7.19MB/s 0:00:01
23:07:13 [2026-05-05T15:07:13.049Z] 15,250,676 100% 9.01MB/s 0:00:01 (xfr#291, ir-chk=1252/3396)
23:07:13 [2026-05-05T15:07:13.049Z] rsync: [receiver] mkstemp "/data/docker-ce/linux/centos/7/aarch64/nightly/Packages/.docker-ce-0.0.0.20190323130520.1618664-0.el7.aarch64.rpm.AG9amA" failed: No space left on device (28)
23:07:13 [2026-05-05T15:07:13.049Z]
23:07:13 [2026-05-05T15:07:13.600Z] 0 0% 0.00kB/s 0:00:00
23:07:14 [2026-05-05T15:07:14.511Z] 4,886,309 32% 4.66MB/s 0:00:02
23:07:14 [2026-05-05T15:07:14.511Z] 15,250,672 100% 7.90MB/s 0:00:01 (xfr#292, ir-chk=1251/3396)
23:07:14 [2026-05-05T15:07:14.511Z] rsync: [receiver] mkstemp "/data/docker-ce/linux/centos/7/aarch64/nightly/Packages/.docker-ce-0.0.0.20190325050551.9374b8d-0.el7.aarch64.rpm.y6UZa2" failed: No space left on device (28)
23:07:14 [2026-05-05T15:07:14.511Z]
23:07:14 [2026-05-05T15:07:14.511Z] 0 0% 0.00kB/s 0:00:00
23:07:15 [2026-05-05T15:07:15.422Z] 1,855,525 12% 1.77MB/s 0:00:07
23:07:15 [2026-05-05T15:07:15.672Z] 14,355,469 94% 6.85MB/s 0:00:00
23:07:15 [2026-05-05T15:07:15.672Z] 15,250,264 100% 7.04MB/s 0:00:02 (xfr#293, ir-chk=1250/3396)
23:07:15 [2026-05-05T15:07:15.672Z] rsync: [receiver] mkstemp "/data/docker-ce/linux/centos/7/aarch64/nightly/Packages/.docker-ce-0.0.0.20190327181934.dce6483-0.el7.aarch64.rpm.OGlUD6" failed: No space left on device (28)
23:07:15 [2026-05-05T15:07:15.672Z]
23:07:16 [2026-05-05T15:07:16.583Z] 0 0% 0.00kB/s 0:00:00
23:07:16 [2026-05-05T15:07:16.834Z] 11,192,368 71% 10.67MB/s 0:00:00
23:07:16 [2026-05-05T15:07:16.834Z] 15,708,084 100% 11.31MB/s 0:00:01 (xfr#294, ir-chk=1249/3396)
23:07:16 [2026-05-05T15:07:16.834Z] rsync: [receiver] mkstemp "/data/docker-ce/linux/centos/7/aarch64/nightly/Packages/.docker-ce-0.0.0.20190327204654.aa6a184-0.el7.aarch64.rpm.Gr0xp8" failed: No space left on device (28)
23:07:16 [2026-05-05T15:07:16.834Z]
23:07:17 [2026-05-05T15:07:17.745Z] 0 0% 0.00kB/s 0:00:00
23:07:18 [2026-05-05T15:07:18.295Z] 8,243,498 52% 7.83MB/s 0:00:00
23:07:18 [2026-05-05T15:07:18.295Z] 15,708,084 100% 9.36MB/s 0:00:01 (xfr#295, ir-chk=1248/3396)
23:07:18 [2026-05-05T15:07:18.295Z] rsync: [receiver] mkstemp "/data/docker-ce/linux/centos/7/aarch64/nightly/Packages/.docker-ce-0.0.0.20190329010133.83264de-0.el7.aarch64.rpm.SJT0QF" failed: No space left on device (28)
23:07:18 [2026-05-05T15:07:18.295Z]
23:07:18 [2026-05-05T15:07:18.546Z] 0 0% 0.00kB/s 0:00:00
23:07:19 [2026-05-05T15:07:19.457Z] 4,475,494 28% 4.16MB/s 0:00:02
23:07:19 [2026-05-05T15:07:19.457Z] 15,711,140 100% 8.08MB/s 0:00:01 (xfr#296, ir-chk=1247/3396)
23:07:19 [2026-05-05T15:07:19.457Z] rsync: [receiver] mkstemp "/data/docker-ce/linux/centos/7/aarch64/nightly/Packages/.docker-ce-0.0.0.20190330011117.27b4377-0.el7.aarch64.rpm.bWf6gQ" failed: No space left on device (28)
23:07:19 [2026-05-05T15:07:19.457Z]
23:07:19 [2026-05-05T15:07:19.457Z] 0 0% 0.00kB/s 0:00:00
23:07:20 [2026-05-05T15:07:20.800Z] 2,100,015 13% 2.00MB/s 0:00:06
23:07:20 [2026-05-05T15:07:20.800Z] 14,534,430 92% 6.93MB/s 0:00:00
23:07:20 [2026-05-05T15:07:20.800Z] 15,710,332 100% 7.13MB/s 0:00:02 (xfr#297, ir-chk=1246/3396)
23:07:20 [2026-05-05T15:07:20.800Z] rsync: [receiver] mkstemp "/data/docker-ce/linux/centos/7/aarch64/nightly/Packages/.docker-ce-0.0.0.20190402003748.9de3848-0.el7.aarch64.rpm.VW2kmd" failed: No space left on device (28)
23:07:20 [2026-05-05T15:07:20.800Z]
23:07:21 [2026-05-05T15:07:21.711Z] 0 0% 0.00kB/s 0:00:00
23:07:21 [2026-05-05T15:07:21.961Z] 11,208,754 71% 10.47MB/s 0:00:00
23:07:21 [2026-05-05T15:07:21.961Z] 15,708,896 100% 11.06MB/s 0:00:01 (xfr#298, ir-chk=1245/3396)
23:07:21 [2026-05-05T15:07:21.961Z] rsync: [receiver] mkstemp "/data/docker-ce/linux/centos/7/aarch64/nightly/Packages/.docker-ce-0.0.0.20190403050227.0280d12-0.el7.aarch64.rpm.zksm46" failed: No space left on device (28)
23:07:21 [2026-05-05T15:07:21.961Z]
23:07:22 [2026-05-05T15:07:22.512Z] 0 0% 0.00kB/s 0:00:00
23:07:23 [2026-05-05T15:07:23.423Z] 8,227,122 52% 7.85MB/s 0:00:00
23:07:23 [2026-05-05T15:07:23.423Z] 15,711,892 100% 9.29MB/s 0:00:01 (xfr#299, ir-chk=1244/3396)
23:07:23 [2026-05-05T15:07:23.423Z] rsync: [receiver] mkstemp "/data/docker-ce/linux/centos/7/aarch64/nightly/Packages/.docker-ce-0.0.0.20190404010053.444f340-0.el7.aarch64.rpm.kBzzVm" failed: No space left on device (28)
23:07:23 [2026-05-05T15:07:23.423Z]
23:07:23 [2026-05-05T15:07:23.673Z] 0 0% 0.00kB/s 0:00:00
23:07:24 [2026-05-05T15:07:24.584Z] 4,901,446 31% 4.67MB/s 0:00:02
23:07:24 [2026-05-05T15:07:24.584Z] 15,732,444 100% 7.97MB/s 0:00:01 (xfr#300, ir-chk=1243/3396)
23:07:24 [2026-05-05T15:07:24.585Z] rsync: [receiver] mkstemp "/data/docker-ce/linux/centos/7/aarch64/nightly/Packages/.docker-ce-0.0.0.20190405010103.b13705a-0.el7.aarch64.rpm.Y1LjAv" failed: No space left on device (28)
23:07:24 [2026-05-05T15:07:24.585Z]
23:07:24 [2026-05-05T15:07:24.585Z] 0 0% 0.00kB/s 0:00:00
23:07:25 [2026-05-05T15:07:25.496Z] 1,362,798 8% 1.30MB/s 0:00:10
23:07:25 [2026-05-05T15:07:25.746Z] 13,993,803 88% 6.68MB/s 0:00:00
23:07:25 [2026-05-05T15:07:25.746Z] 15,730,952 100% 7.00MB/s 0:00:02 (xfr#301, ir-chk=1242/3396)
23:07:25 [2026-05-05T15:07:25.746Z] rsync: [receiver] mkstemp "/data/docker-ce/linux/centos/7/aarch64/nightly/Packages/.docker-ce-0.0.0.20190405210046.ac45a22-0.el7.aarch64.rpm.ohqddU" failed: No space left on device (28)
23:07:25 [2026-05-05T15:07:25.746Z]
23:07:26 [2026-05-05T15:07:26.657Z] 0 0% 0.00kB/s 0:00:00
23:07:26 [2026-05-05T15:07:26.907Z] 10,487,916 66% 9.99MB/s 0:00:00
23:07:26 [2026-05-05T15:07:26.907Z] 15,730,952 100% 10.56MB/s 0:00:01 (xfr#302, ir-chk=1241/3396)
23:07:26 [2026-05-05T15:07:26.907Z] rsync: [receiver] mkstemp "/data/docker-ce/linux/centos/7/aarch64/nightly/Packages/.docker-ce-0.0.0.20190408050024.dfedfc4-0.el7.aarch64.rpm.AccwoH" failed: No space left on device (28)
23:07:26 [2026-05-05T15:07:26.907Z]
23:07:27 [2026-05-05T15:07:27.818Z] 0 0% 0.00kB/s 0:00:00
23:07:28 [2026-05-05T15:07:28.369Z] 7,309,694 46% 6.97MB/s 0:00:01
23:07:28 [2026-05-05T15:07:28.369Z] 15,735,204 100% 8.87MB/s 0:00:01 (xfr#303, ir-chk=1240/3396)
23:07:28 [2026-05-05T15:07:28.369Z] rsync: [receiver] mkstemp "/data/docker-ce/linux/centos/7/aarch64/nightly/Packages/.docker-ce-0.0.0.20190409045930.b1f61d1-0.el7.aarch64.rpm.LUsSPS" failed: No space left on device (28)
23:07:28 [2026-05-05T15:07:28.369Z]
23:07:28 [2026-05-05T15:07:28.620Z] 0 0% 0.00kB/s 0:00:00
23:07:29 [2026-05-05T15:07:29.531Z] 3,820,186 24% 3.64MB/s 0:00:03
23:07:29 [2026-05-05T15:07:29.531Z] 15,732,768 100% 7.63MB/s 0:00:01 (xfr#304, ir-chk=1239/3396)
23:07:29 [2026-05-05T15:07:29.531Z] rsync: [receiver] mkstemp "/data/docker-ce/linux/centos/7/aarch64/nightly/Packages/.docker-ce-0.0.0.20190410170111.eec4b9a-0.el7.aarch64.rpm.tAjoEv" failed: No space left on device (28)
23:07:29 [2026-05-05T15:07:29.531Z]
23:07:29 [2026-05-05T15:07:29.531Z] 0 0% 0.00kB/s 0:00:00
23:07:30 [2026-05-05T15:07:30.874Z] 363,455 2% 354.94kB/s 0:00:43
23:07:30 [2026-05-05T15:07:30.874Z] 13,010,840 82% 6.20MB/s 0:00:00
23:07:30 [2026-05-05T15:07:30.874Z] 15,740,132 100% 6.76MB/s 0:00:02 (xfr#305, ir-chk=1238/3396)
23:07:30 [2026-05-05T15:07:30.874Z] rsync: [receiver] mkstemp "/data/docker-ce/linux/centos/7/aarch64/nightly/Packages/.docker-ce-0.0.0.20190410205948.8239463-0.el7.aarch64.rpm.9MygDg" failed: No space left on device (28)
23:07:30 [2026-05-05T15:07:30.874Z]
23:07:31 [2026-05-05T15:07:31.785Z] 0 0% 0.00kB/s 0:00:00
23:07:32 [2026-05-05T15:07:32.035Z] 9,554,107 60% 9.05MB/s 0:00:00
23:07:32 [2026-05-05T15:07:32.035Z] 15,740,184 100% 10.09MB/s 0:00:01 (xfr#306, ir-chk=1237/3396)
23:07:32 [2026-05-05T15:07:32.035Z] rsync: [receiver] mkstemp "/data/docker-ce/linux/centos/7/aarch64/nightly/Packages/.docker-ce-0.0.0.20190411210533.a265678-0.el7.aarch64.rpm.GF2azs" failed: No space left on device (28)
23:07:32 [2026-05-05T15:07:32.035Z]
23:07:32 [2026-05-05T15:07:32.586Z] 0 0% 0.00kB/s 0:00:00
23:07:33 [2026-05-05T15:07:33.497Z] 6,359,501 40% 6.06MB/s 0:00:01
23:07:33 [2026-05-05T15:07:33.497Z] 15,748,816 100% 8.54MB/s 0:00:01 (xfr#307, ir-chk=1236/3396)
23:07:33 [2026-05-05T15:07:33.497Z] rsync: [receiver] mkstemp "/data/docker-ce/linux/centos/7/aarch64/nightly/Packages/.docker-ce-0.0.0.20190413010110.55e5e74-0.el7.aarch64.rpm.wGJaLM" failed: No space left on device (28)
23:07:33 [2026-05-05T15:07:33.497Z]
23:07:33 [2026-05-05T15:07:33.497Z] 0 0% 0.00kB/s 0:00:00
23:07:34 [2026-05-05T15:07:34.840Z] 2,673,403 16% 2.55MB/s 0:00:05
23:07:34 [2026-05-05T15:07:34.840Z] 14,239,537 90% 6.79MB/s 0:00:00
23:07:34 [2026-05-05T15:07:34.840Z] 15,744,480 100% 7.01MB/s 0:00:02 (xfr#308, ir-chk=1235/3396)
23:07:34 [2026-05-05T15:07:34.840Z] rsync: [receiver] mkstemp "/data/docker-ce/linux/centos/7/aarch64/nightly/Packages/.docker-ce-0.0.0.20190415210225.15c2d06-0.el7.aarch64.rpm.IYqkcN" failed: No space left on device (28)
23:07:34 [2026-05-05T15:07:34.840Z]
23:07:35 [2026-05-05T15:07:35.751Z] 0 0% 0.00kB/s 0:00:00
23:07:36 [2026-05-05T15:07:36.002Z] 11,962,352 76% 11.41MB/s 0:00:00
23:07:36 [2026-05-05T15:07:36.002Z] 15,734,148 100% 11.32MB/s 0:00:01 (xfr#309, ir-chk=1234/3396)
23:07:36 [2026-05-05T15:07:36.002Z] rsync: [receiver] mkstemp "/data/docker-ce/linux/centos/7/aarch64/nightly/Packages/.docker-ce-0.0.0.20190416010122.8326351-0.el7.aarch64.rpm.XsCTkd" failed: No space left on device (28)
23:07:36 [2026-05-05T15:07:36.002Z]
23:07:36 [2026-05-05T15:07:36.552Z] 0 0% 0.00kB/s 0:00:00
23:07:37 [2026-05-05T15:07:37.463Z] 8,407,326 53% 8.02MB/s 0:00:00
23:07:37 [2026-05-05T15:07:37.463Z] 15,729,548 100% 8.81MB/s 0:00:01 (xfr#310, ir-chk=1233/3396)
23:07:37 [2026-05-05T15:07:37.463Z] rsync: [receiver] mkstemp "/data/docker-ce/linux/centos/7/aarch64/nightly/Packages/.docker-ce-0.0.0.20190423163723.b1896fe-0.el7.aarch64.rpm.EJxQ9G" failed: No space left on device (28)
23:07:37 [2026-05-05T15:07:37.463Z]
23:07:37 [2026-05-05T15:07:37.714Z] 0 0% 0.00kB/s 0:00:00
23:07:38 [2026-05-05T15:07:38.625Z] 5,311,015 30% 5.03MB/s 0:00:02
23:07:38 [2026-05-05T15:07:38.625Z] 15,632,068 90% 7.43MB/s 0:00:00
23:07:38 [2026-05-05T15:07:38.625Z] 17,311,028 100% 8.03MB/s 0:00:02 (xfr#311, ir-chk=1232/3396)
23:07:38 [2026-05-05T15:07:38.625Z] rsync: [receiver] mkstemp "/data/docker-ce/linux/centos/7/aarch64/nightly/Packages/.docker-ce-0.0.0.20190424043742.da82015-0.el7.aarch64.rpm.hodA9V" failed: No space left on device (28)
23:07:38 [2026-05-05T15:07:38.625Z]
23:07:39 [2026-05-05T15:07:39.536Z] 0 0% 0.00kB/s 0:00:00
23:07:40 [2026-05-05T15:07:40.087Z] 12,437,454 71% 11.86MB/s 0:00:00
23:07:40 [2026-05-05T15:07:40.087Z] 17,308,324 100% 11.94MB/s 0:00:01 (xfr#312, ir-chk=1231/3396)
23:07:40 [2026-05-05T15:07:40.087Z] rsync: [receiver] mkstemp "/data/docker-ce/linux/centos/7/aarch64/nightly/Packages/.docker-ce-0.0.0.20190425010327.cfb85db-0.el7.aarch64.rpm.Ilf8MK" failed: No space left on device (28)
23:07:40 [2026-05-05T15:07:40.087Z]
23:07:40 [2026-05-05T15:07:40.638Z] 0 0% 0.00kB/s 0:00:00
23:07:41 [2026-05-05T15:07:41.549Z] 7,915,847 45% 7.55MB/s 0:00:01
23:07:41 [2026-05-05T15:07:41.549Z] 17,325,968 100% 9.25MB/s 0:00:01 (xfr#313, ir-chk=1230/3396)
23:07:41 [2026-05-05T15:07:41.549Z] rsync: [receiver] mkstemp "/data/docker-ce/linux/centos/7/aarch64/nightly/Packages/.docker-ce-0.0.0.20190426010244.3741ce2-0.el7.aarch64.rpm.uW9Xem" failed: No space left on device (28)
23:07:41 [2026-05-05T15:07:41.549Z]
23:07:41 [2026-05-05T15:07:41.549Z] 0 0% 0.00kB/s 0:00:00
23:07:42 [2026-05-05T15:07:42.892Z] 2,100,013 12% 2.00MB/s 0:00:07
23:07:43 [2026-05-05T15:07:43.443Z] 9,767,083 56% 4.66MB/s 0:00:01
23:07:43 [2026-05-05T15:07:43.443Z] 17,326,028 100% 6.10MB/s 0:00:02 (xfr#314, ir-chk=1229/3396)
23:07:43 [2026-05-05T15:07:43.443Z] rsync: [receiver] mkstemp "/data/docker-ce/linux/centos/7/aarch64/nightly/Packages/.docker-ce-0.0.0.20190426050405.438fc99-0.el7.aarch64.rpm.iLsmzK" failed: No space left on device (28)
23:07:43 [2026-05-05T15:07:43.443Z]
23:07:43 [2026-05-05T15:07:43.693Z] 0 0% 0.00kB/s 0:00:00
23:07:44 [2026-05-05T15:07:44.244Z] 4,721,235 27% 4.50MB/s 0:00:02
23:07:44 [2026-05-05T15:07:44.244Z] 17,324,580 100% 9.69MB/s 0:00:01 (xfr#315, ir-chk=1228/3396)
23:07:44 [2026-05-05T15:07:44.244Z] rsync: [receiver] mkstemp "/data/docker-ce/linux/centos/7/aarch64/nightly/Packages/.docker-ce-0.0.0.20190427050701.daf4370-0.el7.aarch64.rpm.y3Fk2N" failed: No space left on device (28)
23:07:44 [2026-05-05T15:07:44.244Z]
23:07:44 [2026-05-05T15:07:44.494Z] 0 0% 0.00kB/s 0:00:00
23:07:45 [2026-05-05T15:07:45.838Z] 3,197,651 18% 3.05MB/s 0:00:04
23:07:45 [2026-05-05T15:07:45.838Z] 16,647,785 96% 7.94MB/s 0:00:00
23:07:45 [2026-05-05T15:07:45.838Z] 17,329,500 100% 8.07MB/s 0:00:02 (xfr#316, ir-chk=1227/3396)
23:07:45 [2026-05-05T15:07:45.838Z] rsync: [receiver] mkstemp "/data/docker-ce/linux/centos/7/aarch64/nightly/Packages/.docker-ce-0.0.0.20190428205944.f917d74-0.el7.aarch64.rpm.Tjei9c" failed: No space left on device (28)
23:07:45 [2026-05-05T15:07:45.838Z]
23:07:46 [2026-05-05T15:07:46.748Z] 0 0% 0.00kB/s 0:00:00
23:07:47 [2026-05-05T15:07:47.299Z] 8,915,183 51% 8.50MB/s 0:00:00
23:07:47 [2026-05-05T15:07:47.299Z] 17,329,496 100% 10.41MB/s 0:00:01 (xfr#317, ir-chk=1226/3396)
23:07:47 [2026-05-05T15:07:47.299Z] rsync: [receiver] mkstemp "/data/docker-ce/linux/centos/7/aarch64/nightly/Packages/.docker-ce-0.0.0.20190429210820.1134500-0.el7.aarch64.rpm.QCoQCZ" failed: No space left on device (28)
23:07:47 [2026-05-05T15:07:47.299Z]
23:07:47 [2026-05-05T15:07:47.550Z] 0 0% 0.00kB/s 0:00:00
23:07:48 [2026-05-05T15:07:48.893Z] 6,572,473 37% 6.16MB/s 0:00:01
23:07:49 [2026-05-05T15:07:49.143Z] 14,829,316 85% 7.01MB/s 0:00:00
23:07:49 [2026-05-05T15:07:49.143Z] 17,323,920 100% 6.73MB/s 0:00:02 (xfr#318, ir-chk=1225/3396)
23:07:49 [2026-05-05T15:07:49.143Z] rsync: [receiver] mkstemp "/data/docker-ce/linux/centos/7/aarch64/nightly/Packages/.docker-ce-0.0.0.20190501050002.915ab4a-0.el7.aarch64.rpm.0VEMJI" failed: No space left on device (28)
23:07:49 [2026-05-05T15:07:49.143Z]
23:07:49 [2026-05-05T15:07:49.694Z] 0 0% 0.00kB/s 0:00:00
23:07:49 [2026-05-05T15:07:49.944Z] 10,193,030 58% 9.72MB/s 0:00:00
23:07:49 [2026-05-05T15:07:49.944Z] 17,320,888 100% 12.01MB/s 0:00:01 (xfr#319, ir-chk=1224/3396)
23:07:49 [2026-05-05T15:07:49.944Z] rsync: [receiver] mkstemp "/data/docker-ce/linux/centos/7/aarch64/nightly/Packages/.docker-ce-0.0.0.20190503050220.250bdba-0.el7.aarch64.rpm.kCblL2" failed: No space left on device (28)
23:07:49 [2026-05-05T15:07:49.944Z]
23:07:50 [2026-05-05T15:07:50.855Z] 0 0% 0.00kB/s 0:00:00
23:07:51 [2026-05-05T15:07:51.406Z] 7,850,319 45% 7.49MB/s 0:00:01
23:07:51 [2026-05-05T15:07:51.406Z] 17,320,872 100% 9.35MB/s 0:00:01 (xfr#320, ir-chk=1223/3396)
23:07:51 [2026-05-05T15:07:51.406Z] rsync: [receiver] mkstemp "/data/docker-ce/linux/centos/7/aarch64/nightly/Packages/.docker-ce-0.0.0.20190507010137.6c20898-0.el7.aarch64.rpm.KkpVoV" failed: No space left on device (28)
23:07:51 [2026-05-05T15:07:51.406Z]
23:07:51 [2026-05-05T15:07:51.656Z] 0 0% 0.00kB/s 0:00:00
23:07:52 [2026-05-05T15:07:52.567Z] 2,853,616 16% 2.72MB/s 0:00:05
23:07:52 [2026-05-05T15:07:52.818Z] 15,435,472 89% 7.35MB/s 0:00:00
23:07:52 [2026-05-05T15:07:52.818Z] 17,320,888 100% 7.72MB/s 0:00:02 (xfr#321, ir-chk=1222/3396)
23:07:52 [2026-05-05T15:07:52.818Z] rsync: [receiver] mkstemp "/data/docker-ce/linux/centos/7/aarch64/nightly/Packages/.docker-ce-0.0.0.20190508050055.a96dc47-0.el7.aarch64.rpm.9z1AUc" failed: No space left on device (28)
23:07:52 [2026-05-05T15:07:52.818Z]
23:07:53 [2026-05-05T15:07:53.729Z] 0 0% 0.00kB/s 0:00:00
23:07:54 [2026-05-05T15:07:54.280Z] 10,487,928 60% 10.00MB/s 0:00:00
23:07:54 [2026-05-05T15:07:54.280Z] 17,321,352 100% 10.46MB/s 0:00:01 (xfr#322, ir-chk=1221/3396)
23:07:54 [2026-05-05T15:07:54.280Z] rsync: [receiver] mkstemp "/data/docker-ce/linux/centos/7/aarch64/nightly/Packages/.docker-ce-0.0.0.20190509050102.e9f60f2-0.el7.aarch64.rpm.A6d55v" failed: No space left on device (28)
23:07:54 [2026-05-05T15:07:54.280Z]
23:07:54 [2026-05-05T15:07:54.530Z] 0 0% 0.00kB/s 0:00:00
23:07:55 [2026-05-05T15:07:55.874Z] 5,573,131 32% 5.31MB/s 0:00:02
23:07:55 [2026-05-05T15:07:55.874Z] 13,109,137 75% 6.25MB/s 0:00:00
23:07:55 [2026-05-05T15:07:55.874Z] 17,320,120 100% 7.20MB/s 0:00:02 (xfr#323, ir-chk=1220/3396)
23:07:55 [2026-05-05T15:07:55.874Z] rsync: [receiver] mkstemp "/data/docker-ce/linux/centos/7/aarch64/nightly/Packages/.docker-ce-0.0.0.20190510010401.cdf09f8-0.el7.aarch64.rpm.Ju0Ej5" failed: No space left on device (28)
23:07:55 [2026-05-05T15:07:55.874Z]
23:07:56 [2026-05-05T15:07:56.785Z] 0 0% 0.00kB/s 0:00:00
23:07:57 [2026-05-05T15:07:57.035Z] 12,814,250 73% 12.22MB/s 0:00:00
23:07:57 [2026-05-05T15:07:57.035Z] 17,329,348 100% 11.65MB/s 0:00:01 (xfr#324, ir-chk=1219/3396)
23:07:57 [2026-05-05T15:07:57.035Z] rsync: [receiver] mkstemp "/data/docker-ce/linux/centos/7/aarch64/nightly/Packages/.docker-ce-0.0.0.20190511045941.84cbe5e-0.el7.aarch64.rpm.bPF9Y1" failed: No space left on device (28)
23:07:57 [2026-05-05T15:07:57.035Z]
23:07:57 [2026-05-05T15:07:57.586Z] 0 0% 0.00kB/s 0:00:00
23:07:58 [2026-05-05T15:07:58.497Z] 7,440,756 42% 7.10MB/s 0:00:01
23:07:58 [2026-05-05T15:07:58.497Z] 17,421,964 100% 9.47MB/s 0:00:01 (xfr#325, ir-chk=1218/3396)
23:07:58 [2026-05-05T15:07:58.497Z] rsync: [receiver] mkstemp "/data/docker-ce/linux/centos/7/aarch64/nightly/Packages/.docker-ce-0.0.0.20190512050252.8df5c8a-0.el7.aarch64.rpm.kY1YEx" failed: No space left on device (28)
23:07:58 [2026-05-05T15:07:58.497Z]
23:07:58 [2026-05-05T15:07:58.748Z] 0 0% 0.00kB/s 0:00:00
23:07:59 [2026-05-05T15:07:59.659Z] 3,033,822 17% 2.89MB/s 0:00:04
23:07:59 [2026-05-05T15:07:59.659Z] 15,451,854 88% 7.37MB/s 0:00:00
23:07:59 [2026-05-05T15:07:59.659Z] 17,414,960 100% 7.70MB/s 0:00:02 (xfr#326, ir-chk=1217/3396)
23:07:59 [2026-05-05T15:07:59.659Z] rsync: [receiver] mkstemp "/data/docker-ce/linux/centos/7/aarch64/nightly/Packages/.docker-ce-0.0.0.20190514043712.fb2abae-0.el7.aarch64.rpm.9FByPK" failed: No space left on device (28)
23:07:59 [2026-05-05T15:07:59.909Z]
23:08:00 [2026-05-05T15:08:00.820Z] 0 0% 0.00kB/s 0:00:00
23:08:01 [2026-05-05T15:08:01.371Z] 10,209,413 58% 9.74MB/s 0:00:00
23:08:01 [2026-05-05T15:08:01.371Z] 17,414,868 100% 10.12MB/s 0:00:01 (xfr#327, ir-chk=1216/3396)
23:08:01 [2026-05-05T15:08:01.371Z] rsync: [receiver] mkstemp "/data/docker-ce/linux/centos/7/aarch64/nightly/Packages/.docker-ce-0.0.0.20190515050035.b274b68-0.el7.aarch64.rpm.z5iipN" failed: No space left on device (28)
23:08:01 [2026-05-05T15:08:01.371Z]
23:08:01 [2026-05-05T15:08:01.622Z] 0 0% 0.00kB/s 0:00:00
23:08:02 [2026-05-05T15:08:02.533Z] 5,114,415 29% 4.88MB/s 0:00:02
23:08:02 [2026-05-05T15:08:02.533Z] 17,475,772 100% 8.43MB/s 0:00:01 (xfr#328, ir-chk=1215/3396)
23:08:02 [2026-05-05T15:08:02.533Z] rsync: [receiver] mkstemp "/data/docker-ce/linux/centos/7/aarch64/nightly/Packages/.docker-ce-0.0.0.20190515210812.c58b5bc-0.el7.aarch64.rpm.2lkib3" failed: No space left on device (28)
23:08:02 [2026-05-05T15:08:02.533Z]
23:08:02 [2026-05-05T15:08:02.533Z] 0 0% 0.00kB/s 0:00:00
23:08:03 [2026-05-05T15:08:03.876Z] 363,459 2% 354.94kB/s 0:00:48
23:08:04 [2026-05-05T15:08:04.127Z] 12,584,895 72% 6.00MB/s 0:00:00
23:08:04 [2026-05-05T15:08:04.127Z] 17,475,780 100% 7.00MB/s 0:00:02 (xfr#329, ir-chk=1214/3396)
23:08:04 [2026-05-05T15:08:04.127Z] rsync: [receiver] mkstemp "/data/docker-ce/linux/centos/7/aarch64/nightly/Packages/.docker-ce-0.0.0.20190517171028.f4f33ba-0.el7.aarch64.rpm.5aQKOR" failed: No space left on device (28)
23:08:04 [2026-05-05T15:08:04.127Z]
23:08:04 [2026-05-05T15:08:04.677Z] 0 0% 0.00kB/s 0:00:00
23:08:05 [2026-05-05T15:08:05.588Z] 7,637,339 43% 7.28MB/s 0:00:01
23:08:05 [2026-05-05T15:08:05.588Z] 17,475,704 100% 9.28MB/s 0:00:01 (xfr#330, ir-chk=1213/3396)
23:08:05 [2026-05-05T15:08:05.588Z] rsync: [receiver] mkstemp "/data/docker-ce/linux/centos/7/aarch64/nightly/Packages/.docker-ce-0.0.0.20190528210354.b990118-0.el7.aarch64.rpm.k9sMSk" failed: No space left on device (28)
23:08:05 [2026-05-05T15:08:05.588Z]
23:08:05 [2026-05-05T15:08:05.588Z] 0 0% 0.00kB/s 0:00:00
23:08:06 [2026-05-05T15:08:06.932Z] 2,362,131 13% 2.25MB/s 0:00:06
23:08:06 [2026-05-05T15:08:06.932Z] 14,403,363 82% 6.58MB/s 0:00:00
23:08:06 [2026-05-05T15:08:06.932Z] 17,483,464 100% 7.32MB/s 0:00:02 (xfr#331, ir-chk=1212/3396)
23:08:06 [2026-05-05T15:08:06.932Z] rsync: [receiver] mkstemp "/data/docker-ce/linux/centos/7/aarch64/nightly/Packages/.docker-ce-0.0.0.20190529210211.555b5fd-0.el7.aarch64.rpm.k9Eqlm" failed: No space left on device (28)
23:08:06 [2026-05-05T15:08:06.932Z]
23:08:07 [2026-05-05T15:08:07.843Z] 0 0% 0.00kB/s 0:00:00
23:08:08 [2026-05-05T15:08:08.754Z] 10,307,707 58% 9.83MB/s 0:00:00
23:08:08 [2026-05-05T15:08:08.754Z] 17,483,488 100% 8.78MB/s 0:00:01 (xfr#332, ir-chk=1211/3396)
23:08:08 [2026-05-05T15:08:08.754Z] rsync: [receiver] mkstemp "/data/docker-ce/linux/centos/7/aarch64/nightly/Packages/.docker-ce-0.0.0.20190530210241.55077c3-0.el7.aarch64.rpm.5b0Uu5" failed: No space left on device (28)
23:08:08 [2026-05-05T15:08:08.754Z]
23:08:08 [2026-05-05T15:08:08.754Z] 0 0% 0.00kB/s 0:00:00
23:08:09 [2026-05-05T15:08:09.665Z] 1,166,203 6% 1.11MB/s 0:00:14
23:08:09 [2026-05-05T15:08:09.665Z] 17,466,913 99% 8.32MB/s 0:00:00
23:08:09 [2026-05-05T15:08:09.665Z] 17,483,844 100% 8.33MB/s 0:00:02 (xfr#333, ir-chk=1210/3396)
23:08:09 [2026-05-05T15:08:09.665Z] rsync: [receiver] mkstemp "/data/docker-ce/linux/centos/7/aarch64/nightly/Packages/.docker-ce-0.0.0.20190602210104.8bc6c65-0.el7.aarch64.rpm.WT1RSU" failed: No space left on device (28)
23:08:09 [2026-05-05T15:08:09.665Z]
23:08:11 [2026-05-05T15:08:11.008Z] 0 0% 0.00kB/s 0:00:00
23:08:11 [2026-05-05T15:08:11.919Z] 8,816,889 50% 8.37MB/s 0:00:01
23:08:12 [2026-05-05T15:08:12.470Z] 14,059,329 80% 6.69MB/s 0:00:00
23:08:12 [2026-05-05T15:08:12.470Z] 17,479,724 100% 6.21MB/s 0:00:02 (xfr#334, ir-chk=1209/3396)
23:08:12 [2026-05-05T15:08:12.470Z] rsync: [receiver] mkstemp "/data/docker-ce/linux/centos/7/aarch64/nightly/Packages/.docker-ce-0.0.0.20190604010150.6f8ce5b-0.el7.aarch64.rpm.ScdEaM" failed: No space left on device (28)
23:08:12 [2026-05-05T15:08:12.470Z]
23:08:12 [2026-05-05T15:08:12.720Z] 0 0% 0.00kB/s 0:00:00
23:08:13 [2026-05-05T15:08:13.631Z] 1,035,142 5% 1004.85kB/s 0:00:16
23:08:14 [2026-05-05T15:08:14.974Z] 2,706,169 15% 1.29MB/s 0:00:11
23:08:15 [2026-05-05T15:08:15.885Z] 4,000,396 22% 1.27MB/s 0:00:10
23:08:16 [2026-05-05T15:08:16.796Z] 5,655,040 32% 1.35MB/s 0:00:08
23:08:17 [2026-05-05T15:08:17.046Z] 11,978,734 68% 2.61MB/s 0:00:02
23:08:17 [2026-05-05T15:08:17.046Z] 17,474,880 100% 3.12MB/s 0:00:05 (xfr#335, ir-chk=1208/3396)
23:08:17 [2026-05-05T15:08:17.046Z] rsync: [receiver] mkstemp "/data/docker-ce/linux/centos/7/aarch64/nightly/Packages/.docker-ce-0.0.0.20190604210709.946ce19-0.el7.aarch64.rpm.1fx4WO" failed: No space left on device (28)
23:08:17 [2026-05-05T15:08:17.046Z]
23:08:17 [2026-05-05T15:08:17.957Z] 0 0% 0.00kB/s 0:00:00
23:08:18 [2026-05-05T15:08:18.208Z] 12,257,246 70% 11.49MB/s 0:00:00
23:08:18 [2026-05-05T15:08:18.208Z] 17,493,972 100% 11.24MB/s 0:00:01 (xfr#336, ir-chk=1207/3396)
23:08:18 [2026-05-05T15:08:18.208Z] rsync: [receiver] mkstemp "/data/docker-ce/linux/centos/7/aarch64/nightly/Packages/.docker-ce-0.0.0.20190606011545.41653cf-0.el7.aarch64.rpm.bgMCiG" failed: No space left on device (28)
23:08:18 [2026-05-05T15:08:18.208Z]
23:08:18 [2026-05-05T15:08:18.759Z] 0 0% 0.00kB/s 0:00:00
23:08:19 [2026-05-05T15:08:19.669Z] 7,326,069 41% 6.99MB/s 0:00:01
23:08:19 [2026-05-05T15:08:19.670Z] 17,493,972 100% 9.22MB/s 0:00:01 (xfr#337, ir-chk=1206/3396)
23:08:19 [2026-05-05T15:08:19.670Z] rsync: [receiver] mkstemp "/data/docker-ce/linux/centos/7/aarch64/nightly/Packages/.docker-ce-0.0.0.20190607010609.76fb764-0.el7.aarch64.rpm.f5k4BP" failed: No space left on device (28)
23:08:19 [2026-05-05T15:08:19.670Z]
23:08:19 [2026-05-05T15:08:19.670Z] 0 0% 0.00kB/s 0:00:00
23:08:21 [2026-05-05T15:08:21.013Z] 2,362,134 13% 2.25MB/s 0:00:06
23:08:21 [2026-05-05T15:08:21.013Z] 12,601,275 72% 6.01MB/s 0:00:00
23:08:21 [2026-05-05T15:08:21.013Z] 17,494,048 100% 7.07MB/s 0:00:02 (xfr#338, ir-chk=1205/3396)
23:08:21 [2026-05-05T15:08:21.013Z] rsync: [receiver] mkstemp "/data/docker-ce/linux/centos/7/aarch64/nightly/Packages/.docker-ce-0.0.0.20190607210243.b93f571-0.el7.aarch64.rpm.71hs4C" failed: No space left on device (28)
23:08:21 [2026-05-05T15:08:21.013Z]
23:08:21 [2026-05-05T15:08:21.924Z] 0 0% 0.00kB/s 0:00:00
23:08:22 [2026-05-05T15:08:22.475Z] 9,308,369 53% 8.87MB/s 0:00:00
23:08:22 [2026-05-05T15:08:22.475Z] 17,499,964 100% 10.00MB/s 0:00:01 (xfr#339, ir-chk=1204/3396)
23:08:22 [2026-05-05T15:08:22.475Z] rsync: [receiver] mkstemp "/data/docker-ce/linux/centos/7/aarch64/nightly/Packages/.docker-ce-0.0.0.20190612010257.8feff36-0.el7.aarch64.rpm.qv2kHY" failed: No space left on device (28)
23:08:22 [2026-05-05T15:08:22.475Z]
23:08:22 [2026-05-05T15:08:22.725Z] 0 0% 0.00kB/s 0:00:00
23:08:23 [2026-05-05T15:08:23.636Z] 3,001,057 17% 2.86MB/s 0:00:04
23:08:24 [2026-05-05T15:08:24.979Z] 7,244,155 41% 3.45MB/s 0:00:02
23:08:25 [2026-05-05T15:08:25.890Z] 10,455,151 59% 3.32MB/s 0:00:02
23:08:26 [2026-05-05T15:08:26.441Z] 14,092,093 80% 3.36MB/s 0:00:00
23:08:26 [2026-05-05T15:08:26.441Z] 17,497,272 100% 3.55MB/s 0:00:04 (xfr#340, ir-chk=1203/3396)
23:08:26 [2026-05-05T15:08:26.441Z] rsync: [receiver] mkstemp "/data/docker-ce/linux/centos/7/aarch64/nightly/Packages/.docker-ce-0.0.0.20190617210351.ba9a70f-0.el7.aarch64.rpm.GAY2iF" failed: No space left on device (28)
23:08:26 [2026-05-05T15:08:26.441Z]
23:08:26 [2026-05-05T15:08:26.691Z] 0 0% 0.00kB/s 0:00:00
23:08:28 [2026-05-05T15:08:28.034Z] 1,526,623 8% 1.46MB/s 0:00:10
23:08:28 [2026-05-05T15:08:28.285Z] 12,273,625 70% 5.85MB/s 0:00:00
23:08:28 [2026-05-05T15:08:28.285Z] 17,500,800 100% 6.69MB/s 0:00:02 (xfr#341, ir-chk=1202/3396)
23:08:28 [2026-05-05T15:08:28.285Z] rsync: [receiver] mkstemp "/data/docker-ce/linux/centos/7/aarch64/nightly/Packages/.docker-ce-0.0.0.20190618210524.dc57877-0.el7.aarch64.rpm.Ri3ObU" failed: No space left on device (28)
23:08:28 [2026-05-05T15:08:28.285Z]
23:08:28 [2026-05-05T15:08:28.835Z] 0 0% 0.00kB/s 0:00:00
23:08:29 [2026-05-05T15:08:29.386Z] 3,590,834 20% 3.42MB/s 0:00:03
23:08:29 [2026-05-05T15:08:29.386Z] 17,497,188 100% 10.14MB/s 0:00:01 (xfr#342, ir-chk=1201/3396)
23:08:29 [2026-05-05T15:08:29.386Z] rsync: [receiver] mkstemp "/data/docker-ce/linux/centos/7/aarch64/nightly/Packages/.docker-ce-0.0.0.20190620123746.9f3fbdf-0.el7.aarch64.rpm.ZK4Oy0" failed: No space left on device (28)
23:08:29 [2026-05-05T15:08:29.386Z]
23:08:29 [2026-05-05T15:08:29.937Z] 0 0% 0.00kB/s 0:00:00
23:08:30 [2026-05-05T15:08:30.848Z] 4,508,258 25% 4.27MB/s 0:00:02
23:08:30 [2026-05-05T15:08:30.848Z] 15,959,714 91% 7.58MB/s 0:00:00
23:08:30 [2026-05-05T15:08:30.848Z] 17,497,148 100% 8.00MB/s 0:00:02 (xfr#343, ir-chk=1200/3396)
23:08:30 [2026-05-05T15:08:30.848Z] rsync: [receiver] mkstemp "/data/docker-ce/linux/centos/7/aarch64/nightly/Packages/.docker-ce-0.0.0.20190621090422.9701ac4-0.el7.aarch64.rpm.2hREp1" failed: No space left on device (28)
23:08:30 [2026-05-05T15:08:30.848Z]
23:08:31 [2026-05-05T15:08:31.759Z] 0 0% 0.00kB/s 0:00:00
23:08:32 [2026-05-05T15:08:32.310Z] 11,520,025 65% 10.99MB/s 0:00:00
23:08:32 [2026-05-05T15:08:32.310Z] 17,497,164 100% 11.42MB/s 0:00:01 (xfr#344, ir-chk=1199/3396)
23:08:32 [2026-05-05T15:08:32.310Z] rsync: [receiver] mkstemp "/data/docker-ce/linux/centos/7/aarch64/nightly/Packages/.docker-ce-0.0.0.20190625011444.de56849-0.el7.aarch64.rpm.B2zQ4S" failed: No space left on device (28)
23:08:32 [2026-05-05T15:08:32.310Z]
23:08:32 [2026-05-05T15:08:32.860Z] 0 0% 0.00kB/s 0:00:00
23:08:33 [2026-05-05T15:08:33.771Z] 6,687,145 38% 6.36MB/s 0:00:01
23:08:33 [2026-05-05T15:08:33.771Z] 17,499,040 100% 8.94MB/s 0:00:01 (xfr#345, ir-chk=1198/3396)
23:08:33 [2026-05-05T15:08:33.771Z] rsync: [receiver] mkstemp "/data/docker-ce/linux/centos/7/aarch64/nightly/Packages/.docker-ce-0.0.0.20190626050337.cd08254-0.el7.aarch64.rpm.Wy28FV" failed: No space left on device (28)
23:08:33 [2026-05-05T15:08:33.771Z]
23:08:33 [2026-05-05T15:08:33.771Z] 0 0% 0.00kB/s 0:00:00
23:08:34 [2026-05-05T15:08:34.682Z] 1,673,506 9% 1.57MB/s 0:00:09
23:08:34 [2026-05-05T15:08:34.933Z] 13,993,240 79% 6.62MB/s 0:00:00
23:08:34 [2026-05-05T15:08:34.933Z] 17,498,212 100% 7.33MB/s 0:00:02 (xfr#346, ir-chk=1197/3396)
23:08:34 [2026-05-05T15:08:34.933Z] rsync: [receiver] mkstemp "/data/docker-ce/linux/centos/7/aarch64/nightly/Packages/.docker-ce-0.0.0.20190626210017.554e31a-0.el7.aarch64.rpm.ayzcfX" failed: No space left on device (28)
23:08:35 [2026-05-05T15:08:35.183Z]
23:08:35 [2026-05-05T15:08:35.734Z] 0 0% 0.00kB/s 0:00:00
23:08:36 [2026-05-05T15:08:36.645Z] 8,865,482 50% 8.45MB/s 0:00:00
23:08:36 [2026-05-05T15:08:36.645Z] 17,496,152 100% 8.50MB/s 0:00:01 (xfr#347, ir-chk=1196/3396)
23:08:36 [2026-05-05T15:08:36.645Z] rsync: [receiver] mkstemp "/data/docker-ce/linux/centos/7/aarch64/nightly/Packages/.docker-ce-0.0.0.20190628010847.bdb8a88-0.el7.aarch64.rpm.QYjNnW" failed: No space left on device (28)
23:08:36 [2026-05-05T15:08:36.895Z]
23:08:36 [2026-05-05T15:08:36.895Z] 0 0% 0.00kB/s 0:00:00
23:08:37 [2026-05-05T15:08:37.806Z] 182,686 1% 178.40kB/s 0:01:37
23:08:38 [2026-05-05T15:08:38.717Z] 8,390,380 47% 4.00MB/s 0:00:02
23:08:39 [2026-05-05T15:08:39.628Z] 14,353,657 81% 4.55MB/s 0:00:00
23:08:39 [2026-05-05T15:08:39.628Z] 17,529,328 100% 4.29MB/s 0:00:03 (xfr#348, ir-chk=1195/3396)
23:08:39 [2026-05-05T15:08:39.628Z] rsync: [receiver] mkstemp "/data/docker-ce/linux/centos/7/aarch64/nightly/Packages/.docker-ce-0.0.0.20190628170438.81b6398-0.el7.aarch64.rpm.xRQLvT" failed: No space left on device (28)
23:08:39 [2026-05-05T15:08:39.628Z]
23:08:39 [2026-05-05T15:08:39.879Z] 0 0% 0.00kB/s 0:00:00
23:08:40 [2026-05-05T15:08:40.789Z] 149,919 0% 143.96kB/s 0:02:00
23:08:41 [2026-05-05T15:08:41.701Z] 10,372,677 59% 4.91MB/s 0:00:01
23:08:41 [2026-05-05T15:08:41.701Z] 17,532,944 100% 5.90MB/s 0:00:02 (xfr#349, ir-chk=1194/3396)
23:08:41 [2026-05-05T15:08:41.701Z] rsync: [receiver] mkstemp "/data/docker-ce/linux/centos/7/aarch64/nightly/Packages/.docker-ce-0.0.0.20190629210226.8075b3e-0.el7.aarch64.rpm.I2gXdY" failed: No space left on device (28)
23:08:41 [2026-05-05T15:08:41.701Z]
23:08:41 [2026-05-05T15:08:41.701Z] 0 0% 0.00kB/s 0:00:00
23:08:43 [2026-05-05T15:08:43.044Z] 1,345,849 7% 1.28MB/s 0:00:12
23:08:43 [2026-05-05T15:08:43.955Z] 8,488,675 48% 4.05MB/s 0:00:02
23:08:44 [2026-05-05T15:08:44.866Z] 12,469,651 71% 3.96MB/s 0:00:01
23:08:45 [2026-05-05T15:08:45.777Z] 14,746,837 84% 3.51MB/s 0:00:00
23:08:46 [2026-05-05T15:08:46.328Z] 16,598,074 94% 3.63MB/s 0:00:00
23:08:46 [2026-05-05T15:08:46.328Z] 17,532,520 100% 3.11MB/s 0:00:05 (xfr#350, ir-chk=1193/3396)
23:08:46 [2026-05-05T15:08:46.328Z] rsync: [receiver] mkstemp "/data/docker-ce/linux/centos/7/aarch64/nightly/Packages/.docker-ce-0.0.0.20190703050146.6b65c46-0.el7.aarch64.rpm.AfiNVM" failed: No space left on device (28)
23:08:46 [2026-05-05T15:08:46.328Z]
23:08:46 [2026-05-05T15:08:46.878Z] 0 0% 0.00kB/s 0:00:00
23:08:47 [2026-05-05T15:08:47.789Z] 2,033,927 11% 1.94MB/s 0:00:07
23:08:48 [2026-05-05T15:08:48.700Z] 6,752,123 38% 3.22MB/s 0:00:03
23:08:48 [2026-05-05T15:08:48.700Z] 17,558,136 100% 6.17MB/s 0:00:02 (xfr#351, ir-chk=1192/3396)
23:08:48 [2026-05-05T15:08:48.700Z] rsync: [receiver] mkstemp "/data/docker-ce/linux/centos/7/aarch64/nightly/Packages/.docker-ce-0.0.0.20190703203708.ea740dd-0.el7.aarch64.rpm.78cyWu" failed: No space left on device (28)
23:08:48 [2026-05-05T15:08:48.700Z]
23:08:48 [2026-05-05T15:08:48.700Z] 0 0% 0.00kB/s 0:00:00
23:08:50 [2026-05-05T15:08:50.044Z] 7,079,773 40% 6.74MB/s 0:00:01
23:08:50 [2026-05-05T15:08:50.044Z] 17,556,976 100% 8.64MB/s 0:00:01 (xfr#352, ir-chk=1191/3396)
23:08:50 [2026-05-05T15:08:50.044Z] rsync: [receiver] mkstemp "/data/docker-ce/linux/centos/7/aarch64/nightly/Packages/.docker-ce-0.0.0.20190704170236.aedb89c-0.el7.aarch64.rpm.ej4XLD" failed: No space left on device (28)
23:08:50 [2026-05-05T15:08:50.044Z]
23:08:50 [2026-05-05T15:08:50.044Z] 0 0% 0.00kB/s 0:00:00
23:08:50 [2026-05-05T15:08:50.955Z] 723,320 4% 706.37kB/s 0:00:23
23:08:51 [2026-05-05T15:08:51.205Z] 13,518,149 76% 6.45MB/s 0:00:00
23:08:51 [2026-05-05T15:08:51.205Z] 17,557,084 100% 7.37MB/s 0:00:02 (xfr#353, ir-chk=1190/3396)
23:08:51 [2026-05-05T15:08:51.205Z] rsync: [receiver] mkstemp "/data/docker-ce/linux/centos/7/aarch64/nightly/Packages/.docker-ce-0.0.0.20190706050159.1f80d64-0.el7.aarch64.rpm.qWDHQw" failed: No space left on device (28)
23:08:51 [2026-05-05T15:08:51.205Z]
23:08:51 [2026-05-05T15:08:51.756Z] 0 0% 0.00kB/s 0:00:00
23:08:52 [2026-05-05T15:08:52.667Z] 8,341,248 47% 7.95MB/s 0:00:01
23:08:52 [2026-05-05T15:08:52.667Z] 17,554,464 100% 9.74MB/s 0:00:01 (xfr#354, ir-chk=1189/3396)
23:08:52 [2026-05-05T15:08:52.667Z] rsync: [receiver] mkstemp "/data/docker-ce/linux/centos/7/aarch64/nightly/Packages/.docker-ce-0.0.0.20190706210349.7086ce8-0.el7.aarch64.rpm.0SLzAW" failed: No space left on device (28)
23:08:52 [2026-05-05T15:08:52.667Z]
23:08:52 [2026-05-05T15:08:52.918Z] 0 0% 0.00kB/s 0:00:00
23:08:53 [2026-05-05T15:08:53.829Z] 3,377,303 19% 3.22MB/s 0:00:04
23:08:53 [2026-05-05T15:08:53.829Z] 15,910,010 90% 7.59MB/s 0:00:00
23:08:53 [2026-05-05T15:08:53.829Z] 17,554,368 100% 7.89MB/s 0:00:02 (xfr#355, ir-chk=1188/3396)
23:08:53 [2026-05-05T15:08:53.829Z] rsync: [receiver] mkstemp "/data/docker-ce/linux/centos/7/aarch64/nightly/Packages/.docker-ce-0.0.0.20190708210316.d3539bd-0.el7.aarch64.rpm.w3Qtj4" failed: No space left on device (28)
23:08:54 [2026-05-05T15:08:54.080Z]
23:08:54 [2026-05-05T15:08:54.990Z] 0 0% 0.00kB/s 0:00:00
23:08:55 [2026-05-05T15:08:55.541Z] 8,619,745 49% 8.21MB/s 0:00:01
23:08:55 [2026-05-05T15:08:55.541Z] 17,548,852 100% 9.26MB/s 0:00:01 (xfr#356, ir-chk=1187/3396)
23:08:55 [2026-05-05T15:08:55.541Z] rsync: [receiver] mkstemp "/data/docker-ce/linux/centos/7/aarch64/nightly/Packages/.docker-ce-0.0.0.20190710010648.0143db1-0.el7.aarch64.rpm.Ex41ie" failed: No space left on device (28)
23:08:55 [2026-05-05T15:08:55.541Z]
23:08:55 [2026-05-05T15:08:55.792Z] 0 0% 0.00kB/s 0:00:00
23:08:56 [2026-05-05T15:08:56.703Z] 3,360,919 19% 3.21MB/s 0:00:04
23:08:56 [2026-05-05T15:08:56.703Z] 17,555,360 100% 8.40MB/s 0:00:01 (xfr#357, ir-chk=1186/3396)
23:08:56 [2026-05-05T15:08:56.703Z] rsync: [receiver] mkstemp "/data/docker-ce/linux/centos/7/aarch64/nightly/Packages/.docker-ce-0.0.0.20190710203805.96736e4-0.el7.aarch64.rpm.MT9BFs" failed: No space left on device (28)
23:08:56 [2026-05-05T15:08:56.703Z]
23:08:56 [2026-05-05T15:08:56.703Z] 0 0% 0.00kB/s 0:00:00
23:08:58 [2026-05-05T15:08:58.046Z] 133,542 0% 129.51kB/s 0:02:14
23:08:58 [2026-05-05T15:08:58.296Z] 12,846,459 73% 6.10MB/s 0:00:00
23:08:58 [2026-05-05T15:08:58.296Z] 17,555,360 100% 7.02MB/s 0:00:02 (xfr#358, ir-chk=1185/3396)
23:08:58 [2026-05-05T15:08:58.296Z] rsync: [receiver] mkstemp "/data/docker-ce/linux/centos/7/aarch64/nightly/Packages/.docker-ce-0.0.0.20190711171509.4b0377b-0.el7.aarch64.rpm.8kx2kk" failed: No space left on device (28)
23:08:58 [2026-05-05T15:08:58.296Z]
23:08:58 [2026-05-05T15:08:58.847Z] 0 0% 0.00kB/s 0:00:00
23:08:59 [2026-05-05T15:08:59.758Z] 7,636,784 43% 7.28MB/s 0:00:01
23:08:59 [2026-05-05T15:08:59.758Z] 17,555,352 100% 9.33MB/s 0:00:01 (xfr#359, ir-chk=1184/3396)
23:08:59 [2026-05-05T15:08:59.758Z] rsync: [receiver] mkstemp "/data/docker-ce/linux/centos/7/aarch64/nightly/Packages/.docker-ce-0.0.0.20190713050246.806d42b-0.el7.aarch64.rpm.G0Ko7i" failed: No space left on device (28)
23:08:59 [2026-05-05T15:08:59.758Z]
23:08:59 [2026-05-05T15:08:59.758Z] 0 0% 0.00kB/s 0:00:00
23:09:01 [2026-05-05T15:09:01.101Z] 2,230,517 12% 2.13MB/s 0:00:07
23:09:01 [2026-05-05T15:09:01.101Z] 15,041,732 85% 7.17MB/s 0:00:00
23:09:01 [2026-05-05T15:09:01.101Z] 17,555,480 100% 7.58MB/s 0:00:02 (xfr#360, ir-chk=1183/3396)
23:09:01 [2026-05-05T15:09:01.101Z] rsync: [receiver] mkstemp "/data/docker-ce/linux/centos/7/aarch64/nightly/Packages/.docker-ce-0.0.0.20190714170256.22f3318-0.el7.aarch64.rpm.Et0NDw" failed: No space left on device (28)
23:09:01 [2026-05-05T15:09:01.101Z]
23:09:02 [2026-05-05T15:09:02.012Z] 0 0% 0.00kB/s 0:00:00
23:09:02 [2026-05-05T15:09:02.563Z] 9,881,205 56% 9.42MB/s 0:00:00
23:09:02 [2026-05-05T15:09:02.563Z] 17,559,176 100% 10.32MB/s 0:00:01 (xfr#361, ir-chk=1182/3396)
23:09:02 [2026-05-05T15:09:02.563Z] rsync: [receiver] mkstemp "/data/docker-ce/linux/centos/7/aarch64/nightly/Packages/.docker-ce-0.0.0.20190716050641.653cba7-0.el7.aarch64.rpm.rnJlSr" failed: No space left on device (28)
23:09:02 [2026-05-05T15:09:02.563Z]
23:09:02 [2026-05-05T15:09:02.813Z] 0 0% 0.00kB/s 0:00:00
23:09:03 [2026-05-05T15:09:03.724Z] 4,704,294 26% 4.47MB/s 0:00:02
23:09:03 [2026-05-05T15:09:03.975Z] 17,024,028 96% 8.10MB/s 0:00:00
23:09:03 [2026-05-05T15:09:03.975Z] 17,554,160 100% 8.21MB/s 0:00:02 (xfr#362, ir-chk=1181/3396)
23:09:03 [2026-05-05T15:09:03.975Z] rsync: [receiver] mkstemp "/data/docker-ce/linux/centos/7/aarch64/nightly/Packages/.docker-ce-0.0.0.20190717011415.0cd65b8-0.el7.aarch64.rpm.32RSkW" failed: No space left on device (28)
23:09:03 [2026-05-05T15:09:03.975Z]
23:09:04 [2026-05-05T15:09:04.886Z] 0 0% 0.00kB/s 0:00:00
23:09:05 [2026-05-05T15:09:05.436Z] 11,339,258 64% 10.81MB/s 0:00:00
23:09:05 [2026-05-05T15:09:05.436Z] 17,561,264 100% 11.51MB/s 0:00:01 (xfr#363, ir-chk=1180/3396)
23:09:05 [2026-05-05T15:09:05.436Z] rsync: [receiver] mkstemp "/data/docker-ce/linux/centos/7/aarch64/nightly/Packages/.docker-ce-0.0.0.20190718010340.93c825c-0.el7.aarch64.rpm.5FjiEz" failed: No space left on device (28)
23:09:05 [2026-05-05T15:09:05.436Z]
23:09:05 [2026-05-05T15:09:05.987Z] 0 0% 0.00kB/s 0:00:00
23:09:06 [2026-05-05T15:09:06.898Z] 6,735,741 38% 6.42MB/s 0:00:01
23:09:07 [2026-05-05T15:09:07.449Z] 15,090,879 85% 7.20MB/s 0:00:00
23:09:07 [2026-05-05T15:09:07.449Z] 17,563,956 100% 6.39MB/s 0:00:02 (xfr#364, ir-chk=1179/3396)
23:09:07 [2026-05-05T15:09:07.449Z] rsync: [receiver] mkstemp "/data/docker-ce/linux/centos/7/aarch64/nightly/Packages/.docker-ce-0.0.0.20190719010106.7606ffb-0.el7.aarch64.rpm.7pN9Ve" failed: No space left on device (28)
23:09:07 [2026-05-05T15:09:07.449Z]
23:09:07 [2026-05-05T15:09:07.999Z] 0 0% 0.00kB/s 0:00:00
23:09:08 [2026-05-05T15:09:08.910Z] 1,427,773 8% 1.36MB/s 0:00:11
23:09:09 [2026-05-05T15:09:09.821Z] 5,605,342 31% 2.67MB/s 0:00:04
23:09:09 [2026-05-05T15:09:09.821Z] 17,564,068 100% 5.79MB/s 0:00:02 (xfr#365, ir-chk=1178/3396)
23:09:09 [2026-05-05T15:09:09.821Z] rsync: [receiver] mkstemp "/data/docker-ce/linux/centos/7/aarch64/nightly/Packages/.docker-ce-0.0.0.20190723010156.67a3bd4-0.el7.aarch64.rpm.SMHno2" failed: No space left on device (28)
23:09:09 [2026-05-05T15:09:09.821Z]
23:09:09 [2026-05-05T15:09:09.821Z] 0 0% 0.00kB/s 0:00:00
23:09:10 [2026-05-05T15:09:10.732Z] 2,525,404 14% 2.41MB/s 0:00:06
23:09:10 [2026-05-05T15:09:10.983Z] 17,007,646 96% 8.11MB/s 0:00:00
23:09:10 [2026-05-05T15:09:10.983Z] 17,561,880 100% 8.27MB/s 0:00:02 (xfr#366, ir-chk=1177/3396)
23:09:10 [2026-05-05T15:09:10.983Z] rsync: [receiver] mkstemp "/data/docker-ce/linux/centos/7/aarch64/nightly/Packages/.docker-ce-0.0.0.20190726050219.5fa7eb5-0.el7.aarch64.rpm.RyQ5gp" failed: No space left on device (28)
23:09:10 [2026-05-05T15:09:10.983Z]
23:09:11 [2026-05-05T15:09:11.894Z] 0 0% 0.00kB/s 0:00:00
23:09:12 [2026-05-05T15:09:12.805Z] 8,947,394 50% 8.52MB/s 0:00:00
23:09:12 [2026-05-05T15:09:12.805Z] 17,561,888 100% 9.14MB/s 0:00:01 (xfr#367, ir-chk=1176/3396)
23:09:12 [2026-05-05T15:09:12.805Z] rsync: [receiver] mkstemp "/data/docker-ce/linux/centos/7/aarch64/nightly/Packages/.docker-ce-0.0.0.20190727010531.15bdbd7-0.el7.aarch64.rpm.SmIhXJ" failed: No space left on device (28)
23:09:12 [2026-05-05T15:09:12.805Z]
23:09:12 [2026-05-05T15:09:12.805Z] 0 0% 0.00kB/s 0:00:00
23:09:13 [2026-05-05T15:09:13.716Z] 1,820,951 10% 1.73MB/s 0:00:08
23:09:14 [2026-05-05T15:09:14.627Z] 13,763,882 78% 6.56MB/s 0:00:00
23:09:14 [2026-05-05T15:09:14.627Z] 17,561,500 100% 6.14MB/s 0:00:02 (xfr#368, ir-chk=1175/3396)
23:09:14 [2026-05-05T15:09:14.627Z] rsync: [receiver] mkstemp "/data/docker-ce/linux/centos/7/aarch64/nightly/Packages/.docker-ce-cli-0.0.0.20180902050145.a9dc80d-0.el7.aarch64.rpm.4Xyk9k" failed: No space left on device (28)
23:09:14 [2026-05-05T15:09:14.627Z]
23:09:14 [2026-05-05T15:09:14.878Z] 0 0% 0.00kB/s 0:00:00
23:09:15 [2026-05-05T15:09:15.789Z] 1,194,682 12% 1.14MB/s 0:00:06
23:09:16 [2026-05-05T15:09:16.039Z] 7,108,810 76% 3.39MB/s 0:00:00
23:09:16 [2026-05-05T15:09:16.039Z] 9,322,608 100% 4.02MB/s 0:00:02 (xfr#369, ir-chk=1174/3396)
23:09:16 [2026-05-05T15:09:16.039Z] rsync: [receiver] mkstemp "/data/docker-ce/linux/centos/7/aarch64/nightly/Packages/.docker-ce-cli-0.0.0.20180905050215.81ba2aa-0.el7.aarch64.rpm.F3LNy5" failed: No space left on device (28)
23:09:16 [2026-05-05T15:09:16.039Z]
23:09:16 [2026-05-05T15:09:16.590Z] 0 0% 0.00kB/s 0:00:00
23:09:16 [2026-05-05T15:09:16.590Z] 9,323,920 100% 12.85MB/s 0:00:00 (xfr#370, ir-chk=1173/3396)
23:09:16 [2026-05-05T15:09:16.590Z] rsync: [receiver] mkstemp "/data/docker-ce/linux/centos/7/aarch64/nightly/Packages/.docker-ce-cli-0.0.0.20180906130300.4e0ee41-0.el7.aarch64.rpm.rtjpGR" failed: No space left on device (28)
23:09:16 [2026-05-05T15:09:16.590Z]
23:09:16 [2026-05-05T15:09:16.841Z] 0 0% 0.00kB/s 0:00:00
23:09:17 [2026-05-05T15:09:17.091Z] 5,978,389 64% 5.70MB/s 0:00:00
23:09:17 [2026-05-05T15:09:17.091Z] 9,332,836 100% 6.98MB/s 0:00:01 (xfr#371, ir-chk=1172/3396)
23:09:17 [2026-05-05T15:09:17.091Z] rsync: [receiver] mkstemp "/data/docker-ce/linux/centos/7/aarch64/nightly/Packages/.docker-ce-cli-0.0.0.20180907010343.01dbb15-0.el7.aarch64.rpm.4tqPpP" failed: No space left on device (28)
23:09:17 [2026-05-05T15:09:17.091Z]
23:09:18 [2026-05-05T15:09:18.002Z] 0 0% 0.00kB/s 0:00:00
23:09:18 [2026-05-05T15:09:18.002Z] 8,878,115 95% 8.47MB/s 0:00:00
23:09:18 [2026-05-05T15:09:18.002Z] 9,332,840 100% 8.67MB/s 0:00:01 (xfr#372, ir-chk=1171/3396)
23:09:18 [2026-05-05T15:09:18.002Z] rsync: [receiver] mkstemp "/data/docker-ce/linux/centos/7/aarch64/nightly/Packages/.docker-ce-cli-0.0.0.20180908010440.3376636-0.el7.aarch64.rpm.6pT8Dp" failed: No space left on device (28)
23:09:18 [2026-05-05T15:09:18.002Z]
23:09:18 [2026-05-05T15:09:18.553Z] 0 0% 0.00kB/s 0:00:00
23:09:18 [2026-05-05T15:09:18.553Z] 9,332,840 100% 11.37MB/s 0:00:00 (xfr#373, ir-chk=1170/3396)
23:09:18 [2026-05-05T15:09:18.553Z] rsync: [receiver] mkstemp "/data/docker-ce/linux/centos/7/aarch64/nightly/Packages/.docker-ce-cli-0.0.0.20180909043653.2ed7b9f-0.el7.aarch64.rpm.5GjYpq" failed: No space left on device (28)
23:09:18 [2026-05-05T15:09:18.553Z]
23:09:18 [2026-05-05T15:09:18.803Z] 0 0% 0.00kB/s 0:00:00
23:09:19 [2026-05-05T15:09:19.714Z] 2,177,619 23% 2.07MB/s 0:00:03
23:09:19 [2026-05-05T15:09:19.714Z] 9,332,836 100% 4.72MB/s 0:00:01 (xfr#374, ir-chk=1169/3396)
23:09:19 [2026-05-05T15:09:19.714Z] rsync: [receiver] mkstemp "/data/docker-ce/linux/centos/7/aarch64/nightly/Packages/.docker-ce-cli-0.0.0.20180910145423.cbcc1c2-0.el7.aarch64.rpm.7ObuFc" failed: No space left on device (28)
23:09:19 [2026-05-05T15:09:19.714Z]
23:09:19 [2026-05-05T15:09:19.965Z] 0 0% 0.00kB/s 0:00:00
23:09:20 [2026-05-05T15:09:20.515Z] 850,644 9% 830.71kB/s 0:00:10
23:09:20 [2026-05-05T15:09:20.515Z] 9,332,844 100% 5.64MB/s 0:00:01 (xfr#375, ir-chk=1168/3396)
23:09:20 [2026-05-05T15:09:20.515Z] rsync: [receiver] mkstemp "/data/docker-ce/linux/centos/7/aarch64/nightly/Packages/.docker-ce-cli-0.0.0.20180915170455.d156a93-0.el7.aarch64.rpm.KHLCyq" failed: No space left on device (28)
23:09:20 [2026-05-05T15:09:20.515Z]
23:09:20 [2026-05-05T15:09:20.766Z] 0 0% 0.00kB/s 0:00:00
23:09:20 [2026-05-05T15:09:20.766Z] 9,041,941 96% 8.62MB/s 0:00:00
23:09:20 [2026-05-05T15:09:20.766Z] 9,341,736 100% 8.73MB/s 0:00:01 (xfr#376, ir-chk=1167/3396)
23:09:20 [2026-05-05T15:09:20.766Z] rsync: [receiver] mkstemp "/data/docker-ce/linux/centos/7/aarch64/nightly/Packages/.docker-ce-cli-0.0.0.20180918010429.6881986-0.el7.aarch64.rpm.DNIoCE" failed: No space left on device (28)
23:09:20 [2026-05-05T15:09:20.766Z]
23:09:21 [2026-05-05T15:09:21.677Z] 0 0% 0.00kB/s 0:00:00
23:09:21 [2026-05-05T15:09:21.677Z] 9,341,732 100% 11.32MB/s 0:00:00 (xfr#377, ir-chk=1166/3396)
23:09:21 [2026-05-05T15:09:21.677Z] rsync: [receiver] mkstemp "/data/docker-ce/linux/centos/7/aarch64/nightly/Packages/.docker-ce-cli-0.0.0.20180918210359.ab586cd-0.el7.aarch64.rpm.x99ATW" failed: No space left on device (28)
23:09:21 [2026-05-05T15:09:21.677Z]
23:09:21 [2026-05-05T15:09:21.928Z] 0 0% 0.00kB/s 0:00:00
23:09:22 [2026-05-05T15:09:22.478Z] 2,800,154 29% 2.67MB/s 0:00:02
23:09:22 [2026-05-05T15:09:22.478Z] 9,341,748 100% 5.83MB/s 0:00:01 (xfr#378, ir-chk=1165/3396)
23:09:22 [2026-05-05T15:09:22.478Z] rsync: [receiver] mkstemp "/data/docker-ce/linux/centos/7/aarch64/nightly/Packages/.docker-ce-cli-0.0.0.20180919210302.1a15767-0.el7.aarch64.rpm.A4giqj" failed: No space left on device (28)
23:09:22 [2026-05-05T15:09:22.478Z]
23:09:22 [2026-05-05T15:09:22.729Z] 0 0% 0.00kB/s 0:00:00
23:09:23 [2026-05-05T15:09:23.279Z] 5,847,338 62% 5.58MB/s 0:00:00
23:09:23 [2026-05-05T15:09:23.279Z] 9,341,740 100% 6.95MB/s 0:00:01 (xfr#379, ir-chk=1164/3396)
23:09:23 [2026-05-05T15:09:23.279Z] rsync: [receiver] mkstemp "/data/docker-ce/linux/centos/7/aarch64/nightly/Packages/.docker-ce-cli-0.0.0.20180926205650.117ee8c-0.el7.aarch64.rpm.X9YNVw" failed: No space left on device (28)
23:09:23 [2026-05-05T15:09:23.279Z]
23:09:23 [2026-05-05T15:09:23.830Z] 0 0% 0.00kB/s 0:00:00
23:09:23 [2026-05-05T15:09:23.830Z] 8,796,055 93% 8.38MB/s 0:00:00
23:09:23 [2026-05-05T15:09:23.830Z] 9,366,808 100% 8.65MB/s 0:00:01 (xfr#380, ir-chk=1163/3396)
23:09:23 [2026-05-05T15:09:23.830Z] rsync: [receiver] mkstemp "/data/docker-ce/linux/centos/7/aarch64/nightly/Packages/.docker-ce-cli-0.0.0.20181019003649.7752b18-0.el7.aarch64.rpm.sroDTF" failed: No space left on device (28)
23:09:23 [2026-05-05T15:09:23.830Z]
23:09:24 [2026-05-05T15:09:24.741Z] 0 0% 0.00kB/s 0:00:00
23:09:24 [2026-05-05T15:09:24.741Z] 9,494,556 100% 11.26MB/s 0:00:00 (xfr#381, ir-chk=1162/3396)
23:09:24 [2026-05-05T15:09:24.741Z] rsync: [receiver] mkstemp "/data/docker-ce/linux/centos/7/aarch64/nightly/Packages/.docker-ce-cli-0.0.0.20181023003708.68852aa-0.el7.aarch64.rpm.GiFYrO" failed: No space left on device (28)
23:09:24 [2026-05-05T15:09:24.741Z]
23:09:24 [2026-05-05T15:09:24.741Z] 0 0% 0.00kB/s 0:00:00
23:09:25 [2026-05-05T15:09:25.292Z] 2,357,714 24% 2.24MB/s 0:00:03
23:09:25 [2026-05-05T15:09:25.292Z] 9,494,740 100% 5.78MB/s 0:00:01 (xfr#382, ir-chk=1161/3396)
23:09:25 [2026-05-05T15:09:25.292Z] rsync: [receiver] mkstemp "/data/docker-ce/linux/centos/7/aarch64/nightly/Packages/.docker-ce-cli-0.0.0.20181024050312.1f0be75-0.el7.aarch64.rpm.2STI5u" failed: No space left on device (28)
23:09:25 [2026-05-05T15:09:25.292Z]
23:09:25 [2026-05-05T15:09:25.842Z] 0 0% 0.00kB/s 0:00:00
23:09:26 [2026-05-05T15:09:26.093Z] 5,454,030 57% 5.20MB/s 0:00:00
23:09:26 [2026-05-05T15:09:26.093Z] 9,494,740 100% 6.85MB/s 0:00:01 (xfr#383, ir-chk=1160/3396)
23:09:26 [2026-05-05T15:09:26.093Z] rsync: [receiver] mkstemp "/data/docker-ce/linux/centos/7/aarch64/nightly/Packages/.docker-ce-cli-0.0.0.20181024210351.bd317bc-0.el7.aarch64.rpm.rajnkV" failed: No space left on device (28)
23:09:26 [2026-05-05T15:09:26.093Z]
23:09:27 [2026-05-05T15:09:27.004Z] 0 0% 0.00kB/s 0:00:00
23:09:27 [2026-05-05T15:09:27.004Z] 8,288,219 87% 7.88MB/s 0:00:00
23:09:27 [2026-05-05T15:09:27.004Z] 9,492,584 100% 8.28MB/s 0:00:01 (xfr#384, ir-chk=1159/3396)
23:09:27 [2026-05-05T15:09:27.004Z] rsync: [receiver] mkstemp "/data/docker-ce/linux/centos/7/aarch64/nightly/Packages/.docker-ce-cli-0.0.0.20181025010344.36e4073-0.el7.aarch64.rpm.BTMYk2" failed: No space left on device (28)
23:09:27 [2026-05-05T15:09:27.004Z]
23:09:27 [2026-05-05T15:09:27.915Z] 0 0% 0.00kB/s 0:00:00
23:09:27 [2026-05-05T15:09:27.915Z] 9,492,596 100% 10.63MB/s 0:00:00 (xfr#385, ir-chk=1158/3396)
23:09:27 [2026-05-05T15:09:27.915Z] rsync: [receiver] mkstemp "/data/docker-ce/linux/centos/7/aarch64/nightly/Packages/.docker-ce-cli-0.0.0.20181026003717.c53076c-0.el7.aarch64.rpm.sdhxe3" failed: No space left on device (28)
23:09:27 [2026-05-05T15:09:27.915Z]
23:09:27 [2026-05-05T15:09:27.915Z] 0 0% 0.00kB/s 0:00:00
23:09:28 [2026-05-05T15:09:28.466Z] 1,882,606 19% 1.80MB/s 0:00:04
23:09:28 [2026-05-05T15:09:28.466Z] 9,492,508 100% 5.58MB/s 0:00:01 (xfr#386, ir-chk=1157/3396)
23:09:28 [2026-05-05T15:09:28.466Z] rsync: [receiver] mkstemp "/data/docker-ce/linux/centos/7/aarch64/nightly/Packages/.docker-ce-cli-0.0.0.20181027050239.c7c18e3-0.el7.aarch64.rpm.QxfaV5" failed: No space left on device (28)
23:09:28 [2026-05-05T15:09:28.466Z]
23:09:29 [2026-05-05T15:09:29.016Z] 0 0% 0.00kB/s 0:00:00
23:09:29 [2026-05-05T15:09:29.267Z] 4,765,958 50% 4.55MB/s 0:00:01
23:09:29 [2026-05-05T15:09:29.267Z] 9,495,040 100% 6.52MB/s 0:00:01 (xfr#387, ir-chk=1156/3396)
23:09:29 [2026-05-05T15:09:29.267Z] rsync: [receiver] mkstemp "/data/docker-ce/linux/centos/7/aarch64/nightly/Packages/.docker-ce-cli-0.0.0.20181029172311.2a472a0-0.el7.aarch64.rpm.31oSjE" failed: No space left on device (28)
23:09:29 [2026-05-05T15:09:29.267Z]
23:09:29 [2026-05-05T15:09:29.818Z] 0 0% 0.00kB/s 0:00:00
23:09:30 [2026-05-05T15:09:30.068Z] 7,649,254 80% 7.25MB/s 0:00:00
23:09:30 [2026-05-05T15:09:30.068Z] 9,495,052 100% 7.92MB/s 0:00:01 (xfr#388, ir-chk=1155/3396)
23:09:30 [2026-05-05T15:09:30.068Z] rsync: [receiver] mkstemp "/data/docker-ce/linux/centos/7/aarch64/nightly/Packages/.docker-ce-cli-0.0.0.20181101010115.55e839d-0.el7.aarch64.rpm.zbpC5p" failed: No space left on device (28)
23:09:30 [2026-05-05T15:09:30.068Z]
23:09:30 [2026-05-05T15:09:30.979Z] 0 0% 0.00kB/s 0:00:00
23:09:30 [2026-05-05T15:09:30.979Z] 9,495,168 100% 10.10MB/s 0:00:00 (xfr#389, ir-chk=1154/3396)
23:09:30 [2026-05-05T15:09:30.979Z] rsync: [receiver] mkstemp "/data/docker-ce/linux/centos/7/aarch64/nightly/Packages/.docker-ce-cli-0.0.0.20181101170439.a2a624c-0.el7.aarch64.rpm.ifElfW" failed: No space left on device (28)
23:09:30 [2026-05-05T15:09:30.979Z]
23:09:30 [2026-05-05T15:09:30.979Z] 0 0% 0.00kB/s 0:00:00
23:09:31 [2026-05-05T15:09:31.530Z] 1,260,036 13% 1.20MB/s 0:00:06
23:09:31 [2026-05-05T15:09:31.530Z] 9,495,176 100% 5.44MB/s 0:00:01 (xfr#390, ir-chk=1153/3396)
23:09:31 [2026-05-05T15:09:31.530Z] rsync: [receiver] mkstemp "/data/docker-ce/linux/centos/7/aarch64/nightly/Packages/.docker-ce-cli-0.0.0.20181103010206.6aaa39f-0.el7.aarch64.rpm.2C0Q5R" failed: No space left on device (28)
23:09:31 [2026-05-05T15:09:31.530Z]
23:09:31 [2026-05-05T15:09:31.780Z] 0 0% 0.00kB/s 0:00:00
23:09:32 [2026-05-05T15:09:32.331Z] 3,864,919 40% 3.69MB/s 0:00:01
23:09:32 [2026-05-05T15:09:32.331Z] 9,495,176 100% 6.32MB/s 0:00:01 (xfr#391, ir-chk=1152/3396)
23:09:32 [2026-05-05T15:09:32.331Z] rsync: [receiver] mkstemp "/data/docker-ce/linux/centos/7/aarch64/nightly/Packages/.docker-ce-cli-0.0.0.20181104010403.904d4fe-0.el7.aarch64.rpm.YLtYou" failed: No space left on device (28)
23:09:32 [2026-05-05T15:09:32.331Z]
23:09:32 [2026-05-05T15:09:32.882Z] 0 0% 0.00kB/s 0:00:00
23:09:33 [2026-05-05T15:09:33.132Z] 7,010,333 73% 6.69MB/s 0:00:00
23:09:33 [2026-05-05T15:09:33.132Z] 9,495,176 100% 7.51MB/s 0:00:01 (xfr#392, ir-chk=1151/3396)
23:09:33 [2026-05-05T15:09:33.132Z] rsync: [receiver] mkstemp "/data/docker-ce/linux/centos/7/aarch64/nightly/Packages/.docker-ce-cli-0.0.0.20181109210344.9eddf7a-0.el7.aarch64.rpm.KthfxP" failed: No space left on device (28)
23:09:33 [2026-05-05T15:09:33.132Z]
23:09:34 [2026-05-05T15:09:34.043Z] 0 0% 0.00kB/s 0:00:00
23:09:34 [2026-05-05T15:09:34.043Z] 9,497,752 100% 9.32MB/s 0:00:00 (xfr#393, ir-chk=1150/3396)
23:09:34 [2026-05-05T15:09:34.043Z] rsync: [receiver] mkstemp "/data/docker-ce/linux/centos/7/aarch64/nightly/Packages/.docker-ce-cli-0.0.0.20181120050141.897abde-0.el7.aarch64.rpm.MTBE2n" failed: No space left on device (28)
23:09:34 [2026-05-05T15:09:34.043Z]
23:09:34 [2026-05-05T15:09:34.043Z] 0 0% 0.00kB/s 0:00:00
23:09:34 [2026-05-05T15:09:34.594Z] 375,373 3% 365.11kB/s 0:00:24
23:09:34 [2026-05-05T15:09:34.594Z] 9,485,452 100% 5.23MB/s 0:00:01 (xfr#394, ir-chk=1149/3396)
23:09:34 [2026-05-05T15:09:34.594Z] rsync: [receiver] mkstemp "/data/docker-ce/linux/centos/7/aarch64/nightly/Packages/.docker-ce-cli-0.0.0.20181120210342.8bff18d-0.el7.aarch64.rpm.tzSL9N" failed: No space left on device (28)
23:09:34 [2026-05-05T15:09:34.594Z]
23:09:34 [2026-05-05T15:09:34.844Z] 0 0% 0.00kB/s 0:00:00
23:09:35 [2026-05-05T15:09:35.395Z] 3,406,160 35% 3.24MB/s 0:00:01
23:09:35 [2026-05-05T15:09:35.395Z] 9,485,444 100% 6.07MB/s 0:00:01 (xfr#395, ir-chk=1148/3396)
23:09:35 [2026-05-05T15:09:35.395Z] rsync: [receiver] mkstemp "/data/docker-ce/linux/centos/7/aarch64/nightly/Packages/.docker-ce-cli-0.0.0.20181122090351.3c69cab-0.el7.aarch64.rpm.CXO4Am" failed: No space left on device (28)
23:09:35 [2026-05-05T15:09:35.395Z]
23:09:35 [2026-05-05T15:09:35.946Z] 0 0% 0.00kB/s 0:00:00
23:09:36 [2026-05-05T15:09:36.196Z] 6,371,459 67% 6.08MB/s 0:00:00
23:09:36 [2026-05-05T15:09:36.196Z] 9,496,668 100% 7.22MB/s 0:00:01 (xfr#396, ir-chk=1147/3396)
23:09:36 [2026-05-05T15:09:36.196Z] rsync: [receiver] mkstemp "/data/docker-ce/linux/centos/7/aarch64/nightly/Packages/.docker-ce-cli-0.0.0.20181124130408.13de924-0.el7.aarch64.rpm.6MFdjl" failed: No space left on device (28)
23:09:36 [2026-05-05T15:09:36.196Z]
23:09:36 [2026-05-05T15:09:36.747Z] 0 0% 0.00kB/s 0:00:00
23:09:36 [2026-05-05T15:09:36.997Z] 9,287,519 97% 8.86MB/s 0:00:00
23:09:36 [2026-05-05T15:09:36.997Z] 9,496,660 100% 8.91MB/s 0:00:01 (xfr#397, ir-chk=1146/3396)
23:09:36 [2026-05-05T15:09:36.997Z] rsync: [receiver] mkstemp "/data/docker-ce/linux/centos/7/aarch64/nightly/Packages/.docker-ce-cli-0.0.0.20181128010312.f9756bf-0.el7.aarch64.rpm.GDkAAf" failed: No space left on device (28)
23:09:36 [2026-05-05T15:09:36.997Z]
23:09:37 [2026-05-05T15:09:37.548Z] 0 0% 0.00kB/s 0:00:00
23:09:37 [2026-05-05T15:09:37.548Z] 9,496,660 100% 11.35MB/s 0:00:00 (xfr#398, ir-chk=1145/3396)
23:09:37 [2026-05-05T15:09:37.548Z] rsync: [receiver] mkstemp "/data/docker-ce/linux/centos/7/aarch64/nightly/Packages/.docker-ce-cli-0.0.0.20181211170416.308261e-0.el7.aarch64.rpm.ohb7u6" failed: No space left on device (28)
23:09:37 [2026-05-05T15:09:37.798Z]
23:09:37 [2026-05-05T15:09:37.798Z] 0 0% 0.00kB/s 0:00:00
23:09:38 [2026-05-05T15:09:38.349Z] 358,887 3% 346.32kB/s 0:00:26
23:09:38 [2026-05-05T15:09:38.349Z] 9,499,104 100% 5.76MB/s 0:00:01 (xfr#399, ir-chk=1144/3396)
23:09:38 [2026-05-05T15:09:38.349Z] rsync: [receiver] mkstemp "/data/docker-ce/linux/centos/7/aarch64/nightly/Packages/.docker-ce-cli-0.0.0.20181213123650.d79e916-0.el7.aarch64.rpm.fFuMhk" failed: No space left on device (28)
23:09:38 [2026-05-05T15:09:38.349Z]
23:09:38 [2026-05-05T15:09:38.900Z] 0 0% 0.00kB/s 0:00:00
23:09:39 [2026-05-05T15:09:39.150Z] 5,044,360 53% 4.81MB/s 0:00:00
23:09:39 [2026-05-05T15:09:39.150Z] 9,497,924 100% 6.91MB/s 0:00:01 (xfr#400, ir-chk=1143/3396)
23:09:39 [2026-05-05T15:09:39.150Z] rsync: [receiver] mkstemp "/data/docker-ce/linux/centos/7/aarch64/nightly/Packages/.docker-ce-cli-0.0.0.20181215050358.f2c7e91-0.el7.aarch64.rpm.YkjPmV" failed: No space left on device (28)
23:09:39 [2026-05-05T15:09:39.150Z]
23:09:40 [2026-05-05T15:09:40.061Z] 0 0% 0.00kB/s 0:00:00
23:09:40 [2026-05-05T15:09:40.061Z] 8,599,347 90% 8.20MB/s 0:00:00
23:09:40 [2026-05-05T15:09:40.061Z] 9,492,820 100% 8.42MB/s 0:00:01 (xfr#401, ir-chk=1142/3396)
23:09:40 [2026-05-05T15:09:40.061Z] rsync: [receiver] mkstemp "/data/docker-ce/linux/centos/7/aarch64/nightly/Packages/.docker-ce-cli-0.0.0.20181217210421.fecd406-0.el7.aarch64.rpm.R4PdWb" failed: No space left on device (28)
23:09:40 [2026-05-05T15:09:40.061Z]
23:09:40 [2026-05-05T15:09:40.972Z] 0 0% 0.00kB/s 0:00:00
23:09:40 [2026-05-05T15:09:40.972Z] 10,867,708 100% 10.90MB/s 0:00:00 (xfr#402, ir-chk=1141/3396)
23:09:40 [2026-05-05T15:09:40.972Z] rsync: [receiver] mkstemp "/data/docker-ce/linux/centos/7/aarch64/nightly/Packages/.docker-ce-cli-0.0.0.20181219010127.1041509-0.el7.aarch64.rpm.JLhfOv" failed: No space left on device (28)
23:09:40 [2026-05-05T15:09:40.972Z]
23:09:40 [2026-05-05T15:09:40.972Z] 0 0% 0.00kB/s 0:00:00
23:09:41 [2026-05-05T15:09:41.883Z] 637,385 5% 622.45kB/s 0:00:16
23:09:41 [2026-05-05T15:09:41.883Z] 10,867,708 100% 5.69MB/s 0:00:01 (xfr#403, ir-chk=1140/3396)
23:09:41 [2026-05-05T15:09:41.883Z] rsync: [receiver] mkstemp "/data/docker-ce/linux/centos/7/aarch64/nightly/Packages/.docker-ce-cli-0.0.0.20181220050336.a4f854a-0.el7.aarch64.rpm.GrXFMm" failed: No space left on device (28)
23:09:41 [2026-05-05T15:09:41.883Z]
23:09:41 [2026-05-05T15:09:41.883Z] 0 0% 0.00kB/s 0:00:00
23:09:42 [2026-05-05T15:09:42.794Z] 2,160,977 19% 2.06MB/s 0:00:04
23:09:42 [2026-05-05T15:09:42.794Z] 10,873,032 100% 6.10MB/s 0:00:01 (xfr#404, ir-chk=1139/3396)
23:09:42 [2026-05-05T15:09:42.794Z] rsync: [receiver] mkstemp "/data/docker-ce/linux/centos/7/aarch64/nightly/Packages/.docker-ce-cli-0.0.0.20181221050404.a307f26-0.el7.aarch64.rpm.IRmk8B" failed: No space left on device (28)
23:09:42 [2026-05-05T15:09:42.794Z]
23:09:42 [2026-05-05T15:09:42.794Z] 0 0% 0.00kB/s 0:00:00
23:09:43 [2026-05-05T15:09:43.345Z] 3,684,550 33% 3.51MB/s 0:00:01
23:09:43 [2026-05-05T15:09:43.345Z] 10,872,996 100% 6.57MB/s 0:00:01 (xfr#405, ir-chk=1138/3396)
23:09:43 [2026-05-05T15:09:43.345Z] rsync: [receiver] mkstemp "/data/docker-ce/linux/centos/7/aarch64/nightly/Packages/.docker-ce-cli-0.0.0.20181222003650.2cfce80-0.el7.aarch64.rpm.rePyuB" failed: No space left on device (28)
23:09:43 [2026-05-05T15:09:43.345Z]
23:09:43 [2026-05-05T15:09:43.896Z] 0 0% 0.00kB/s 0:00:00
23:09:44 [2026-05-05T15:09:44.446Z] 4,634,742 42% 4.42MB/s 0:00:01
23:09:44 [2026-05-05T15:09:44.446Z] 10,873,008 100% 7.13MB/s 0:00:01 (xfr#406, ir-chk=1137/3396)
23:09:44 [2026-05-05T15:09:44.447Z] rsync: [receiver] mkstemp "/data/docker-ce/linux/centos/7/aarch64/nightly/Packages/.docker-ce-cli-0.0.0.20181225010501.3528d4e-0.el7.aarch64.rpm.gxir07" failed: No space left on device (28)
23:09:44 [2026-05-05T15:09:44.447Z]
23:09:44 [2026-05-05T15:09:44.997Z] 0 0% 0.00kB/s 0:00:00
23:09:45 [2026-05-05T15:09:45.248Z] 6,682,573 61% 6.37MB/s 0:00:00
23:09:45 [2026-05-05T15:09:45.248Z] 10,873,000 100% 7.83MB/s 0:00:01 (xfr#407, ir-chk=1136/3396)
23:09:45 [2026-05-05T15:09:45.248Z] rsync: [receiver] mkstemp "/data/docker-ce/linux/centos/7/aarch64/nightly/Packages/.docker-ce-cli-0.0.0.20181225130149.f40fa59-0.el7.aarch64.rpm.aElCgt" failed: No space left on device (28)
23:09:45 [2026-05-05T15:09:45.248Z]
23:09:45 [2026-05-05T15:09:45.799Z] 0 0% 0.00kB/s 0:00:00
23:09:46 [2026-05-05T15:09:46.049Z] 8,353,600 76% 7.97MB/s 0:00:00
23:09:46 [2026-05-05T15:09:46.049Z] 10,873,000 100% 8.56MB/s 0:00:01 (xfr#408, ir-chk=1135/3396)
23:09:46 [2026-05-05T15:09:46.049Z] rsync: [receiver] mkstemp "/data/docker-ce/linux/centos/7/aarch64/nightly/Packages/.docker-ce-cli-0.0.0.20181229043715.da66ccf-0.el7.aarch64.rpm.1OCobX" failed: No space left on device (28)
23:09:46 [2026-05-05T15:09:46.049Z]
23:09:46 [2026-05-05T15:09:46.960Z] 0 0% 0.00kB/s 0:00:00
23:09:46 [2026-05-05T15:09:46.960Z] 9,500,383 86% 9.06MB/s 0:00:00
23:09:46 [2026-05-05T15:09:46.960Z] 10,990,092 100% 9.35MB/s 0:00:01 (xfr#409, ir-chk=1134/3396)
23:09:46 [2026-05-05T15:09:46.960Z] rsync: [receiver] mkstemp "/data/docker-ce/linux/centos/7/aarch64/nightly/Packages/.docker-ce-cli-0.0.0.20181230010359.25b9b47-0.el7.aarch64.rpm.izkdSf" failed: No space left on device (28)
23:09:46 [2026-05-05T15:09:46.960Z]
23:09:47 [2026-05-05T15:09:47.871Z] 0 0% 0.00kB/s 0:00:00
23:09:48 [2026-05-05T15:09:48.782Z] 6,060,053 55% 5.74MB/s 0:00:00
23:09:49 [2026-05-05T15:09:49.033Z] 10,090,181 91% 4.79MB/s 0:00:00
23:09:49 [2026-05-05T15:09:49.033Z] 10,990,088 100% 4.93MB/s 0:00:02 (xfr#410, ir-chk=1133/3396)
23:09:49 [2026-05-05T15:09:49.033Z] rsync: [receiver] mkstemp "/data/docker-ce/linux/centos/7/aarch64/nightly/Packages/.docker-ce-cli-0.0.0.20181231210400.679443a-0.el7.aarch64.rpm.XvC7I3" failed: No space left on device (28)
23:09:49 [2026-05-05T15:09:49.033Z]
23:09:49 [2026-05-05T15:09:49.583Z] 0 0% 0.00kB/s 0:00:00
23:09:49 [2026-05-05T15:09:49.583Z] 10,990,404 100% 15.32MB/s 0:00:00 (xfr#411, ir-chk=1132/3396)
23:09:49 [2026-05-05T15:09:49.583Z] rsync: [receiver] mkstemp "/data/docker-ce/linux/centos/7/aarch64/nightly/Packages/.docker-ce-cli-0.0.0.20190103050401.a1a72d4-0.el7.aarch64.rpm.i010FK" failed: No space left on device (28)
23:09:49 [2026-05-05T15:09:49.583Z]
23:09:49 [2026-05-05T15:09:49.834Z] 0 0% 0.00kB/s 0:00:00
23:09:50 [2026-05-05T15:09:50.384Z] 5,617,716 51% 5.36MB/s 0:00:00
23:09:50 [2026-05-05T15:09:50.384Z] 10,990,408 100% 7.51MB/s 0:00:01 (xfr#412, ir-chk=1131/3396)
23:09:50 [2026-05-05T15:09:50.384Z] rsync: [receiver] mkstemp "/data/docker-ce/linux/centos/7/aarch64/nightly/Packages/.docker-ce-cli-0.0.0.20190104010151.749e29d-0.el7.aarch64.rpm.dS0kkn" failed: No space left on device (28)
23:09:50 [2026-05-05T15:09:50.384Z]
23:09:50 [2026-05-05T15:09:50.935Z] 0 0% 0.00kB/s 0:00:00
23:09:51 [2026-05-05T15:09:51.185Z] 7,485,331 68% 7.14MB/s 0:00:00
23:09:51 [2026-05-05T15:09:51.185Z] 10,990,404 100% 8.23MB/s 0:00:01 (xfr#413, ir-chk=1130/3396)
23:09:51 [2026-05-05T15:09:51.185Z] rsync: [receiver] mkstemp "/data/docker-ce/linux/centos/7/aarch64/nightly/Packages/.docker-ce-cli-0.0.0.20190105050443.85291e3-0.el7.aarch64.rpm.KFRNEO" failed: No space left on device (28)
23:09:51 [2026-05-05T15:09:51.185Z]
23:09:52 [2026-05-05T15:09:52.096Z] 0 0% 0.00kB/s 0:00:00
23:09:52 [2026-05-05T15:09:52.096Z] 8,484,674 77% 8.09MB/s 0:00:00
23:09:52 [2026-05-05T15:09:52.096Z] 10,989,556 100% 8.97MB/s 0:00:01 (xfr#414, ir-chk=1129/3396)
23:09:52 [2026-05-05T15:09:52.096Z] rsync: [receiver] mkstemp "/data/docker-ce/linux/centos/7/aarch64/nightly/Packages/.docker-ce-cli-0.0.0.20190107010505.c555f91-0.el7.aarch64.rpm.bzPuho" failed: No space left on device (28)
23:09:52 [2026-05-05T15:09:52.096Z]
23:09:53 [2026-05-05T15:09:53.007Z] 0 0% 0.00kB/s 0:00:00
23:09:53 [2026-05-05T15:09:53.007Z] 8,992,533 81% 8.58MB/s 0:00:00
23:09:53 [2026-05-05T15:09:53.007Z] 10,989,552 100% 9.15MB/s 0:00:01 (xfr#415, ir-chk=1128/3396)
23:09:53 [2026-05-05T15:09:53.007Z] rsync: [receiver] mkstemp "/data/docker-ce/linux/centos/7/aarch64/nightly/Packages/.docker-ce-cli-0.0.0.20190108123715.09fe6b1-0.el7.aarch64.rpm.ribEC9" failed: No space left on device (28)
23:09:53 [2026-05-05T15:09:53.007Z]
23:09:53 [2026-05-05T15:09:53.918Z] 0 0% 0.00kB/s 0:00:00
23:09:53 [2026-05-05T15:09:53.918Z] 10,984,408 100% 11.17MB/s 0:00:00 (xfr#416, ir-chk=1127/3396)
23:09:53 [2026-05-05T15:09:53.918Z] rsync: [receiver] mkstemp "/data/docker-ce/linux/centos/7/aarch64/nightly/Packages/.docker-ce-cli-0.0.0.20190111050345.c4951b2-0.el7.aarch64.rpm.ddqw4G" failed: No space left on device (28)
23:09:53 [2026-05-05T15:09:53.918Z]
23:09:53 [2026-05-05T15:09:53.918Z] 0 0% 0.00kB/s 0:00:00
23:09:54 [2026-05-05T15:09:54.829Z] 719,307 6% 702.45kB/s 0:00:14
23:09:54 [2026-05-05T15:09:54.829Z] 10,978,292 100% 5.74MB/s 0:00:01 (xfr#417, ir-chk=1126/3396)
23:09:54 [2026-05-05T15:09:54.829Z] rsync: [receiver] mkstemp "/data/docker-ce/linux/centos/7/aarch64/nightly/Packages/.docker-ce-cli-0.0.0.20190112050448.66a4801-0.el7.aarch64.rpm.PmOUBV" failed: No space left on device (28)
23:09:54 [2026-05-05T15:09:54.829Z]
23:09:54 [2026-05-05T15:09:54.829Z] 0 0% 0.00kB/s 0:00:00
23:09:55 [2026-05-05T15:09:55.740Z] 2,259,275 20% 2.15MB/s 0:00:03
23:09:55 [2026-05-05T15:09:55.740Z] 10,978,292 100% 6.12MB/s 0:00:01 (xfr#418, ir-chk=1125/3396)
23:09:55 [2026-05-05T15:09:55.740Z] rsync: [receiver] mkstemp "/data/docker-ce/linux/centos/7/aarch64/nightly/Packages/.docker-ce-cli-0.0.0.20190112210159.0091813-0.el7.aarch64.rpm.AuiHKr" failed: No space left on device (28)
23:09:55 [2026-05-05T15:09:55.740Z]
23:09:55 [2026-05-05T15:09:55.991Z] 0 0% 0.00kB/s 0:00:00
23:09:56 [2026-05-05T15:09:56.541Z] 3,569,881 32% 3.40MB/s 0:00:02
23:09:56 [2026-05-05T15:09:56.541Z] 10,978,320 100% 6.51MB/s 0:00:01 (xfr#419, ir-chk=1124/3396)
23:09:56 [2026-05-05T15:09:56.541Z] rsync: [receiver] mkstemp "/data/docker-ce/linux/centos/7/aarch64/nightly/Packages/.docker-ce-cli-0.0.0.20190115050438.213c434-0.el7.aarch64.rpm.M5aSln" failed: No space left on device (28)
23:09:56 [2026-05-05T15:09:56.541Z]
23:09:56 [2026-05-05T15:09:56.792Z] 0 0% 0.00kB/s 0:00:00
23:09:57 [2026-05-05T15:09:57.342Z] 5,077,086 46% 4.80MB/s 0:00:01
23:09:57 [2026-05-05T15:09:57.342Z] 10,978,292 100% 7.05MB/s 0:00:01 (xfr#420, ir-chk=1123/3396)
23:09:57 [2026-05-05T15:09:57.342Z] rsync: [receiver] mkstemp "/data/docker-ce/linux/centos/7/aarch64/nightly/Packages/.docker-ce-cli-0.0.0.20190116010454.36320f5-0.el7.aarch64.rpm.z0VQFw" failed: No space left on device (28)
23:09:57 [2026-05-05T15:09:57.342Z]
23:09:57 [2026-05-05T15:09:57.893Z] 0 0% 0.00kB/s 0:00:00
23:09:58 [2026-05-05T15:09:58.144Z] 6,535,841 59% 6.23MB/s 0:00:00
23:09:58 [2026-05-05T15:09:58.144Z] 10,954,136 100% 7.71MB/s 0:00:01 (xfr#421, ir-chk=1122/3396)
23:09:58 [2026-05-05T15:09:58.144Z] rsync: [receiver] mkstemp "/data/docker-ce/linux/centos/7/aarch64/nightly/Packages/.docker-ce-cli-0.0.0.20190122010523.26af87f-0.el7.aarch64.rpm.8aRWtm" failed: No space left on device (28)
23:09:58 [2026-05-05T15:09:58.144Z]
23:09:59 [2026-05-05T15:09:59.055Z] 0 0% 0.00kB/s 0:00:00
23:09:59 [2026-05-05T15:09:59.055Z] 8,059,428 73% 7.69MB/s 0:00:00
23:09:59 [2026-05-05T15:09:59.055Z] 10,954,212 100% 8.45MB/s 0:00:01 (xfr#422, ir-chk=1121/3396)
23:09:59 [2026-05-05T15:09:59.055Z] rsync: [receiver] mkstemp "/data/docker-ce/linux/centos/7/aarch64/nightly/Packages/.docker-ce-cli-0.0.0.20190123050358.750d978-0.el7.aarch64.rpm.TNNHY9" failed: No space left on device (28)
23:09:59 [2026-05-05T15:09:59.055Z]
23:09:59 [2026-05-05T15:09:59.966Z] 0 0% 0.00kB/s 0:00:00
23:09:59 [2026-05-05T15:09:59.966Z] 9,517,479 86% 9.08MB/s 0:00:00
23:09:59 [2026-05-05T15:09:59.966Z] 10,954,220 100% 9.36MB/s 0:00:01 (xfr#423, ir-chk=1120/3396)
23:09:59 [2026-05-05T15:09:59.966Z] rsync: [receiver] mkstemp "/data/docker-ce/linux/centos/7/aarch64/nightly/Packages/.docker-ce-cli-0.0.0.20190123210304.c6e4a69-0.el7.aarch64.rpm.Wi7IyR" failed: No space left on device (28)
23:09:59 [2026-05-05T15:09:59.966Z]
23:10:00 [2026-05-05T15:10:00.877Z] 0 0% 0.00kB/s 0:00:00
23:10:00 [2026-05-05T15:10:00.877Z] 10,877,241 99% 10.37MB/s 0:00:00
23:10:00 [2026-05-05T15:10:00.877Z] 10,959,872 100% 10.44MB/s 0:00:01 (xfr#424, ir-chk=1119/3396)
23:10:00 [2026-05-05T15:10:00.877Z] rsync: [receiver] mkstemp "/data/docker-ce/linux/centos/7/aarch64/nightly/Packages/.docker-ce-cli-0.0.0.20190125163721.0955c3b-0.el7.aarch64.rpm.kWCOUC" failed: No space left on device (28)
23:10:00 [2026-05-05T15:10:00.877Z]
23:10:01 [2026-05-05T15:10:01.788Z] 0 0% 0.00kB/s 0:00:00
23:10:01 [2026-05-05T15:10:01.788Z] 10,960,132 100% 11.89MB/s 0:00:00 (xfr#425, ir-chk=1118/3396)
23:10:01 [2026-05-05T15:10:01.788Z] rsync: [receiver] mkstemp "/data/docker-ce/linux/centos/7/aarch64/nightly/Packages/.docker-ce-cli-0.0.0.20190127050414.4e64113-0.el7.aarch64.rpm.PIjwDG" failed: No space left on device (28)
23:10:01 [2026-05-05T15:10:01.788Z]
23:10:01 [2026-05-05T15:10:01.788Z] 0 0% 0.00kB/s 0:00:00
23:10:02 [2026-05-05T15:10:02.699Z] 1,195,107 10% 1.13MB/s 0:00:08
23:10:02 [2026-05-05T15:10:02.699Z] 10,960,120 100% 5.88MB/s 0:00:01 (xfr#426, ir-chk=1117/3396)
23:10:02 [2026-05-05T15:10:02.699Z] rsync: [receiver] mkstemp "/data/docker-ce/linux/centos/7/aarch64/nightly/Packages/.docker-ce-cli-0.0.0.20190129010403.e360050-0.el7.aarch64.rpm.sgs0og" failed: No space left on device (28)
23:10:02 [2026-05-05T15:10:02.699Z]
23:10:02 [2026-05-05T15:10:02.949Z] 0 0% 0.00kB/s 0:00:00
23:10:03 [2026-05-05T15:10:03.500Z] 2,653,165 24% 2.53MB/s 0:00:03
23:10:03 [2026-05-05T15:10:03.500Z] 11,014,400 100% 6.25MB/s 0:00:01 (xfr#427, ir-chk=1116/3396)
23:10:03 [2026-05-05T15:10:03.500Z] rsync: [receiver] mkstemp "/data/docker-ce/linux/centos/7/aarch64/nightly/Packages/.docker-ce-cli-0.0.0.20190129203719.72c51e4-0.el7.aarch64.rpm.2hflS3" failed: No space left on device (28)
23:10:03 [2026-05-05T15:10:03.500Z]
23:10:04 [2026-05-05T15:10:04.051Z] 0 0% 0.00kB/s 0:00:00
23:10:04 [2026-05-05T15:10:04.601Z] 3,947,388 35% 3.76MB/s 0:00:01
23:10:04 [2026-05-05T15:10:04.601Z] 11,014,228 100% 6.43MB/s 0:00:01 (xfr#428, ir-chk=1115/3396)
23:10:04 [2026-05-05T15:10:04.601Z] rsync: [receiver] mkstemp "/data/docker-ce/linux/centos/7/aarch64/nightly/Packages/.docker-ce-cli-0.0.0.20190201010607.00085fc-0.el7.aarch64.rpm.BducqX" failed: No space left on device (28)
23:10:04 [2026-05-05T15:10:04.601Z]
23:10:04 [2026-05-05T15:10:04.852Z] 0 0% 0.00kB/s 0:00:00
23:10:05 [2026-05-05T15:10:05.402Z] 5,274,356 47% 5.03MB/s 0:00:01
23:10:05 [2026-05-05T15:10:05.402Z] 11,029,680 100% 7.18MB/s 0:00:01 (xfr#429, ir-chk=1114/3396)
23:10:05 [2026-05-05T15:10:05.402Z] rsync: [receiver] mkstemp "/data/docker-ce/linux/centos/7/aarch64/nightly/Packages/.docker-ce-cli-0.0.0.20190202010501.c8cc737-0.el7.aarch64.rpm.aa7h8q" failed: No space left on device (28)
23:10:05 [2026-05-05T15:10:05.402Z]
23:10:05 [2026-05-05T15:10:05.953Z] 0 0% 0.00kB/s 0:00:00
23:10:06 [2026-05-05T15:10:06.204Z] 6,617,736 59% 6.31MB/s 0:00:00
23:10:06 [2026-05-05T15:10:06.204Z] 11,029,684 100% 7.77MB/s 0:00:01 (xfr#430, ir-chk=1113/3396)
23:10:06 [2026-05-05T15:10:06.204Z] rsync: [receiver] mkstemp "/data/docker-ce/linux/centos/7/aarch64/nightly/Packages/.docker-ce-cli-0.0.0.20190207010449.b3de847-0.el7.aarch64.rpm.DzwI4t" failed: No space left on device (28)
23:10:06 [2026-05-05T15:10:06.204Z]
23:10:07 [2026-05-05T15:10:07.115Z] 0 0% 0.00kB/s 0:00:00
23:10:07 [2026-05-05T15:10:07.115Z] 8,026,641 72% 7.65MB/s 0:00:00
23:10:07 [2026-05-05T15:10:07.115Z] 11,025,080 100% 8.49MB/s 0:00:01 (xfr#431, ir-chk=1112/3396)
23:10:07 [2026-05-05T15:10:07.115Z] rsync: [receiver] mkstemp "/data/docker-ce/linux/centos/7/aarch64/nightly/Packages/.docker-ce-cli-0.0.0.20190211170408.013c963-0.el7.aarch64.rpm.QCXV0Z" failed: No space left on device (28)
23:10:07 [2026-05-05T15:10:07.115Z]
23:10:08 [2026-05-05T15:10:08.026Z] 0 0% 0.00kB/s 0:00:00
23:10:08 [2026-05-05T15:10:08.026Z] 9,402,784 85% 8.97MB/s 0:00:00
23:10:08 [2026-05-05T15:10:08.026Z] 11,019,276 100% 9.33MB/s 0:00:01 (xfr#432, ir-chk=1111/3396)
23:10:08 [2026-05-05T15:10:08.026Z] rsync: [receiver] mkstemp "/data/docker-ce/linux/centos/7/aarch64/nightly/Packages/.docker-ce-cli-0.0.0.20190215010505.cdd6e1e-0.el7.aarch64.rpm.TsKGVj" failed: No space left on device (28)
23:10:08 [2026-05-05T15:10:08.026Z]
23:10:08 [2026-05-05T15:10:08.937Z] 0 0% 0.00kB/s 0:00:00
23:10:08 [2026-05-05T15:10:08.937Z] 10,877,227 98% 10.37MB/s 0:00:00
23:10:08 [2026-05-05T15:10:08.937Z] 11,032,108 100% 10.40MB/s 0:00:01 (xfr#433, ir-chk=1110/3396)
23:10:08 [2026-05-05T15:10:08.937Z] rsync: [receiver] mkstemp "/data/docker-ce/linux/centos/7/aarch64/nightly/Packages/.docker-ce-cli-0.0.0.20190227090449.9a03e1c-0.el7.aarch64.rpm.zLb8p5" failed: No space left on device (28)
23:10:08 [2026-05-05T15:10:08.937Z]
23:10:09 [2026-05-05T15:10:09.847Z] 0 0% 0.00kB/s 0:00:00
23:10:09 [2026-05-05T15:10:09.847Z] 11,039,416 100% 11.57MB/s 0:00:00 (xfr#434, ir-chk=1109/3396)
23:10:09 [2026-05-05T15:10:09.848Z] rsync: [receiver] mkstemp "/data/docker-ce/linux/centos/7/aarch64/nightly/Packages/.docker-ce-cli-0.0.0.20190301010537.fec57a0-0.el7.aarch64.rpm.SINjkY" failed: No space left on device (28)
23:10:09 [2026-05-05T15:10:09.848Z]
23:10:09 [2026-05-05T15:10:09.848Z] 0 0% 0.00kB/s 0:00:00
23:10:10 [2026-05-05T15:10:10.758Z] 949,354 8% 926.18kB/s 0:00:10
23:10:10 [2026-05-05T15:10:10.758Z] 11,039,368 100% 5.83MB/s 0:00:01 (xfr#435, ir-chk=1108/3396)
23:10:10 [2026-05-05T15:10:10.759Z] rsync: [receiver] mkstemp "/data/docker-ce/linux/centos/7/aarch64/nightly/Packages/.docker-ce-cli-0.0.0.20190301203728.55a53a8-0.el7.aarch64.rpm.mFLORG" failed: No space left on device (28)
23:10:10 [2026-05-05T15:10:10.759Z]
23:10:11 [2026-05-05T15:10:11.009Z] 0 0% 0.00kB/s 0:00:00
23:10:11 [2026-05-05T15:10:11.560Z] 2,554,854 23% 2.44MB/s 0:00:03
23:10:11 [2026-05-05T15:10:11.560Z] 11,039,356 100% 6.28MB/s 0:00:01 (xfr#436, ir-chk=1107/3396)
23:10:11 [2026-05-05T15:10:11.560Z] rsync: [receiver] mkstemp "/data/docker-ce/linux/centos/7/aarch64/nightly/Packages/.docker-ce-cli-0.0.0.20190302010515.7954951-0.el7.aarch64.rpm.ZbSNIV" failed: No space left on device (28)
23:10:11 [2026-05-05T15:10:11.560Z]
23:10:11 [2026-05-05T15:10:11.810Z] 0 0% 0.00kB/s 0:00:00
23:10:12 [2026-05-05T15:10:12.361Z] 3,898,229 35% 3.71MB/s 0:00:01
23:10:12 [2026-05-05T15:10:12.361Z] 11,039,352 100% 6.73MB/s 0:00:01 (xfr#437, ir-chk=1106/3396)
23:10:12 [2026-05-05T15:10:12.361Z] rsync: [receiver] mkstemp "/data/docker-ce/linux/centos/7/aarch64/nightly/Packages/.docker-ce-cli-0.0.0.20190303123726.ad3f034-0.el7.aarch64.rpm.SfCNPY" failed: No space left on device (28)
23:10:12 [2026-05-05T15:10:12.361Z]
23:10:12 [2026-05-05T15:10:12.911Z] 0 0% 0.00kB/s 0:00:00
23:10:13 [2026-05-05T15:10:13.462Z] 5,290,751 47% 5.05MB/s 0:00:01
23:10:13 [2026-05-05T15:10:13.462Z] 11,044,164 100% 7.16MB/s 0:00:01 (xfr#438, ir-chk=1105/3396)
23:10:13 [2026-05-05T15:10:13.462Z] rsync: [receiver] mkstemp "/data/docker-ce/linux/centos/7/aarch64/nightly/Packages/.docker-ce-cli-0.0.0.20190304210442.0e492cb-0.el7.aarch64.rpm.DndeBa" failed: No space left on device (28)
23:10:13 [2026-05-05T15:10:13.462Z]
23:10:14 [2026-05-05T15:10:14.013Z] 0 0% 0.00kB/s 0:00:00
23:10:14 [2026-05-05T15:10:14.263Z] 6,355,618 57% 6.06MB/s 0:00:00
23:10:14 [2026-05-05T15:10:14.263Z] 11,044,168 100% 7.75MB/s 0:00:01 (xfr#439, ir-chk=1104/3396)
23:10:14 [2026-05-05T15:10:14.263Z] rsync: [receiver] mkstemp "/data/docker-ce/linux/centos/7/aarch64/nightly/Packages/.docker-ce-cli-0.0.0.20190306010238.27492c9-0.el7.aarch64.rpm.Gq5GwC" failed: No space left on device (28)
23:10:14 [2026-05-05T15:10:14.263Z]
23:10:14 [2026-05-05T15:10:14.814Z] 0 0% 0.00kB/s 0:00:00
23:10:15 [2026-05-05T15:10:15.064Z] 8,124,948 73% 7.75MB/s 0:00:00
23:10:15 [2026-05-05T15:10:15.064Z] 11,041,420 100% 8.42MB/s 0:00:01 (xfr#440, ir-chk=1103/3396)
23:10:15 [2026-05-05T15:10:15.064Z] rsync: [receiver] mkstemp "/data/docker-ce/linux/centos/7/aarch64/nightly/Packages/.docker-ce-cli-0.0.0.20190312170557.6424c78-0.el7.aarch64.rpm.qyhZjx" failed: No space left on device (28)
23:10:15 [2026-05-05T15:10:15.064Z]
23:10:15 [2026-05-05T15:10:15.975Z] 0 0% 0.00kB/s 0:00:00
23:10:16 [2026-05-05T15:10:16.886Z] 9,288,283 51% 8.77MB/s 0:00:00
23:10:16 [2026-05-05T15:10:16.886Z] 17,944,632 100% 8.91MB/s 0:00:01 (xfr#441, ir-chk=1102/3396)
23:10:16 [2026-05-05T15:10:16.886Z] rsync: [receiver] mkstemp "/data/docker-ce/linux/centos/7/aarch64/nightly/Packages/.docker-ce-cli-0.0.0.20190312210234.bea0535-0.el7.aarch64.rpm.BR0YXy" failed: No space left on device (28)
23:10:16 [2026-05-05T15:10:16.886Z]
23:10:16 [2026-05-05T15:10:16.886Z] 0 0% 0.00kB/s 0:00:00
23:10:17 [2026-05-05T15:10:17.797Z] 1,211,594 6% 1.16MB/s 0:00:14
23:10:18 [2026-05-05T15:10:18.048Z] 16,234,463 90% 7.74MB/s 0:00:00
23:10:18 [2026-05-05T15:10:18.048Z] 17,948,880 100% 8.04MB/s 0:00:02 (xfr#442, ir-chk=1101/3396)
23:10:18 [2026-05-05T15:10:18.048Z] rsync: [receiver] mkstemp "/data/docker-ce/linux/centos/7/aarch64/nightly/Packages/.docker-ce-cli-0.0.0.20190314010511.f642da5-0.el7.aarch64.rpm.E4HpVz" failed: No space left on device (28)
23:10:18 [2026-05-05T15:10:18.048Z]
23:10:18 [2026-05-05T15:10:18.959Z] 0 0% 0.00kB/s 0:00:00
23:10:19 [2026-05-05T15:10:19.509Z] 10,844,630 60% 10.34MB/s 0:00:00
23:10:19 [2026-05-05T15:10:19.509Z] 17,955,016 100% 10.79MB/s 0:00:01 (xfr#443, ir-chk=1100/3396)
23:10:19 [2026-05-05T15:10:19.509Z] rsync: [receiver] mkstemp "/data/docker-ce/linux/centos/7/aarch64/nightly/Packages/.docker-ce-cli-0.0.0.20190319043728.f180b7c-0.el7.aarch64.rpm.2EZMVL" failed: No space left on device (28)
23:10:19 [2026-05-05T15:10:19.509Z]
23:10:20 [2026-05-05T15:10:20.060Z] 0 0% 0.00kB/s 0:00:00
23:10:20 [2026-05-05T15:10:20.971Z] 5,258,142 29% 5.01MB/s 0:00:02
23:10:20 [2026-05-05T15:10:20.971Z] 17,659,791 98% 8.43MB/s 0:00:00
23:10:20 [2026-05-05T15:10:20.971Z] 17,958,704 100% 8.50MB/s 0:00:02 (xfr#444, ir-chk=1099/3396)
23:10:20 [2026-05-05T15:10:20.971Z] rsync: [receiver] mkstemp "/data/docker-ce/linux/centos/7/aarch64/nightly/Packages/.docker-ce-cli-0.0.0.20190322190813.1d0b2e3-0.el7.aarch64.rpm.dxBL9b" failed: No space left on device (28)
23:10:20 [2026-05-05T15:10:20.971Z]
23:10:21 [2026-05-05T15:10:21.882Z] 0 0% 0.00kB/s 0:00:00
23:10:22 [2026-05-05T15:10:22.433Z] 12,188,005 67% 11.62MB/s 0:00:00
23:10:22 [2026-05-05T15:10:22.433Z] 18,085,140 100% 11.54MB/s 0:00:01 (xfr#445, ir-chk=1098/3396)
23:10:22 [2026-05-05T15:10:22.433Z] rsync: [receiver] mkstemp "/data/docker-ce/linux/centos/7/aarch64/nightly/Packages/.docker-ce-cli-0.0.0.20190327181934.dce6483-0.el7.aarch64.rpm.G6OwPA" failed: No space left on device (28)
23:10:22 [2026-05-05T15:10:22.433Z]
23:10:22 [2026-05-05T15:10:22.983Z] 0 0% 0.00kB/s 0:00:00
23:10:23 [2026-05-05T15:10:23.894Z] 6,421,358 35% 6.12MB/s 0:00:01
23:10:23 [2026-05-05T15:10:23.894Z] 18,085,148 100% 8.87MB/s 0:00:01 (xfr#446, ir-chk=1097/3396)
23:10:35 [2026-05-05T15:10:35.991Z]
23:10:35 [2026-05-05T15:10:35.991Z] sent 12,689 bytes received 6,536,527,600 bytes 11,724,735.94 bytes/sec
23:10:35 [2026-05-05T15:10:35.991Z] total size is 169,494,170,212 speedup is 25.93
23:10:35 [2026-05-05T15:10:35.991Z] rsync error: some files/attrs were not transferred (see previous errors) (code 23) at main.c(1865) [generator=3.2.7]
23:10:36 [2026-05-05T15:10:36.419Z] [Pipeline] }
23:10:36 [2026-05-05T15:10:36.708Z] [Pipeline] // stage
23:10:37 [2026-05-05T15:10:37.050Z] [Pipeline] stage
23:10:37 [2026-05-05T15:10:37.095Z] [Pipeline] { (Ubuntu)
23:10:37 [2026-05-05T15:10:37.188Z] Stage "Ubuntu" skipped due to earlier failure(s)
23:10:37 [2026-05-05T15:10:37.310Z] [Pipeline] getContext
23:10:37 [2026-05-05T15:10:37.524Z] [Pipeline] }
23:10:37 [2026-05-05T15:10:37.748Z] [Pipeline] // stage
23:10:37 [2026-05-05T15:10:37.947Z] [Pipeline] stage
23:10:38 [2026-05-05T15:10:38.034Z] [Pipeline] { (CentOS6)
23:10:38 [2026-05-05T15:10:38.110Z] Stage "CentOS6" skipped due to earlier failure(s)
23:10:38 [2026-05-05T15:10:38.184Z] [Pipeline] getContext
23:10:38 [2026-05-05T15:10:38.298Z] [Pipeline] }
23:10:38 [2026-05-05T15:10:38.538Z] [Pipeline] // stage
23:10:38 [2026-05-05T15:10:38.846Z] [Pipeline] stage
23:10:38 [2026-05-05T15:10:38.901Z] [Pipeline] { (CentOS7)
23:10:38 [2026-05-05T15:10:38.982Z] Stage "CentOS7" skipped due to earlier failure(s)
23:10:39 [2026-05-05T15:10:39.058Z] [Pipeline] getContext
23:10:39 [2026-05-05T15:10:39.205Z] [Pipeline] }
23:10:39 [2026-05-05T15:10:39.420Z] [Pipeline] // stage
23:10:39 [2026-05-05T15:10:39.618Z] [Pipeline] stage
23:10:39 [2026-05-05T15:10:39.665Z] [Pipeline] { (Epel)
23:10:39 [2026-05-05T15:10:39.739Z] Stage "Epel" skipped due to earlier failure(s)
23:10:39 [2026-05-05T15:10:39.823Z] [Pipeline] getContext
23:10:39 [2026-05-05T15:10:39.995Z] [Pipeline] }
23:10:40 [2026-05-05T15:10:40.201Z] [Pipeline] // stage
23:10:40 [2026-05-05T15:10:40.432Z] [Pipeline] stage
23:10:40 [2026-05-05T15:10:40.471Z] [Pipeline] { (Ius)
23:10:40 [2026-05-05T15:10:40.593Z] Stage "Ius" skipped due to earlier failure(s)
23:10:40 [2026-05-05T15:10:40.677Z] [Pipeline] getContext
23:10:40 [2026-05-05T15:10:40.807Z] [Pipeline] }
23:10:41 [2026-05-05T15:10:41.050Z] [Pipeline] // stage
23:10:41 [2026-05-05T15:10:41.271Z] [Pipeline] stage
23:10:41 [2026-05-05T15:10:41.326Z] [Pipeline] { (GitLab-CE)
23:10:41 [2026-05-05T15:10:41.398Z] Stage "GitLab-CE" skipped due to earlier failure(s)
23:10:41 [2026-05-05T15:10:41.499Z] [Pipeline] getContext
23:10:41 [2026-05-05T15:10:41.671Z] [Pipeline] }
23:10:41 [2026-05-05T15:10:41.872Z] [Pipeline] // stage
23:10:42 [2026-05-05T15:10:42.137Z] [Pipeline] stage
23:10:42 [2026-05-05T15:10:42.175Z] [Pipeline] { (Dart)
23:10:42 [2026-05-05T15:10:42.264Z] Stage "Dart" skipped due to earlier failure(s)
23:10:42 [2026-05-05T15:10:42.347Z] [Pipeline] getContext
23:10:42 [2026-05-05T15:10:42.599Z] [Pipeline] }
23:10:42 [2026-05-05T15:10:42.783Z] [Pipeline] // stage
23:10:43 [2026-05-05T15:10:43.022Z] [Pipeline] stage
23:10:43 [2026-05-05T15:10:43.061Z] [Pipeline] { (Flutter)
23:10:43 [2026-05-05T15:10:43.133Z] Stage "Flutter" skipped due to earlier failure(s)
23:10:43 [2026-05-05T15:10:43.259Z] [Pipeline] getContext
23:10:43 [2026-05-05T15:10:43.381Z] [Pipeline] }
23:10:43 [2026-05-05T15:10:43.613Z] [Pipeline] // stage
23:10:43 [2026-05-05T15:10:43.812Z] [Pipeline] stage
23:10:43 [2026-05-05T15:10:43.875Z] [Pipeline] { (Alpine)
23:10:43 [2026-05-05T15:10:43.956Z] Stage "Alpine" skipped due to earlier failure(s)
23:10:44 [2026-05-05T15:10:44.039Z] [Pipeline] getContext
23:10:44 [2026-05-05T15:10:44.154Z] [Pipeline] }
23:10:44 [2026-05-05T15:10:44.387Z] [Pipeline] // stage
23:10:44 [2026-05-05T15:10:44.628Z] [Pipeline] stage
23:10:44 [2026-05-05T15:10:44.665Z] [Pipeline] { (MySQL)
23:10:44 [2026-05-05T15:10:44.755Z] Stage "MySQL" skipped due to earlier failure(s)
23:10:44 [2026-05-05T15:10:44.888Z] [Pipeline] getContext
23:10:45 [2026-05-05T15:10:45.036Z] [Pipeline] }
23:10:45 [2026-05-05T15:10:45.243Z] [Pipeline] // stage
23:10:45 [2026-05-05T15:10:45.467Z] [Pipeline] stage
23:10:45 [2026-05-05T15:10:45.504Z] [Pipeline] { (MongoDB)
23:10:45 [2026-05-05T15:10:45.587Z] Stage "MongoDB" skipped due to earlier failure(s)
23:10:45 [2026-05-05T15:10:45.686Z] [Pipeline] getContext
23:10:45 [2026-05-05T15:10:45.817Z] [Pipeline] }
23:10:46 [2026-05-05T15:10:46.025Z] [Pipeline] // stage
23:10:46 [2026-05-05T15:10:46.282Z] [Pipeline] stage
23:10:46 [2026-05-05T15:10:46.320Z] [Pipeline] { (OpenResty)
23:10:46 [2026-05-05T15:10:46.402Z] Stage "OpenResty" skipped due to earlier failure(s)
23:10:46 [2026-05-05T15:10:46.476Z] [Pipeline] getContext
23:10:46 [2026-05-05T15:10:46.606Z] [Pipeline] }
23:10:46 [2026-05-05T15:10:46.787Z] [Pipeline] // stage
23:10:46 [2026-05-05T15:10:46.943Z] [Pipeline] }
23:10:47 [2026-05-05T15:10:47.116Z] [Pipeline] // timeout
23:10:47 [2026-05-05T15:10:47.240Z] [Pipeline] }
23:10:47 [2026-05-05T15:10:47.421Z] [Pipeline] // timestamps
23:10:47 [2026-05-05T15:10:47.543Z] [Pipeline] }
23:10:47 [2026-05-05T15:10:47.750Z] [Pipeline] // node
23:10:47 [2026-05-05T15:10:47.997Z] [Pipeline] End of Pipeline
23:10:48 [2026-05-05T15:10:48.179Z] ERROR: script returned exit code 23
23:10:48 [2026-05-05T15:10:48.386Z] Finished: FAILURE